| time (UTC) | temp C | wind direction | speed KPH | gust KPH | rain 1hr cm | rain 24hr cm | rain mn cm | humidity % | barometer mb |
| 20260904094156 | 22 | 107 | 6.4 | 11.3 | 0.00 | 0.00 | 0.00 | 97 | 1011.1 |
| 20260904094101 | 22 | 114 | 4.8 | 6.4 | 0.00 | 0.00 | 0.00 | 96 | 1011.0 |
| 20260904094007 | 22 | 110 | 3.2 | 6.4 | 0.00 | 0.00 | 0.00 | 96 | 1011.0 |
| 20260904093931 | 22 | 110 | 1.6 | 9.7 | 0.00 | 0.00 | 0.00 | 96 | 1011.0 |
| 20260904093759 | 22 | 110 | 1.6 | 9.7 | 0.00 | 0.00 | 0.00 | 96 | 1010.9 |
| 20260904093704 | 22 | 110 | 1.6 | 9.7 | 0.00 | 0.00 | 0.00 | 96 | 1010.9 |
| 20260904093609 | 22 | 110 | 1.6 | 9.7 | 0.00 | 0.00 | 0.00 | 96 | 1010.9 |
| 20260904093514 | 22 | 110 | 1.6 | 9.7 | 0.00 | 0.00 | 0.00 | 96 | 1010.9 |
| 20260904093357 | 22 | 110 | 3.2 | 9.7 | 0.00 | 0.00 | 0.00 | 96 | 1011.0 |
| 20260904093302 | 22 | 110 | 4.8 | 9.7 | 0.00 | 0.00 | 0.00 | 96 | 1011.1 |
| 20260904093207 | 22 | 110 | 6.4 | 9.7 | 0.00 | 0.00 | 0.00 | 96 | 1011.1 |
| 20260904093136 | 22 | 111 | 6.4 | 9.7 | 0.00 | 0.00 | 0.00 | 96 | 1011.1 |
| 20260904092959 | 22 | 113 | 4.8 | 9.7 | 0.00 | 0.00 | 0.00 | 96 | 1011.2 |
| 20260904092924 | 22 | 117 | 4.8 | 9.7 | 0.00 | 0.00 | 0.00 | 96 | 1011.1 |
| 20260904092808 | 22 | 108 | 4.8 | 9.7 | 0.00 | 0.00 | 0.00 | 96 | 1011.1 |
| 20260904092713 | 22 | 107 | 4.8 | 9.7 | 0.00 | 0.00 | 0.00 | 96 | 1011.1 |
| 20260904092557 | 22 | 107 | 3.2 | 6.4 | 0.00 | 0.00 | 0.00 | 96 | 1011.1 |
| 20260904092507 | 22 | 107 | 1.6 | 6.4 | 0.00 | 0.00 | 0.00 | 96 | 1011.1 |
| 20260904092432 | 22 | 107 | 1.6 | 9.7 | 0.00 | 0.00 | 0.00 | 96 | 1011.0 |
| 20260904092315 | 22 | 107 | 0.0 | 9.7 | 0.00 | 0.00 | 0.00 | 96 | 1011.0 |
| 20260904092240 | 22 | 107 | 0.0 | 9.7 | 0.00 | 0.00 | 0.00 | 96 | 1010.9 |
| 20260904092057 | 22 | 107 | 0.0 | 9.7 | 0.00 | 0.00 | 0.00 | 96 | 1010.9 |
| 20260904092002 | 22 | 107 | 1.6 | 9.7 | 0.00 | 0.00 | 0.00 | 96 | 1011.0 |
| 20260904091907 | 22 | 107 | 3.2 | 9.7 | 0.00 | 0.00 | 0.00 | 96 | 1011.0 |
| 20260904091756 | 22 | 107 | 4.8 | 9.7 | 0.00 | 0.00 | 0.00 | 96 | 1011.2 |
| 20260904091721 | 22 | 107 | 6.4 | 9.7 | 0.00 | 0.00 | 0.00 | 96 | 1011.2 |
| 20260904091558 | 22 | 111 | 6.4 | 9.7 | 0.00 | 0.00 | 0.00 | 96 | 1011.2 |
| 20260904091504 | 22 | 103 | 6.4 | 11.3 | 0.00 | 0.00 | 0.00 | 96 | 1011.1 |
| 20260904091408 | 22 | 114 | 4.8 | 12.9 | 0.00 | 0.00 | 0.00 | 96 | 1011.0 |
| 20260904091308 | 22 | 144 | 1.6 | 14.5 | 0.00 | 0.00 | 0.00 | 96 | 1011.0 |
| 20260904091156 | 22 | 145 | 1.6 | 14.5 | 0.00 | 0.00 | 0.00 | 96 | 1010.9 |
| 20260904091121 | 22 | 145 | 3.2 | 14.5 | 0.00 | 0.00 | 0.00 | 96 | 1010.8 |
| 20260904091005 | 22 | 145 | 3.2 | 14.5 | 0.00 | 0.00 | 0.00 | 96 | 1010.9 |
| 20260904090907 | 22 | 119 | 4.8 | 14.5 | 0.00 | 0.00 | 0.00 | 96 | 1010.9 |
| 20260904090812 | 22 | 115 | 4.8 | 14.5 | 0.00 | 0.00 | 0.00 | 96 | 1010.9 |
| 20260904090658 | 22 | 119 | 8.0 | 14.5 | 0.00 | 0.00 | 0.00 | 96 | 1011.1 |
| 20260904090623 | 22 | 98 | 9.7 | 14.5 | 0.00 | 0.00 | 0.00 | 96 | 1011.1 |
| 20260904090511 | 22 | 78 | 11.3 | 14.5 | 0.00 | 0.00 | 0.00 | 96 | 1011.1 |
| 20260904090355 | 22 | 96 | 9.7 | 14.5 | 0.00 | 0.00 | 0.00 | 96 | 1011.1 |
| 20260904090319 | 22 | 94 | 6.4 | 16.1 | 0.00 | 0.00 | 0.00 | 96 | 1011.1 |
| 20260904090156 | 22 | 117 | 3.2 | 20.9 | 0.00 | 0.00 | 0.00 | 96 | 1010.9 |
| 20260904090120 | 22 | 117 | 0.0 | 20.9 | 0.00 | 0.00 | 0.00 | 95 | 1010.9 |
| 20260904090023 | 22 | 117 | 0.0 | 20.9 | 0.00 | 0.00 | 0.00 | 95 | 1010.8 |
| 20260904085905 | 22 | 117 | 1.6 | 20.9 | 0.00 | 0.00 | 0.00 | 95 | 1010.8 |
| 20260904085814 | 22 | 117 | 4.8 | 20.9 | 0.00 | 0.00 | 0.00 | 95 | 1010.8 |
| 20260904085721 | 22 | 117 | 8.0 | 20.9 | 0.00 | 0.00 | 0.00 | 95 | 1010.8 |
| 20260904085559 | 22 | 112 | 11.3 | 20.9 | 0.00 | 0.00 | 0.00 | 95 | 1010.9 |
| 20260904085504 | 22 | 82 | 14.5 | 20.9 | 0.00 | 0.00 | 0.00 | 95 | 1010.9 |
| 20260904085409 | 22 | 80 | 14.5 | 20.9 | 0.00 | 0.00 | 0.00 | 96 | 1010.9 |
| 20260904085313 | 22 | 80 | 12.9 | 17.7 | 0.00 | 0.00 | 0.00 | 95 | 1010.8 |
| 20260904085242 | 22 | 85 | 11.3 | 14.5 | 0.00 | 0.00 | 0.00 | 96 | 1010.9 |
| 20260904085058 | 22 | 104 | 8.0 | 11.3 | 0.00 | 0.00 | 0.00 | 95 | 1010.7 |
| 20260904085003 | 22 | 117 | 6.4 | 9.7 | 0.00 | 0.00 | 0.00 | 95 | 1010.6 |
| 20260904084927 | 22 | 129 | 6.4 | 8.0 | 0.00 | 0.00 | 0.00 | 95 | 1010.6 |
| 20260904084831 | 22 | 159 | 4.8 | 8.0 | 0.00 | 0.00 | 0.00 | 95 | 1010.5 |
| 20260904084656 | 22 | 197 | 3.2 | 4.8 | 0.00 | 0.00 | 0.00 | 95 | 1010.4 |
| 20260904084600 | 22 | 217 | 1.6 | 4.8 | 0.00 | 0.00 | 0.00 | 95 | 1010.4 |
| 20260904084530 | 22 | 217 | 1.6 | 3.2 | 0.00 | 0.00 | 0.00 | 95 | 1010.4 |
| 20260904084414 | 22 | 217 | 0.0 | 3.2 | 0.00 | 0.00 | 0.00 | 95 | 1010.4 |
| 20260904084318 | 22 | 217 | 0.0 | 3.2 | 0.00 | 0.00 | 0.00 | 96 | 1010.4 |
| 20260904084202 | 22 | 217 | 0.0 | 4.8 | 0.00 | 0.00 | 0.00 | 96 | 1010.3 |
| 20260904084106 | 22 | 217 | 0.0 | 4.8 | 0.00 | 0.00 | 0.00 | 96 | 1010.3 |
| 20260904084010 | 22 | 217 | 0.0 | 4.8 | 0.00 | 0.00 | 0.00 | 95 | 1010.3 |
| 20260904083859 | 22 | 217 | 0.0 | 4.8 | 0.00 | 0.00 | 0.00 | 95 | 1010.2 |
| 20260904083804 | 22 | 217 | 1.6 | 4.8 | 0.00 | 0.00 | 0.00 | 95 | 1010.2 |
| 20260904083709 | 22 | 217 | 1.6 | 4.8 | 0.00 | 0.00 | 0.00 | 95 | 1010.2 |
| 20260904083633 | 22 | 217 | 1.6 | 4.8 | 0.00 | 0.00 | 0.00 | 95 | 1010.2 |
| 20260904083457 | 22 | 217 | 3.2 | 4.8 | 0.00 | 0.00 | 0.00 | 95 | 1010.2 |
| 20260904083402 | 22 | 217 | 3.2 | 6.4 | 0.00 | 0.00 | 0.00 | 95 | 1010.2 |
| 20260904083327 | 22 | 217 | 3.2 | 6.4 | 0.00 | 0.00 | 0.00 | 95 | 1010.2 |
| 20260904083231 | 22 | 217 | 3.2 | 6.4 | 0.00 | 0.00 | 0.00 | 95 | 1010.1 |
| 20260904083119 | 22 | 217 | 3.2 | 6.4 | 0.00 | 0.00 | 0.00 | 95 | 1010.1 |
| 20260904082956 | 22 | 217 | 3.2 | 6.4 | 0.00 | 0.00 | 0.00 | 95 | 1010.1 |
| 20260904082901 | 22 | 217 | 3.2 | 6.4 | 0.00 | 0.00 | 0.00 | 95 | 1010.2 |
| 20260904082807 | 22 | 217 | 3.2 | 6.4 | 0.00 | 0.00 | 0.00 | 95 | 1010.2 |
| 20260904082712 | 22 | 218 | 3.2 | 6.4 | 0.00 | 0.00 | 0.00 | 95 | 1010.2 |
| 20260904082600 | 22 | 218 | 3.2 | 6.4 | 0.00 | 0.00 | 0.00 | 95 | 1010.2 |
| 20260904082506 | 22 | 218 | 3.2 | 6.4 | 0.00 | 0.00 | 0.00 | 95 | 1010.2 |
| 20260904082411 | 22 | 218 | 3.2 | 6.4 | 0.00 | 0.00 | 0.00 | 95 | 1010.1 |
| 20260904082256 | 22 | 218 | 3.2 | 6.4 | 0.00 | 0.00 | 0.00 | 95 | 1010.1 |
| 20260904082200 | 22 | 218 | 3.2 | 6.4 | 0.00 | 0.00 | 0.00 | 95 | 1010.2 |
| 20260904082105 | 22 | 218 | 4.8 | 6.4 | 0.00 | 0.00 | 0.00 | 95 | 1010.2 |
| 20260904082014 | 22 | 218 | 3.2 | 6.4 | 0.00 | 0.00 | 0.00 | 95 | 1010.1 |
| 20260904081919 | 22 | 218 | 4.8 | 6.4 | 0.00 | 0.00 | 0.00 | 95 | 1010.1 |
| 20260904081756 | 22 | 218 | 4.8 | 6.4 | 0.00 | 0.00 | 0.00 | 95 | 1010.1 |
| 20260904081722 | 22 | 218 | 4.8 | 6.4 | 0.00 | 0.00 | 0.00 | 95 | 1010.1 |
| 20260904081606 | 22 | 218 | 4.8 | 6.4 | 0.00 | 0.00 | 0.00 | 95 | 1010.1 |
| 20260904081530 | 22 | 218 | 4.8 | 6.4 | 0.00 | 0.00 | 0.00 | 95 | 1010.2 |
| 20260904081434 | 22 | 218 | 4.8 | 4.8 | 0.00 | 0.00 | 0.00 | 95 | 1010.2 |
| 20260904081319 | 22 | 218 | 4.8 | 4.8 | 0.00 | 0.00 | 0.00 | 94 | 1010.2 |
| 20260904081206 | 22 | 218 | 4.8 | 4.8 | 0.00 | 0.00 | 0.00 | 94 | 1010.2 |
| 20260904081131 | 22 | 218 | 3.2 | 4.8 | 0.00 | 0.00 | 0.00 | 94 | 1010.2 |
| 20260904080956 | 22 | 218 | 3.2 | 4.8 | 0.00 | 0.00 | 0.00 | 94 | 1010.2 |
| 20260904080921 | 22 | 218 | 3.2 | 4.8 | 0.00 | 0.00 | 0.00 | 94 | 1010.1 |
| 20260904080805 | 22 | 218 | 3.2 | 4.8 | 0.00 | 0.00 | 0.00 | 94 | 1010.2 |
| 20260904080709 | 22 | 218 | 3.2 | 4.8 | 0.00 | 0.00 | 0.00 | 94 | 1010.2 |
| 20260904080634 | 22 | 218 | 3.2 | 4.8 | 0.00 | 0.00 | 0.00 | 94 | 1010.2 |
| 20260904080522 | 22 | 218 | 3.2 | 4.8 | 0.00 | 0.00 | 0.00 | 94 | 1010.3 |
| 20260904080358 | 22 | 218 | 3.2 | 4.8 | 0.00 | 0.00 | 0.00 | 94 | 1010.2 |
| 20260904080304 | 22 | 218 | 3.2 | 3.2 | 0.00 | 0.00 | 0.00 | 94 | 1010.2 |
| 20260904080206 | 22 | 218 | 3.2 | 3.2 | 0.00 | 0.00 | 0.00 | 94 | 1010.2 |
| 20260904080110 | 22 | 218 | 1.6 | 3.2 | 0.00 | 0.00 | 0.00 | 94 | 1010.2 |
| 20260904075956 | 22 | 218 | 1.6 | 4.8 | 0.00 | 0.00 | 0.00 | 94 | 1010.2 |
| 20260904075920 | 22 | 218 | 3.2 | 4.8 | 0.00 | 0.00 | 0.00 | 94 | 1010.2 |
| 20260904075807 | 22 | 218 | 1.6 | 4.8 | 0.00 | 0.00 | 0.00 | 94 | 1010.2 |
| 20260904075713 | 22 | 218 | 1.6 | 4.8 | 0.00 | 0.00 | 0.00 | 94 | 1010.3 |
| 20260904075557 | 22 | 218 | 1.6 | 4.8 | 0.00 | 0.00 | 0.00 | 94 | 1010.3 |
| 20260904075503 | 22 | 218 | 1.6 | 4.8 | 0.00 | 0.00 | 0.00 | 94 | 1010.2 |
| 20260904075407 | 22 | 218 | 3.2 | 4.8 | 0.00 | 0.00 | 0.00 | 94 | 1010.2 |
| 20260904075333 | 22 | 218 | 1.6 | 4.8 | 0.00 | 0.00 | 0.00 | 93 | 1010.2 |
| 20260904075201 | 22 | 218 | 3.2 | 4.8 | 0.00 | 0.00 | 0.00 | 93 | 1010.2 |
| 20260904075106 | 22 | 218 | 3.2 | 4.8 | 0.00 | 0.00 | 0.00 | 93 | 1010.2 |
| 20260904075010 | 22 | 218 | 3.2 | 4.8 | 0.00 | 0.00 | 0.00 | 93 | 1010.2 |
| 20260904074934 | 22 | 218 | 3.2 | 4.8 | 0.00 | 0.00 | 0.00 | 94 | 1010.1 |
| 20260904074817 | 22 | 218 | 3.2 | 4.8 | 0.00 | 0.00 | 0.00 | 94 | 1010.2 |
| 20260904074742 | 22 | 218 | 1.6 | 4.8 | 0.00 | 0.00 | 0.00 | 94 | 1010.2 |
| 20260904074558 | 22 | 218 | 1.6 | 4.8 | 0.00 | 0.00 | 0.00 | 94 | 1010.2 |
| 20260904074508 | 22 | 218 | 1.6 | 4.8 | 0.00 | 0.00 | 0.00 | 94 | 1010.2 |
| 20260904074412 | 22 | 218 | 1.6 | 6.4 | 0.00 | 0.00 | 0.00 | 94 | 1010.1 |
| 20260904074258 | 22 | 218 | 1.6 | 6.4 | 0.00 | 0.00 | 0.00 | 94 | 1010.1 |
| 20260904074203 | 22 | 218 | 1.6 | 6.4 | 0.00 | 0.00 | 0.00 | 94 | 1010.1 |
| 20260904074107 | 22 | 218 | 1.6 | 6.4 | 0.00 | 0.00 | 0.00 | 94 | 1010.1 |
| 20260904074033 | 22 | 218 | 3.2 | 6.4 | 0.00 | 0.00 | 0.00 | 94 | 1010.2 |
| 20260904073900 | 22 | 218 | 4.8 | 6.4 | 0.00 | 0.00 | 0.00 | 94 | 1010.1 |
| 20260904073806 | 22 | 218 | 4.8 | 6.4 | 0.00 | 0.00 | 0.00 | 94 | 1010.1 |
| 20260904073730 | 22 | 218 | 4.8 | 6.4 | 0.00 | 0.00 | 0.00 | 94 | 1010.2 |
| 20260904073615 | 22 | 218 | 4.8 | 6.4 | 0.00 | 0.00 | 0.00 | 94 | 1010.1 |
| 20260904073519 | 22 | 219 | 4.8 | 6.4 | 0.00 | 0.00 | 0.00 | 94 | 1010.2 |
| 20260904073357 | 22 | 219 | 4.8 | 4.8 | 0.00 | 0.00 | 0.00 | 94 | 1010.2 |
| 20260904073305 | 22 | 219 | 3.2 | 4.8 | 0.00 | 0.00 | 0.00 | 93 | 1010.2 |
| 20260904073211 | 22 | 219 | 3.2 | 6.4 | 0.00 | 0.00 | 0.00 | 93 | 1010.3 |
| 20260904073115 | 22 | 219 | 3.2 | 6.4 | 0.00 | 0.00 | 0.00 | 93 | 1010.2 |
| 20260904072959 | 22 | 219 | 3.2 | 6.4 | 0.00 | 0.00 | 0.00 | 93 | 1010.2 |
| 20260904072924 | 22 | 219 | 3.2 | 6.4 | 0.00 | 0.00 | 0.00 | 93 | 1010.3 |
| 20260904072808 | 22 | 219 | 3.2 | 6.4 | 0.00 | 0.00 | 0.00 | 93 | 1010.3 |
| 20260904072656 | 22 | 219 | 3.2 | 6.4 | 0.00 | 0.00 | 0.00 | 93 | 1010.2 |
| 20260904072601 | 22 | 219 | 3.2 | 6.4 | 0.00 | 0.00 | 0.00 | 93 | 1010.2 |
| 20260904072506 | 23 | 219 | 4.8 | 6.4 | 0.00 | 0.00 | 0.00 | 93 | 1010.2 |
| 20260904072410 | 23 | 219 | 3.2 | 6.4 | 0.00 | 0.00 | 0.00 | 93 | 1010.3 |
| 20260904072335 | 23 | 220 | 3.2 | 4.8 | 0.00 | 0.00 | 0.00 | 93 | 1010.2 |
| 20260904072219 | 23 | 220 | 4.8 | 4.8 | 0.00 | 0.00 | 0.00 | 93 | 1010.3 |
| 20260904072103 | 23 | 219 | 4.8 | 6.4 | 0.00 | 0.00 | 0.00 | 93 | 1010.2 |
| 20260904072013 | 23 | 220 | 4.8 | 6.4 | 0.00 | 0.00 | 0.00 | 93 | 1010.2 |
| 20260904071857 | 23 | 220 | 4.8 | 6.4 | 0.00 | 0.00 | 0.00 | 93 | 1010.2 |
| 20260904071803 | 23 | 220 | 3.2 | 8.0 | 0.00 | 0.00 | 0.00 | 93 | 1010.3 |
| 20260904071707 | 23 | 220 | 3.2 | 8.0 | 0.00 | 0.00 | 0.00 | 93 | 1010.3 |
| 20260904071612 | 23 | 220 | 3.2 | 8.0 | 0.00 | 0.00 | 0.00 | 93 | 1010.2 |
| 20260904071457 | 23 | 220 | 3.2 | 8.0 | 0.00 | 0.00 | 0.00 | 93 | 1010.2 |
| 20260904071425 | 23 | 221 | 4.8 | 8.0 | 0.00 | 0.00 | 0.00 | 93 | 1010.2 |
| 20260904071310 | 23 | 221 | 4.8 | 8.0 | 0.00 | 0.00 | 0.00 | 93 | 1010.2 |
| 20260904071235 | 23 | 221 | 4.8 | 8.0 | 0.00 | 0.00 | 0.00 | 93 | 1010.2 |
| 20260904071119 | 23 | 221 | 4.8 | 8.0 | 0.00 | 0.00 | 0.00 | 93 | 1010.1 |
| 20260904071003 | 23 | 221 | 4.8 | 8.0 | 0.00 | 0.00 | 0.00 | 93 | 1010.2 |
| 20260904070907 | 23 | 221 | 4.8 | 8.0 | 0.00 | 0.00 | 0.00 | 93 | 1010.2 |
| 20260904070812 | 23 | 221 | 4.8 | 8.0 | 0.00 | 0.00 | 0.00 | 93 | 1010.2 |
| 20260904070721 | 23 | 221 | 4.8 | 8.0 | 0.00 | 0.00 | 0.00 | 93 | 1010.1 |
| 20260904070558 | 23 | 221 | 4.8 | 8.0 | 0.00 | 0.00 | 0.00 | 93 | 1010.2 |
| 20260904070524 | 23 | 221 | 4.8 | 8.0 | 0.00 | 0.00 | 0.00 | 93 | 1010.2 |
| 20260904070407 | 23 | 221 | 4.8 | 8.0 | 0.00 | 0.00 | 0.00 | 93 | 1010.2 |
| 20260904070313 | 23 | 221 | 4.8 | 9.7 | 0.00 | 0.00 | 0.00 | 93 | 1010.2 |
| 20260904070158 | 23 | 221 | 6.4 | 9.7 | 0.00 | 0.00 | 0.00 | 93 | 1010.2 |
| 20260904070106 | 23 | 221 | 6.4 | 9.7 | 0.00 | 0.00 | 0.00 | 93 | 1010.2 |
| 20260904070011 | 23 | 219 | 6.4 | 9.7 | 0.00 | 0.00 | 0.00 | 93 | 1010.2 |
| 20260904065936 | 23 | 234 | 6.4 | 9.7 | 0.00 | 0.00 | 0.00 | 93 | 1010.2 |
| 20260904065800 | 23 | 216 | 6.4 | 9.7 | 0.00 | 0.00 | 0.00 | 93 | 1010.3 |
| 20260904065704 | 23 | 216 | 6.4 | 9.7 | 0.00 | 0.00 | 0.00 | 93 | 1010.3 |
| 20260904065628 | 23 | 215 | 6.4 | 9.7 | 0.00 | 0.00 | 0.00 | 93 | 1010.3 |
| 20260904065512 | 23 | 216 | 6.4 | 9.7 | 0.00 | 0.00 | 0.00 | 93 | 1010.3 |
| 20260904065401 | 23 | 223 | 6.4 | 9.7 | 0.00 | 0.00 | 0.00 | 93 | 1010.3 |
| 20260904065307 | 23 | 224 | 6.4 | 9.7 | 0.00 | 0.00 | 0.00 | 93 | 1010.3 |
| 20260904065210 | 23 | 221 | 6.4 | 8.0 | 0.00 | 0.00 | 0.00 | 93 | 1010.2 |
| 20260904065056 | 23 | 224 | 6.4 | 8.0 | 0.00 | 0.00 | 0.00 | 93 | 1010.4 |
| 20260904065020 | 23 | 224 | 4.8 | 8.0 | 0.00 | 0.00 | 0.00 | 93 | 1010.4 |
| 20260904064859 | 23 | 224 | 4.8 | 8.0 | 0.00 | 0.00 | 0.00 | 93 | 1010.4 |
| 20260904064807 | 23 | 224 | 4.8 | 8.0 | 0.00 | 0.00 | 0.00 | 93 | 1010.4 |
| 20260904064712 | 23 | 224 | 4.8 | 8.0 | 0.00 | 0.00 | 0.00 | 93 | 1010.4 |
| 20260904064616 | 23 | 223 | 4.8 | 8.0 | 0.00 | 0.00 | 0.00 | 93 | 1010.3 |
| 20260904064542 | 23 | 224 | 4.8 | 8.0 | 0.00 | 0.00 | 0.00 | 93 | 1010.4 |
| 20260904064358 | 23 | 224 | 4.8 | 8.0 | 0.00 | 0.00 | 0.00 | 93 | 1010.4 |
| 20260904064304 | 23 | 225 | 6.4 | 8.0 | 0.00 | 0.00 | 0.00 | 93 | 1010.2 |
| 20260904064212 | 23 | 225 | 6.4 | 8.0 | 0.00 | 0.00 | 0.00 | 93 | 1010.2 |
| 20260904064136 | 23 | 205 | 4.8 | 8.0 | 0.00 | 0.00 | 0.00 | 93 | 1010.3 |
| 20260904064019 | 23 | 205 | 4.8 | 8.0 | 0.00 | 0.00 | 0.00 | 93 | 1010.3 |
| 20260904063856 | 23 | 202 | 4.8 | 6.4 | 0.00 | 0.00 | 0.00 | 93 | 1010.3 |
| 20260904063821 | 23 | 202 | 4.8 | 8.0 | 0.00 | 0.00 | 0.00 | 93 | 1010.3 |
| 20260904063704 | 23 | 202 | 4.8 | 8.0 | 0.00 | 0.00 | 0.00 | 93 | 1010.3 |
| 20260904063608 | 23 | 202 | 4.8 | 8.0 | 0.00 | 0.00 | 0.00 | 93 | 1010.3 |
| 20260904063458 | 23 | 202 | 4.8 | 8.0 | 0.00 | 0.00 | 0.00 | 93 | 1010.4 |
| 20260904063402 | 23 | 202 | 4.8 | 11.3 | 0.00 | 0.00 | 0.00 | 92 | 1010.4 |
| 20260904063327 | 23 | 202 | 4.8 | 11.3 | 0.00 | 0.00 | 0.00 | 92 | 1010.4 |
| 20260904063211 | 23 | 202 | 4.8 | 11.3 | 0.00 | 0.00 | 0.00 | 92 | 1010.4 |
| 20260904063116 | 23 | 201 | 6.4 | 11.3 | 0.00 | 0.00 | 0.00 | 92 | 1010.4 |
| 20260904063040 | 23 | 200 | 4.8 | 11.3 | 0.00 | 0.00 | 0.00 | 92 | 1010.4 |
| 20260904062857 | 23 | 200 | 4.8 | 11.3 | 0.00 | 0.00 | 0.00 | 93 | 1010.4 |
| 20260904062805 | 23 | 200 | 6.4 | 11.3 | 0.00 | 0.00 | 0.00 | 93 | 1010.4 |
| 20260904062711 | 23 | 199 | 6.4 | 11.3 | 0.00 | 0.00 | 0.00 | 92 | 1010.4 |
| 20260904062614 | 23 | 198 | 6.4 | 11.3 | 0.00 | 0.00 | 0.00 | 92 | 1010.4 |
| 20260904062459 | 23 | 212 | 6.4 | 9.7 | 0.00 | 0.00 | 0.00 | 93 | 1010.4 |
| 20260904062405 | 23 | 213 | 6.4 | 9.7 | 0.00 | 0.00 | 0.00 | 92 | 1010.5 |
| 20260904062309 | 23 | 211 | 6.4 | 9.7 | 0.00 | 0.00 | 0.00 | 93 | 1010.5 |
| 20260904062158 | 23 | 213 | 6.4 | 9.7 | 0.00 | 0.00 | 0.00 | 92 | 1010.4 |
| 20260904062104 | 23 | 211 | 6.4 | 8.0 | 0.00 | 0.00 | 0.00 | 92 | 1010.4 |
| 20260904062008 | 23 | 211 | 6.4 | 8.0 | 0.00 | 0.00 | 0.00 | 92 | 1010.4 |
| 20260904061913 | 23 | 194 | 6.4 | 8.0 | 0.00 | 0.00 | 0.00 | 92 | 1010.4 |
| 20260904061817 | 23 | 194 | 6.4 | 8.0 | 0.00 | 0.00 | 0.00 | 92 | 1010.3 |
| 20260904061701 | 23 | 192 | 6.4 | 8.0 | 0.00 | 0.00 | 0.00 | 92 | 1010.3 |
| 20260904061610 | 23 | 192 | 4.8 | 8.0 | 0.00 | 0.00 | 0.00 | 92 | 1010.3 |
| 20260904061515 | 23 | 184 | 4.8 | 8.0 | 0.00 | 0.00 | 0.00 | 92 | 1010.4 |
| 20260904061359 | 23 | 184 | 4.8 | 8.0 | 0.00 | 0.00 | 0.00 | 92 | 1010.4 |
| 20260904061304 | 23 | 184 | 4.8 | 8.0 | 0.00 | 0.00 | 0.00 | 92 | 1010.5 |
| 20260904061210 | 23 | 182 | 4.8 | 8.0 | 0.00 | 0.00 | 0.00 | 91 | 1010.5 |
| 20260904061114 | 23 | 182 | 4.8 | 8.0 | 0.00 | 0.00 | 0.00 | 91 | 1010.5 |
| 20260904061022 | 23 | 182 | 4.8 | 8.0 | 0.00 | 0.00 | 0.00 | 91 | 1010.5 |
| 20260904060906 | 23 | 182 | 4.8 | 8.0 | 0.00 | 0.00 | 0.00 | 91 | 1010.5 |
| 20260904060811 | 23 | 182 | 6.4 | 8.0 | 0.00 | 0.00 | 0.00 | 91 | 1010.5 |
| 20260904060656 | 23 | 182 | 6.4 | 8.0 | 0.00 | 0.00 | 0.00 | 92 | 1010.5 |
| 20260904060621 | 23 | 182 | 6.4 | 8.0 | 0.00 | 0.00 | 0.00 | 92 | 1010.5 |
| 20260904060457 | 23 | 180 | 4.8 | 8.0 | 0.00 | 0.00 | 0.00 | 92 | 1010.5 |
| 20260904060406 | 23 | 180 | 4.8 | 8.0 | 0.00 | 0.00 | 0.00 | 92 | 1010.5 |
| 20260904060331 | 23 | 177 | 4.8 | 8.0 | 0.00 | 0.00 | 0.00 | 92 | 1010.5 |
| 20260904060235 | 23 | 176 | 4.8 | 8.0 | 0.00 | 0.00 | 0.00 | 92 | 1010.5 |
| 20260904060059 | 23 | 176 | 4.8 | 8.0 | 0.00 | 0.00 | 0.00 | 92 | 1010.6 |
| 20260904060004 | 23 | 177 | 3.2 | 8.0 | 0.00 | 0.00 | 0.00 | 92 | 1010.4 |
| 20260904055909 | 23 | 176 | 3.2 | 8.0 | 0.00 | 0.00 | 0.00 | 92 | 1010.4 |
| 20260904055814 | 23 | 176 | 3.2 | 8.0 | 0.00 | 0.00 | 0.00 | 92 | 1010.5 |
| 20260904055703 | 23 | 176 | 4.8 | 8.0 | 0.00 | 0.00 | 0.00 | 92 | 1010.4 |
| 20260904055609 | 23 | 175 | 3.2 | 8.0 | 0.00 | 0.00 | 0.00 | 92 | 1010.4 |
| 20260904055533 | 23 | 175 | 3.2 | 8.0 | 0.00 | 0.00 | 0.00 | 92 | 1010.5 |
| 20260904055357 | 23 | 189 | 4.8 | 8.0 | 0.00 | 0.00 | 0.00 | 92 | 1010.5 |
| 20260904055301 | 23 | 190 | 4.8 | 8.0 | 0.00 | 0.00 | 0.00 | 92 | 1010.5 |
| 20260904055206 | 23 | 194 | 3.2 | 8.0 | 0.00 | 0.00 | 0.00 | 92 | 1010.5 |
| 20260904055056 | 23 | 194 | 4.8 | 8.0 | 0.00 | 0.00 | 0.00 | 92 | 1010.5 |
| 20260904055021 | 23 | 195 | 4.8 | 8.0 | 0.00 | 0.00 | 0.00 | 92 | 1010.5 |
| 20260904054904 | 23 | 195 | 4.8 | 8.0 | 0.00 | 0.00 | 0.00 | 92 | 1010.4 |
| 20260904054809 | 23 | 196 | 4.8 | 11.3 | 0.00 | 0.00 | 0.00 | 92 | 1010.4 |
| 20260904054734 | 23 | 200 | 6.4 | 11.3 | 0.00 | 0.00 | 0.00 | 92 | 1010.4 |
| 20260904054618 | 23 | 200 | 6.4 | 11.3 | 0.00 | 0.00 | 0.00 | 91 | 1010.4 |
| 20260904054456 | 23 | 200 | 4.8 | 11.3 | 0.00 | 0.00 | 0.00 | 91 | 1010.5 |
| 20260904054404 | 23 | 200 | 4.8 | 11.3 | 0.00 | 0.00 | 0.00 | 91 | 1010.5 |
| 20260904054309 | 23 | 200 | 6.4 | 11.3 | 0.00 | 0.00 | 0.00 | 91 | 1010.5 |
| 20260904054213 | 23 | 200 | 6.4 | 11.3 | 0.00 | 0.00 | 0.00 | 91 | 1010.4 |
| 20260904054057 | 23 | 198 | 8.0 | 11.3 | 0.00 | 0.00 | 0.00 | 91 | 1010.3 |
| 20260904054002 | 23 | 198 | 8.0 | 11.3 | 0.00 | 0.00 | 0.00 | 91 | 1010.3 |
| 20260904053907 | 23 | 199 | 8.0 | 11.3 | 0.00 | 0.00 | 0.00 | 91 | 1010.3 |
| 20260904053757 | 23 | 198 | 8.0 | 11.3 | 0.00 | 0.00 | 0.00 | 91 | 1010.4 |
| 20260904053701 | 23 | 186 | 8.0 | 11.3 | 0.00 | 0.00 | 0.00 | 91 | 1010.3 |
| 20260904053627 | 23 | 186 | 8.0 | 11.3 | 0.00 | 0.00 | 0.00 | 90 | 1010.3 |
| 20260904053531 | 23 | 182 | 8.0 | 11.3 | 0.00 | 0.00 | 0.00 | 90 | 1010.3 |
| 20260904053414 | 23 | 186 | 6.4 | 8.0 | 0.00 | 0.00 | 0.00 | 90 | 1010.4 |
| 20260904053259 | 23 | 185 | 6.4 | 8.0 | 0.00 | 0.00 | 0.00 | 90 | 1010.4 |
| 20260904053203 | 23 | 185 | 6.4 | 8.0 | 0.00 | 0.00 | 0.00 | 90 | 1010.4 |
| 20260904053112 | 23 | 185 | 6.4 | 8.0 | 0.00 | 0.00 | 0.00 | 90 | 1010.4 |
| 20260904052957 | 23 | 184 | 4.8 | 8.0 | 0.00 | 0.00 | 0.00 | 90 | 1010.5 |
| 20260904052903 | 23 | 184 | 4.8 | 8.0 | 0.00 | 0.00 | 0.00 | 91 | 1010.4 |
| 20260904052807 | 23 | 184 | 3.2 | 8.0 | 0.00 | 0.00 | 0.00 | 91 | 1010.4 |
| 20260904052712 | 23 | 182 | 3.2 | 11.3 | 0.00 | 0.00 | 0.00 | 91 | 1010.5 |
| 20260904052601 | 23 | 182 | 3.2 | 11.3 | 0.00 | 0.00 | 0.00 | 91 | 1010.5 |
| 20260904052506 | 23 | 182 | 3.2 | 11.3 | 0.00 | 0.00 | 0.00 | 91 | 1010.5 |
| 20260904052411 | 23 | 181 | 3.2 | 11.3 | 0.00 | 0.00 | 0.00 | 91 | 1010.5 |
| 20260904052256 | 23 | 181 | 4.8 | 12.9 | 0.00 | 0.00 | 0.00 | 90 | 1010.4 |
| 20260904052201 | 23 | 181 | 6.4 | 14.5 | 0.00 | 0.00 | 0.00 | 90 | 1010.4 |
| 20260904052125 | 23 | 193 | 6.4 | 14.5 | 0.00 | 0.00 | 0.00 | 90 | 1010.4 |
| 20260904052009 | 23 | 199 | 8.0 | 14.5 | 0.00 | 0.00 | 0.00 | 90 | 1010.4 |
| 20260904051937 | 23 | 201 | 8.0 | 14.5 | 0.00 | 0.00 | 0.00 | 90 | 1010.4 |
| 20260904051841 | 23 | 194 | 8.0 | 14.5 | 0.00 | 0.00 | 0.00 | 90 | 1010.4 |
| 20260904051658 | 23 | 200 | 9.7 | 14.5 | 0.00 | 0.00 | 0.00 | 90 | 1010.5 |
| 20260904051604 | 23 | 196 | 9.7 | 14.5 | 0.00 | 0.00 | 0.00 | 90 | 1010.4 |
| 20260904051508 | 23 | 209 | 9.7 | 14.5 | 0.00 | 0.00 | 0.00 | 90 | 1010.4 |
| 20260904051413 | 23 | 200 | 9.7 | 14.5 | 0.00 | 0.00 | 0.00 | 90 | 1010.4 |
| 20260904051301 | 23 | 194 | 8.0 | 14.5 | 0.00 | 0.00 | 0.00 | 90 | 1010.3 |
| 20260904051225 | 23 | 204 | 6.4 | 11.3 | 0.00 | 0.00 | 0.00 | 90 | 1010.4 |
| 20260904051109 | 23 | 212 | 4.8 | 11.3 | 0.00 | 0.00 | 0.00 | 90 | 1010.4 |
| 20260904051014 | 23 | 212 | 4.8 | 11.3 | 0.00 | 0.00 | 0.00 | 90 | 1010.4 |
| 20260904050859 | 23 | 212 | 6.4 | 11.3 | 0.00 | 0.00 | 0.00 | 90 | 1010.4 |
| 20260904050804 | 23 | 213 | 6.4 | 11.3 | 0.00 | 0.00 | 0.00 | 90 | 1010.4 |
| 20260904050709 | 23 | 213 | 8.0 | 11.3 | 0.00 | 0.00 | 0.00 | 90 | 1010.4 |
| 20260904050558 | 23 | 198 | 8.0 | 11.3 | 0.00 | 0.00 | 0.00 | 90 | 1010.4 |
| 20260904050503 | 23 | 202 | 8.0 | 11.3 | 0.00 | 0.00 | 0.00 | 90 | 1010.3 |
| 20260904050408 | 23 | 201 | 8.0 | 11.3 | 0.00 | 0.00 | 0.00 | 89 | 1010.3 |
| 20260904050312 | 23 | 199 | 8.0 | 11.3 | 0.00 | 0.00 | 0.00 | 89 | 1010.4 |
| 20260904050217 | 23 | 187 | 8.0 | 11.3 | 0.00 | 0.00 | 0.00 | 89 | 1010.4 |
| 20260904050100 | 23 | 173 | 8.0 | 11.3 | 0.00 | 0.00 | 0.00 | 89 | 1010.3 |
| 20260904050008 | 23 | 190 | 8.0 | 11.3 | 0.00 | 0.00 | 0.00 | 89 | 1010.3 |
| 20260904045914 | 23 | 186 | 8.0 | 9.7 | 0.00 | 0.00 | 0.00 | 89 | 1010.3 |
| 20260904045819 | 23 | 167 | 6.4 | 9.7 | 0.00 | 0.00 | 0.00 | 89 | 1010.4 |
| 20260904045702 | 23 | 182 | 4.8 | 9.7 | 0.00 | 0.00 | 0.00 | 89 | 1010.4 |
| 20260904045625 | 24 | 172 | 4.8 | 6.4 | 0.00 | 0.00 | 0.00 | 89 | 1010.4 |
| 20260904045529 | 24 | 172 | 4.8 | 8.0 | 0.00 | 0.00 | 0.00 | 89 | 1010.4 |
| 20260904045413 | 24 | 169 | 4.8 | 8.0 | 0.00 | 0.00 | 0.00 | 89 | 1010.4 |
| 20260904045322 | 24 | 169 | 4.8 | 8.0 | 0.00 | 0.00 | 0.00 | 89 | 1010.3 |
| 20260904045226 | 24 | 170 | 4.8 | 8.0 | 0.00 | 0.00 | 0.00 | 89 | 1010.3 |
| 20260904045110 | 24 | 171 | 4.8 | 8.0 | 0.00 | 0.00 | 0.00 | 89 | 1010.3 |
| 20260904045014 | 24 | 171 | 3.2 | 8.0 | 0.00 | 0.00 | 0.00 | 89 | 1010.4 |
| 20260904044919 | 24 | 171 | 1.6 | 8.0 | 0.00 | 0.00 | 0.00 | 88 | 1010.4 |
| 20260904044803 | 24 | 171 | 1.6 | 8.0 | 0.00 | 0.00 | 0.00 | 88 | 1010.3 |
| 20260904044708 | 24 | 171 | 3.2 | 8.0 | 0.00 | 0.00 | 0.00 | 88 | 1010.4 |
| 20260904044616 | 24 | 171 | 3.2 | 8.0 | 0.00 | 0.00 | 0.00 | 88 | 1010.4 |
| 20260904044500 | 24 | 171 | 3.2 | 8.0 | 0.00 | 0.00 | 0.00 | 88 | 1010.4 |
| 20260904044405 | 24 | 171 | 4.8 | 8.0 | 0.00 | 0.00 | 0.00 | 88 | 1010.4 |
| 20260904044309 | 24 | 173 | 6.4 | 9.7 | 0.00 | 0.00 | 0.00 | 88 | 1010.4 |
| 20260904044215 | 24 | 173 | 6.4 | 9.7 | 0.00 | 0.00 | 0.00 | 88 | 1010.4 |
| 20260904044119 | 24 | 182 | 4.8 | 9.7 | 0.00 | 0.00 | 0.00 | 88 | 1010.3 |
| 20260904044004 | 24 | 184 | 4.8 | 9.7 | 0.00 | 0.00 | 0.00 | 88 | 1010.3 |
| 20260904043912 | 24 | 184 | 4.8 | 9.7 | 0.00 | 0.00 | 0.00 | 88 | 1010.3 |
| 20260904043819 | 24 | 182 | 4.8 | 9.7 | 0.00 | 0.00 | 0.00 | 88 | 1010.4 |
| 20260904043656 | 24 | 184 | 4.8 | 9.7 | 0.00 | 0.00 | 0.00 | 88 | 1010.3 |
| 20260904043620 | 24 | 184 | 6.4 | 9.7 | 0.00 | 0.00 | 0.00 | 88 | 1010.3 |
| 20260904043504 | 24 | 186 | 6.4 | 9.7 | 0.00 | 0.00 | 0.00 | 88 | 1010.3 |
| 20260904043429 | 24 | 187 | 6.4 | 9.7 | 0.00 | 0.00 | 0.00 | 88 | 1010.3 |
| 20260904043256 | 24 | 179 | 6.4 | 9.7 | 0.00 | 0.00 | 0.00 | 88 | 1010.4 |
| 20260904043221 | 24 | 177 | 6.4 | 9.7 | 0.00 | 0.00 | 0.00 | 88 | 1010.4 |
| 20260904043104 | 24 | 172 | 4.8 | 9.7 | 0.00 | 0.00 | 0.00 | 88 | 1010.4 |
| 20260904043009 | 24 | 178 | 3.2 | 9.7 | 0.00 | 0.00 | 0.00 | 88 | 1010.4 |
| 20260904042913 | 24 | 178 | 4.8 | 9.7 | 0.00 | 0.00 | 0.00 | 88 | 1010.4 |
| 20260904042758 | 24 | 178 | 6.4 | 9.7 | 0.00 | 0.00 | 0.00 | 87 | 1010.3 |
| 20260904042723 | 24 | 170 | 6.4 | 9.7 | 0.00 | 0.00 | 0.00 | 87 | 1010.3 |
| 20260904042626 | 24 | 169 | 6.4 | 9.7 | 0.00 | 0.00 | 0.00 | 87 | 1010.3 |
| 20260904042534 | 24 | 170 | 6.4 | 9.7 | 0.00 | 0.00 | 0.00 | 87 | 1010.3 |
| 20260904042358 | 24 | 170 | 6.4 | 9.7 | 0.00 | 0.00 | 0.00 | 87 | 1010.3 |
| 20260904042306 | 24 | 190 | 6.4 | 9.7 | 0.00 | 0.00 | 0.00 | 87 | 1010.3 |
| 20260904042208 | 24 | 192 | 8.0 | 9.7 | 0.00 | 0.00 | 0.00 | 87 | 1010.2 |
| 20260904042112 | 24 | 171 | 6.4 | 8.0 | 0.00 | 0.00 | 0.00 | 86 | 1010.2 |
| 20260904041958 | 24 | 168 | 6.4 | 8.0 | 0.00 | 0.00 | 0.00 | 86 | 1010.2 |
| 20260904041906 | 25 | 168 | 4.8 | 8.0 | 0.00 | 0.00 | 0.00 | 86 | 1010.2 |
| 20260904041810 | 25 | 168 | 4.8 | 9.7 | 0.00 | 0.00 | 0.00 | 86 | 1010.2 |
| 20260904041735 | 25 | 168 | 6.4 | 9.7 | 0.00 | 0.00 | 0.00 | 86 | 1010.2 |
| 20260904041639 | 25 | 168 | 6.4 | 9.7 | 0.00 | 0.00 | 0.00 | 86 | 1010.2 |
| 20260904041455 | 25 | 167 | 6.4 | 9.7 | 0.00 | 0.00 | 0.00 | 86 | 1010.2 |
| 20260904041420 | 25 | 167 | 4.8 | 9.7 | 0.00 | 0.00 | 0.00 | 86 | 1010.2 |
| 20260904041257 | 25 | 159 | 4.8 | 9.7 | 0.00 | 0.00 | 0.00 | 86 | 1010.1 |
| 20260904041206 | 25 | 159 | 4.8 | 9.7 | 0.00 | 0.00 | 0.00 | 86 | 1010.2 |
| 20260904041112 | 25 | 159 | 6.4 | 9.7 | 0.00 | 0.00 | 0.00 | 86 | 1010.2 |
| 20260904040957 | 25 | 159 | 4.8 | 9.7 | 0.00 | 0.00 | 0.00 | 86 | 1010.3 |
| 20260904040921 | 25 | 165 | 4.8 | 9.7 | 0.00 | 0.00 | 0.00 | 85 | 1010.2 |
| 20260904040805 | 25 | 164 | 4.8 | 9.7 | 0.00 | 0.00 | 0.00 | 85 | 1010.2 |
| 20260904040709 | 25 | 161 | 6.4 | 9.7 | 0.00 | 0.00 | 0.00 | 85 | 1010.2 |
| 20260904040558 | 25 | 157 | 8.0 | 9.7 | 0.00 | 0.00 | 0.00 | 85 | 1010.2 |
| 20260904040503 | 25 | 162 | 8.0 | 9.7 | 0.00 | 0.00 | 0.00 | 85 | 1010.1 |
| 20260904040429 | 25 | 161 | 6.4 | 9.7 | 0.00 | 0.00 | 0.00 | 85 | 1010.1 |
| 20260904040312 | 25 | 161 | 4.8 | 9.7 | 0.00 | 0.00 | 0.00 | 85 | 1010.1 |
| 20260904040217 | 25 | 173 | 3.2 | 9.7 | 0.00 | 0.00 | 0.00 | 85 | 1010.1 |
| 20260904040056 | 25 | 173 | 3.2 | 9.7 | 0.00 | 0.00 | 0.00 | 85 | 1010.1 |
| 20260904040021 | 25 | 173 | 3.2 | 9.7 | 0.00 | 0.00 | 0.00 | 86 | 1010.0 |
| 20260904035908 | 25 | 174 | 3.2 | 9.7 | 0.00 | 0.00 | 0.00 | 85 | 1010.0 |
| 20260904035833 | 25 | 174 | 4.8 | 9.7 | 0.00 | 0.00 | 0.00 | 85 | 1010.1 |
| 20260904035718 | 25 | 175 | 4.8 | 9.7 | 0.00 | 0.00 | 0.00 | 85 | 1010.0 |
| 20260904035621 | 25 | 174 | 6.4 | 9.7 | 0.00 | 0.00 | 0.00 | 86 | 1010.0 |
| 20260904035500 | 25 | 166 | 6.4 | 9.7 | 0.00 | 0.00 | 0.00 | 86 | 1010.0 |
| 20260904035405 | 25 | 182 | 6.4 | 9.7 | 0.00 | 0.00 | 0.00 | 86 | 1010.1 |
| 20260904035309 | 25 | 178 | 6.4 | 9.7 | 0.00 | 0.00 | 0.00 | 85 | 1010.1 |
| 20260904035217 | 25 | 167 | 4.8 | 9.7 | 0.00 | 0.00 | 0.00 | 85 | 1009.9 |
| 20260904035100 | 25 | 169 | 6.4 | 9.7 | 0.00 | 0.00 | 0.00 | 85 | 1010.0 |
| 20260904035004 | 25 | 171 | 6.4 | 9.7 | 0.00 | 0.00 | 0.00 | 85 | 1010.1 |
| 20260904034910 | 25 | 182 | 6.4 | 9.7 | 0.00 | 0.00 | 0.00 | 85 | 1010.1 |
| 20260904034814 | 25 | 193 | 6.4 | 9.7 | 0.00 | 0.00 | 0.00 | 85 | 1010.0 |
| 20260904034659 | 25 | 196 | 4.8 | 9.7 | 0.00 | 0.00 | 0.00 | 85 | 1010.0 |
| 20260904034624 | 25 | 201 | 4.8 | 9.7 | 0.00 | 0.00 | 0.00 | 85 | 1010.1 |
| 20260904034511 | 25 | 203 | 6.4 | 9.7 | 0.00 | 0.00 | 0.00 | 85 | 1010.1 |
| 20260904034417 | 25 | 202 | 6.4 | 9.7 | 0.00 | 0.00 | 0.00 | 85 | 1010.0 |
| 20260904034300 | 25 | 202 | 6.4 | 9.7 | 0.00 | 0.00 | 0.00 | 84 | 1010.1 |
| 20260904034204 | 25 | 200 | 6.4 | 9.7 | 0.00 | 0.00 | 0.00 | 84 | 1010.0 |
| 20260904034110 | 25 | 199 | 6.4 | 9.7 | 0.00 | 0.00 | 0.00 | 84 | 1010.0 |
| 20260904034014 | 25 | 198 | 8.0 | 9.7 | 0.00 | 0.00 | 0.00 | 84 | 1010.0 |
| 20260904033920 | 25 | 196 | 6.4 | 9.7 | 0.00 | 0.00 | 0.00 | 84 | 1010.0 |
| 20260904033807 | 25 | 191 | 6.4 | 9.7 | 0.00 | 0.00 | 0.00 | 84 | 1010.0 |
| 20260904033732 | 25 | 190 | 8.0 | 9.7 | 0.00 | 0.00 | 0.00 | 84 | 1010.0 |
| 20260904033557 | 25 | 197 | 6.4 | 11.3 | 0.00 | 0.00 | 0.00 | 84 | 1010.0 |
| 20260904033501 | 25 | 194 | 8.0 | 11.3 | 0.00 | 0.00 | 0.00 | 84 | 1010.1 |
| 20260904033407 | 25 | 192 | 6.4 | 11.3 | 0.00 | 0.00 | 0.00 | 84 | 1010.1 |
| 20260904033311 | 25 | 193 | 6.4 | 11.3 | 0.00 | 0.00 | 0.00 | 84 | 1010.1 |
| 20260904033200 | 25 | 197 | 6.4 | 11.3 | 0.00 | 0.00 | 0.00 | 84 | 1010.1 |
| 20260904033125 | 25 | 197 | 6.4 | 11.3 | 0.00 | 0.00 | 0.00 | 83 | 1010.1 |
| 20260904033009 | 25 | 197 | 6.4 | 11.3 | 0.00 | 0.00 | 0.00 | 83 | 1010.1 |
| 20260904032913 | 25 | 196 | 8.0 | 11.3 | 0.00 | 0.00 | 0.00 | 83 | 1010.1 |
| 20260904032759 | 26 | 207 | 8.0 | 12.9 | 0.00 | 0.00 | 0.00 | 83 | 1010.0 |
| 20260904032704 | 26 | 203 | 8.0 | 14.5 | 0.00 | 0.00 | 0.00 | 83 | 1010.0 |
| 20260904032612 | 26 | 205 | 8.0 | 14.5 | 0.00 | 0.00 | 0.00 | 83 | 1010.0 |
| 20260904032517 | 26 | 213 | 8.0 | 14.5 | 0.00 | 0.00 | 0.00 | 83 | 1010.0 |
| 20260904032355 | 26 | 207 | 6.4 | 14.5 | 0.00 | 0.00 | 0.00 | 83 | 1010.0 |
| 20260904032300 | 26 | 240 | 6.4 | 14.5 | 0.00 | 0.00 | 0.00 | 83 | 1010.1 |
| 20260904032204 | 26 | 220 | 8.0 | 14.5 | 0.00 | 0.00 | 0.00 | 83 | 1010.0 |
| 20260904032109 | 26 | 210 | 9.7 | 14.5 | 0.00 | 0.00 | 0.00 | 83 | 1010.0 |
| 20260904031958 | 26 | 198 | 9.7 | 14.5 | 0.00 | 0.00 | 0.00 | 83 | 1010.0 |
| 20260904031903 | 26 | 229 | 8.0 | 12.9 | 0.00 | 0.00 | 0.00 | 83 | 1010.0 |
| 20260904031829 | 26 | 235 | 8.0 | 12.9 | 0.00 | 0.00 | 0.00 | 83 | 1009.9 |
| 20260904031712 | 26 | 221 | 8.0 | 12.9 | 0.00 | 0.00 | 0.00 | 83 | 1009.9 |
| 20260904031558 | 26 | 238 | 8.0 | 12.9 | 0.00 | 0.00 | 0.00 | 83 | 1010.0 |
| 20260904031502 | 26 | 232 | 8.0 | 12.9 | 0.00 | 0.00 | 0.00 | 83 | 1010.0 |
| 20260904031411 | 26 | 241 | 8.0 | 12.9 | 0.00 | 0.00 | 0.00 | 83 | 1010.0 |
| 20260904031316 | 26 | 236 | 9.7 | 14.5 | 0.00 | 0.00 | 0.00 | 83 | 1009.9 |
| 20260904031220 | 26 | 236 | 9.7 | 14.5 | 0.00 | 0.00 | 0.00 | 83 | 1009.9 |
| 20260904031057 | 26 | 239 | 9.7 | 14.5 | 0.00 | 0.00 | 0.00 | 83 | 1009.9 |
| 20260904031002 | 26 | 232 | 9.7 | 14.5 | 0.00 | 0.00 | 0.00 | 83 | 1009.9 |
| 20260904030908 | 26 | 234 | 9.7 | 16.1 | 0.00 | 0.00 | 0.00 | 83 | 1009.9 |
| 20260904030833 | 26 | 232 | 9.7 | 16.1 | 0.00 | 0.00 | 0.00 | 83 | 1009.9 |
| 20260904030700 | 26 | 248 | 8.0 | 16.1 | 0.00 | 0.00 | 0.00 | 82 | 1009.9 |
| 20260904030604 | 26 | 244 | 8.0 | 16.1 | 0.00 | 0.00 | 0.00 | 82 | 1009.9 |
| 20260904030510 | 26 | 252 | 8.0 | 16.1 | 0.00 | 0.00 | 0.00 | 82 | 1009.9 |
| 20260904030417 | 26 | 227 | 8.0 | 16.1 | 0.00 | 0.00 | 0.00 | 82 | 1010.0 |
| 20260904030319 | 26 | 246 | 9.7 | 16.1 | 0.00 | 0.00 | 0.00 | 82 | 1010.0 |
| 20260904030157 | 26 | 254 | 11.3 | 16.1 | 0.00 | 0.00 | 0.00 | 82 | 1010.0 |
| 20260904030107 | 26 | 219 | 9.7 | 16.1 | 0.00 | 0.00 | 0.00 | 82 | 1010.0 |
| 20260904030012 | 26 | 220 | 8.0 | 14.5 | 0.00 | 0.00 | 0.00 | 82 | 1010.0 |
| 20260904025856 | 26 | 228 | 9.7 | 14.5 | 0.00 | 0.00 | 0.00 | 82 | 1009.9 |
| 20260904025800 | 26 | 240 | 9.7 | 14.5 | 0.00 | 0.00 | 0.00 | 82 | 1009.9 |
| 20260904025706 | 26 | 235 | 8.0 | 14.5 | 0.00 | 0.00 | 0.00 | 82 | 1010.0 |
| 20260904025610 | 26 | 227 | 8.0 | 14.5 | 0.00 | 0.00 | 0.00 | 82 | 1010.0 |
| 20260904025458 | 26 | 221 | 8.0 | 14.5 | 0.00 | 0.00 | 0.00 | 82 | 1010.0 |
| 20260904025424 | 26 | 234 | 8.0 | 14.5 | 0.00 | 0.00 | 0.00 | 82 | 1010.0 |
| 20260904025307 | 26 | 228 | 9.7 | 14.5 | 0.00 | 0.00 | 0.00 | 82 | 1010.1 |
| 20260904025210 | 26 | 247 | 8.0 | 14.5 | 0.00 | 0.00 | 0.00 | 82 | 1010.1 |
| 20260904025055 | 26 | 218 | 6.4 | 12.9 | 0.00 | 0.00 | 0.00 | 82 | 1010.1 |
| 20260904025000 | 26 | 217 | 8.0 | 12.9 | 0.00 | 0.00 | 0.00 | 82 | 1010.1 |
| 20260904024929 | 26 | 217 | 8.0 | 12.9 | 0.00 | 0.00 | 0.00 | 82 | 1010.1 |
| 20260904024814 | 26 | 217 | 8.0 | 12.9 | 0.00 | 0.00 | 0.00 | 82 | 1010.1 |
| 20260904024718 | 26 | 226 | 9.7 | 14.5 | 0.00 | 0.00 | 0.00 | 82 | 1010.1 |
| 20260904024555 | 26 | 230 | 8.0 | 12.9 | 0.00 | 0.00 | 0.00 | 82 | 1010.1 |
| 20260904024458 | 26 | 224 | 8.0 | 12.9 | 0.00 | 0.00 | 0.00 | 81 | 1010.0 |
| 20260904024402 | 26 | 211 | 8.0 | 12.9 | 0.00 | 0.00 | 0.00 | 81 | 1010.0 |
| 20260904024327 | 26 | 240 | 8.0 | 14.5 | 0.00 | 0.00 | 0.00 | 81 | 1010.0 |
| 20260904024211 | 26 | 238 | 9.7 | 14.5 | 0.00 | 0.00 | 0.00 | 81 | 1010.0 |
| 20260904024120 | 26 | 214 | 9.7 | 14.5 | 0.00 | 0.00 | 0.00 | 81 | 1010.0 |
| 20260904023957 | 26 | 227 | 9.7 | 14.5 | 0.00 | 0.00 | 0.00 | 81 | 1010.0 |
| 20260904023902 | 26 | 223 | 9.7 | 14.5 | 0.00 | 0.00 | 0.00 | 81 | 1010.0 |
| 20260904023807 | 26 | 226 | 8.0 | 14.5 | 0.00 | 0.00 | 0.00 | 81 | 1010.0 |
| 20260904023711 | 26 | 213 | 8.0 | 14.5 | 0.00 | 0.00 | 0.00 | 81 | 1010.0 |
| 20260904023615 | 26 | 220 | 9.7 | 14.5 | 0.00 | 0.00 | 0.00 | 81 | 1010.0 |
| 20260904023504 | 26 | 220 | 9.7 | 14.5 | 0.00 | 0.00 | 0.00 | 81 | 1010.0 |
| 20260904023408 | 26 | 216 | 9.7 | 12.9 | 0.00 | 0.00 | 0.00 | 81 | 1010.0 |
| 20260904023314 | 26 | 225 | 9.7 | 12.9 | 0.00 | 0.00 | 0.00 | 81 | 1010.0 |
| 20260904023159 | 26 | 215 | 9.7 | 14.5 | 0.00 | 0.00 | 0.00 | 81 | 1010.0 |
| 20260904023104 | 26 | 225 | 9.7 | 12.9 | 0.00 | 0.00 | 0.00 | 80 | 1010.0 |
| 20260904023008 | 26 | 217 | 9.7 | 12.9 | 0.00 | 0.00 | 0.00 | 80 | 1009.9 |
| 20260904022936 | 26 | 216 | 9.7 | 12.9 | 0.00 | 0.00 | 0.00 | 80 | 1009.9 |
| 20260904022820 | 26 | 218 | 9.7 | 12.9 | 0.00 | 0.00 | 0.00 | 80 | 1009.9 |
| 20260904022657 | 26 | 219 | 9.7 | 12.9 | 0.00 | 0.00 | 0.00 | 80 | 1010.0 |
| 20260904022602 | 26 | 220 | 9.7 | 12.9 | 0.00 | 0.00 | 0.00 | 80 | 1010.0 |
| 20260904022507 | 26 | 217 | 9.7 | 12.9 | 0.00 | 0.00 | 0.00 | 80 | 1009.9 |
| 20260904022411 | 26 | 231 | 9.7 | 12.9 | 0.00 | 0.00 | 0.00 | 80 | 1009.9 |
| 20260904022300 | 26 | 229 | 9.7 | 12.9 | 0.00 | 0.00 | 0.00 | 80 | 1009.9 |
| 20260904022204 | 26 | 221 | 9.7 | 11.3 | 0.00 | 0.00 | 0.00 | 80 | 1010.0 |
| 20260904022129 | 26 | 223 | 9.7 | 11.3 | 0.00 | 0.00 | 0.00 | 80 | 1010.0 |
| 20260904022013 | 26 | 219 | 8.0 | 11.3 | 0.00 | 0.00 | 0.00 | 80 | 1010.0 |
| 20260904021918 | 26 | 225 | 8.0 | 11.3 | 0.00 | 0.00 | 0.00 | 80 | 1009.9 |
| 20260904021755 | 26 | 221 | 8.0 | 11.3 | 0.00 | 0.00 | 0.00 | 80 | 1009.9 |
| 20260904021705 | 26 | 209 | 8.0 | 11.3 | 0.00 | 0.00 | 0.00 | 80 | 1010.0 |
| 20260904021629 | 26 | 229 | 8.0 | 11.3 | 0.00 | 0.00 | 0.00 | 80 | 1010.0 |
| 20260904021533 | 26 | 217 | 8.0 | 11.3 | 0.00 | 0.00 | 0.00 | 79 | 1010.0 |
| 20260904021417 | 26 | 215 | 8.0 | 11.3 | 0.00 | 0.00 | 0.00 | 79 | 1010.0 |
| 20260904021255 | 26 | 211 | 8.0 | 11.3 | 0.00 | 0.00 | 0.00 | 79 | 1010.0 |
| 20260904021200 | 26 | 215 | 6.4 | 11.3 | 0.00 | 0.00 | 0.00 | 79 | 1010.0 |
| 20260904021105 | 26 | 213 | 8.0 | 12.9 | 0.00 | 0.00 | 0.00 | 79 | 1010.0 |
| 20260904021008 | 26 | 207 | 8.0 | 12.9 | 0.00 | 0.00 | 0.00 | 79 | 1009.8 |
| 20260904020856 | 26 | 225 | 8.0 | 14.5 | 0.00 | 0.00 | 0.00 | 79 | 1009.9 |
| 20260904020821 | 26 | 217 | 8.0 | 14.5 | 0.00 | 0.00 | 0.00 | 79 | 1009.9 |
| 20260904020705 | 26 | 214 | 8.0 | 14.5 | 0.00 | 0.00 | 0.00 | 79 | 1009.9 |
| 20260904020608 | 26 | 215 | 8.0 | 14.5 | 0.00 | 0.00 | 0.00 | 79 | 1010.0 |
| 20260904020512 | 26 | 220 | 8.0 | 14.5 | 0.00 | 0.00 | 0.00 | 79 | 1010.0 |
| 20260904020356 | 26 | 212 | 8.0 | 14.5 | 0.00 | 0.00 | 0.00 | 78 | 1010.0 |
| 20260904020304 | 26 | 220 | 9.7 | 14.5 | 0.00 | 0.00 | 0.00 | 78 | 1010.0 |
| 20260904020229 | 26 | 217 | 9.7 | 14.5 | 0.00 | 0.00 | 0.00 | 78 | 1010.0 |
| 20260904020114 | 26 | 215 | 9.7 | 14.5 | 0.00 | 0.00 | 0.00 | 78 | 1010.0 |
| 20260904020019 | 27 | 225 | 8.0 | 12.9 | 0.00 | 0.00 | 0.00 | 78 | 1010.1 |
| 20260904015922 | 27 | 216 | 8.0 | 12.9 | 0.00 | 0.00 | 0.00 | 78 | 1010.1 |
| 20260904015807 | 27 | 211 | 8.0 | 12.9 | 0.00 | 0.00 | 0.00 | 78 | 1010.1 |
| 20260904015711 | 27 | 217 | 8.0 | 12.9 | 0.00 | 0.00 | 0.00 | 78 | 1010.1 |
| 20260904015600 | 27 | 202 | 8.0 | 12.9 | 0.00 | 0.00 | 0.00 | 78 | 1010.0 |
| 20260904015504 | 27 | 212 | 8.0 | 11.3 | 0.00 | 0.00 | 0.00 | 78 | 1010.0 |
| 20260904015409 | 27 | 208 | 8.0 | 11.3 | 0.00 | 0.00 | 0.00 | 78 | 1010.0 |
| 20260904015315 | 27 | 221 | 8.0 | 11.3 | 0.00 | 0.00 | 0.00 | 78 | 1010.1 |
| 20260904015219 | 27 | 220 | 8.0 | 11.3 | 0.00 | 0.00 | 0.00 | 78 | 1010.1 |
| 20260904015057 | 27 | 211 | 6.4 | 12.9 | 0.00 | 0.00 | 0.00 | 78 | 1010.1 |
| 20260904015007 | 27 | 218 | 6.4 | 12.9 | 0.00 | 0.00 | 0.00 | 78 | 1010.0 |
| 20260904014931 | 27 | 217 | 8.0 | 12.9 | 0.00 | 0.00 | 0.00 | 78 | 1010.0 |
| 20260904014815 | 27 | 232 | 8.0 | 12.9 | 0.00 | 0.00 | 0.00 | 78 | 1010.1 |
| 20260904014721 | 27 | 230 | 8.0 | 12.9 | 0.00 | 0.00 | 0.00 | 78 | 1010.0 |
| 20260904014558 | 27 | 223 | 6.4 | 11.3 | 0.00 | 0.00 | 0.00 | 78 | 1010.1 |
| 20260904014523 | 27 | 224 | 8.0 | 11.3 | 0.00 | 0.00 | 0.00 | 77 | 1010.1 |
| 20260904014407 | 27 | 231 | 8.0 | 11.3 | 0.00 | 0.00 | 0.00 | 77 | 1010.1 |
| 20260904014331 | 27 | 232 | 8.0 | 11.3 | 0.00 | 0.00 | 0.00 | 78 | 1010.1 |
| 20260904014200 | 27 | 235 | 6.4 | 11.3 | 0.00 | 0.00 | 0.00 | 78 | 1010.0 |
| 20260904014104 | 27 | 211 | 6.4 | 11.3 | 0.00 | 0.00 | 0.00 | 78 | 1010.1 |
| 20260904014009 | 27 | 210 | 8.0 | 11.3 | 0.00 | 0.00 | 0.00 | 77 | 1010.1 |
| 20260904013914 | 27 | 209 | 8.0 | 11.3 | 0.00 | 0.00 | 0.00 | 78 | 1010.2 |
| 20260904013819 | 27 | 216 | 8.0 | 12.9 | 0.00 | 0.00 | 0.00 | 77 | 1010.1 |
| 20260904013703 | 27 | 213 | 8.0 | 12.9 | 0.00 | 0.00 | 0.00 | 77 | 1010.1 |
| 20260904013612 | 27 | 209 | 8.0 | 12.9 | 0.00 | 0.00 | 0.00 | 77 | 1010.1 |
| 20260904013518 | 27 | 218 | 8.0 | 12.9 | 0.00 | 0.00 | 0.00 | 77 | 1010.1 |
| 20260904013355 | 27 | 202 | 8.0 | 12.9 | 0.00 | 0.00 | 0.00 | 77 | 1010.0 |
| 20260904013301 | 27 | 205 | 8.0 | 12.9 | 0.00 | 0.00 | 0.00 | 77 | 1010.0 |
| 20260904013226 | 27 | 202 | 8.0 | 12.9 | 0.00 | 0.00 | 0.00 | 77 | 1010.0 |
| 20260904013110 | 27 | 222 | 8.0 | 12.9 | 0.00 | 0.00 | 0.00 | 77 | 1010.0 |
| 20260904012958 | 27 | 201 | 8.0 | 12.9 | 0.00 | 0.00 | 0.00 | 77 | 1010.0 |
| 20260904012904 | 27 | 209 | 8.0 | 11.3 | 0.00 | 0.00 | 0.00 | 77 | 1010.0 |
| 20260904012808 | 27 | 204 | 8.0 | 11.3 | 0.00 | 0.00 | 0.00 | 77 | 1010.0 |
| 20260904012713 | 27 | 207 | 8.0 | 11.3 | 0.00 | 0.00 | 0.00 | 77 | 1009.9 |
| 20260904012619 | 27 | 211 | 6.4 | 11.3 | 0.00 | 0.00 | 0.00 | 77 | 1009.9 |
| 20260904012457 | 27 | 211 | 6.4 | 11.3 | 0.00 | 0.00 | 0.00 | 77 | 1009.9 |
| 20260904012426 | 27 | 211 | 6.4 | 11.3 | 0.00 | 0.00 | 0.00 | 77 | 1009.9 |
| 20260904012309 | 27 | 215 | 6.4 | 11.3 | 0.00 | 0.00 | 0.00 | 77 | 1009.9 |
| 20260904012214 | 27 | 209 | 6.4 | 11.3 | 0.00 | 0.00 | 0.00 | 77 | 1009.9 |
| 20260904012059 | 27 | 208 | 6.4 | 11.3 | 0.00 | 0.00 | 0.00 | 77 | 1009.9 |
| 20260904012004 | 27 | 208 | 6.4 | 11.3 | 0.00 | 0.00 | 0.00 | 77 | 1009.9 |
| 20260904011908 | 27 | 208 | 6.4 | 11.3 | 0.00 | 0.00 | 0.00 | 77 | 1009.9 |
| 20260904011756 | 27 | 208 | 8.0 | 11.3 | 0.00 | 0.00 | 0.00 | 76 | 1009.9 |
| 20260904011702 | 27 | 204 | 6.4 | 9.7 | 0.00 | 0.00 | 0.00 | 76 | 1009.8 |
| 20260904011626 | 27 | 198 | 6.4 | 9.7 | 0.00 | 0.00 | 0.00 | 76 | 1009.9 |
| 20260904011510 | 27 | 197 | 6.4 | 9.7 | 0.00 | 0.00 | 0.00 | 76 | 1009.9 |
| 20260904011355 | 27 | 196 | 8.0 | 9.7 | 0.00 | 0.00 | 0.00 | 76 | 1009.8 |
| 20260904011301 | 27 | 193 | 6.4 | 9.7 | 0.00 | 0.00 | 0.00 | 76 | 1009.9 |
| 20260904011226 | 27 | 193 | 6.4 | 9.7 | 0.00 | 0.00 | 0.00 | 76 | 1009.8 |
| 20260904011114 | 27 | 215 | 6.4 | 9.7 | 0.00 | 0.00 | 0.00 | 76 | 1009.8 |
| 20260904011019 | 27 | 215 | 6.4 | 9.7 | 0.00 | 0.00 | 0.00 | 76 | 1009.8 |
| 20260904010856 | 27 | 209 | 4.8 | 9.7 | 0.00 | 0.00 | 0.00 | 76 | 1009.8 |
| 20260904010801 | 27 | 208 | 4.8 | 9.7 | 0.00 | 0.00 | 0.00 | 76 | 1009.7 |
| 20260904010726 | 27 | 207 | 6.4 | 9.7 | 0.00 | 0.00 | 0.00 | 75 | 1009.8 |
| 20260904010609 | 27 | 207 | 6.4 | 9.7 | 0.00 | 0.00 | 0.00 | 75 | 1009.8 |
| 20260904010458 | 27 | 207 | 4.8 | 9.7 | 0.00 | 0.00 | 0.00 | 75 | 1009.7 |
| 20260904010403 | 27 | 224 | 6.4 | 9.7 | 0.00 | 0.00 | 0.00 | 75 | 1009.7 |
| 20260904010308 | 27 | 224 | 6.4 | 9.7 | 0.00 | 0.00 | 0.00 | 75 | 1009.7 |
| 20260904010213 | 27 | 226 | 6.4 | 9.7 | 0.00 | 0.00 | 0.00 | 75 | 1009.7 |
| 20260904010118 | 27 | 229 | 6.4 | 9.7 | 0.00 | 0.00 | 0.00 | 75 | 1009.7 |
| 20260904005955 | 27 | 232 | 6.4 | 9.7 | 0.00 | 0.00 | 0.00 | 75 | 1009.7 |
| 20260904005924 | 27 | 197 | 6.4 | 9.7 | 0.00 | 0.00 | 0.00 | 75 | 1009.7 |
| 20260904005808 | 27 | 219 | 4.8 | 9.7 | 0.00 | 0.00 | 0.00 | 75 | 1009.7 |
| 20260904005713 | 27 | 219 | 4.8 | 9.7 | 0.00 | 0.00 | 0.00 | 74 | 1009.7 |
| 20260904005558 | 27 | 218 | 8.0 | 9.7 | 0.00 | 0.00 | 0.00 | 74 | 1009.7 |
| 20260904005502 | 27 | 219 | 8.0 | 11.3 | 0.00 | 0.00 | 0.00 | 74 | 1009.6 |
| 20260904005428 | 27 | 217 | 8.0 | 11.3 | 0.00 | 0.00 | 0.00 | 74 | 1009.6 |
| 20260904005312 | 27 | 220 | 6.4 | 11.3 | 0.00 | 0.00 | 0.00 | 74 | 1009.6 |
| 20260904005242 | 27 | 212 | 6.4 | 11.3 | 0.00 | 0.00 | 0.00 | 74 | 1009.6 |
| 20260904005059 | 27 | 225 | 6.4 | 11.3 | 0.00 | 0.00 | 0.00 | 74 | 1009.6 |
| 20260904005003 | 27 | 224 | 6.4 | 11.3 | 0.00 | 0.00 | 0.00 | 74 | 1009.6 |
| 20260904004908 | 27 | 212 | 6.4 | 11.3 | 0.00 | 0.00 | 0.00 | 74 | 1009.6 |
| 20260904004813 | 27 | 212 | 8.0 | 11.3 | 0.00 | 0.00 | 0.00 | 74 | 1009.7 |
| 20260904004657 | 27 | 211 | 6.4 | 11.3 | 0.00 | 0.00 | 0.00 | 74 | 1009.6 |
| 20260904004606 | 27 | 223 | 6.4 | 11.3 | 0.00 | 0.00 | 0.00 | 74 | 1009.6 |
| 20260904004531 | 27 | 223 | 6.4 | 11.3 | 0.00 | 0.00 | 0.00 | 74 | 1009.6 |
| 20260904004435 | 27 | 211 | 4.8 | 11.3 | 0.00 | 0.00 | 0.00 | 74 | 1009.6 |
| 20260904004300 | 27 | 211 | 6.4 | 11.3 | 0.00 | 0.00 | 0.00 | 74 | 1009.6 |
| 20260904004204 | 27 | 211 | 6.4 | 11.3 | 0.00 | 0.00 | 0.00 | 74 | 1009.6 |
| 20260904004109 | 27 | 211 | 6.4 | 11.3 | 0.00 | 0.00 | 0.00 | 74 | 1009.6 |
| 20260904003958 | 28 | 215 | 6.4 | 11.3 | 0.00 | 0.00 | 0.00 | 74 | 1009.6 |
| 20260904003903 | 28 | 216 | 8.0 | 11.3 | 0.00 | 0.00 | 0.00 | 74 | 1009.6 |
| 20260904003808 | 27 | 231 | 6.4 | 11.3 | 0.00 | 0.00 | 0.00 | 74 | 1009.6 |
| 20260904003712 | 28 | 201 | 6.4 | 9.7 | 0.00 | 0.00 | 0.00 | 74 | 1009.6 |
| 20260904003557 | 28 | 216 | 6.4 | 9.7 | 0.00 | 0.00 | 0.00 | 74 | 1009.6 |
| 20260904003502 | 28 | 215 | 6.4 | 11.3 | 0.00 | 0.00 | 0.00 | 74 | 1009.6 |
| 20260904003427 | 28 | 215 | 6.4 | 11.3 | 0.00 | 0.00 | 0.00 | 74 | 1009.6 |
| 20260904003255 | 28 | 216 | 6.4 | 11.3 | 0.00 | 0.00 | 0.00 | 74 | 1009.6 |
| 20260904003200 | 28 | 215 | 8.0 | 11.3 | 0.00 | 0.00 | 0.00 | 74 | 1009.5 |
| 20260904003105 | 28 | 214 | 8.0 | 11.3 | 0.00 | 0.00 | 0.00 | 74 | 1009.6 |
| 20260904003010 | 28 | 225 | 8.0 | 11.3 | 0.00 | 0.00 | 0.00 | 74 | 1009.6 |
| 20260904002855 | 28 | 198 | 6.4 | 11.3 | 0.00 | 0.00 | 0.00 | 73 | 1009.6 |
| 20260904002805 | 28 | 194 | 6.4 | 11.3 | 0.00 | 0.00 | 0.00 | 73 | 1009.6 |
| 20260904002730 | 28 | 217 | 8.0 | 11.3 | 0.00 | 0.00 | 0.00 | 73 | 1009.6 |
| 20260904002614 | 28 | 215 | 8.0 | 11.3 | 0.00 | 0.00 | 0.00 | 73 | 1009.6 |
| 20260904002458 | 28 | 221 | 6.4 | 11.3 | 0.00 | 0.00 | 0.00 | 73 | 1009.5 |
| 20260904002402 | 28 | 196 | 6.4 | 11.3 | 0.00 | 0.00 | 0.00 | 73 | 1009.6 |
| 20260904002328 | 28 | 222 | 8.0 | 11.3 | 0.00 | 0.00 | 0.00 | 73 | 1009.6 |
| 20260904002231 | 28 | 215 | 8.0 | 11.3 | 0.00 | 0.00 | 0.00 | 73 | 1009.6 |
| 20260904002059 | 28 | 210 | 8.0 | 11.3 | 0.00 | 0.00 | 0.00 | 73 | 1009.6 |
| 20260904002003 | 28 | 216 | 8.0 | 11.3 | 0.00 | 0.00 | 0.00 | 73 | 1009.6 |
| 20260904001909 | 28 | 218 | 8.0 | 11.3 | 0.00 | 0.00 | 0.00 | 73 | 1009.6 |
| 20260904001813 | 28 | 219 | 8.0 | 12.9 | 0.00 | 0.00 | 0.00 | 73 | 1009.6 |
| 20260904001718 | 28 | 198 | 6.4 | 12.9 | 0.00 | 0.00 | 0.00 | 72 | 1009.6 |
| 20260904001602 | 28 | 215 | 6.4 | 12.9 | 0.00 | 0.00 | 0.00 | 72 | 1009.6 |
| 20260904001506 | 28 | 214 | 6.4 | 16.1 | 0.00 | 0.00 | 0.00 | 72 | 1009.7 |
| 20260904001415 | 28 | 213 | 8.0 | 16.1 | 0.00 | 0.00 | 0.00 | 72 | 1009.7 |
| 20260904001259 | 28 | 246 | 8.0 | 16.1 | 0.00 | 0.00 | 0.00 | 72 | 1009.6 |
| 20260904001205 | 28 | 223 | 8.0 | 16.1 | 0.00 | 0.00 | 0.00 | 72 | 1009.5 |
| 20260904001109 | 28 | 236 | 8.0 | 16.1 | 0.00 | 0.00 | 0.00 | 72 | 1009.5 |
| 20260904001014 | 28 | 220 | 9.7 | 16.1 | 0.00 | 0.00 | 0.00 | 72 | 1009.6 |
| 20260904000903 | 28 | 219 | 8.0 | 16.1 | 0.00 | 0.00 | 0.00 | 72 | 1009.5 |
| 20260904000808 | 28 | 227 | 9.7 | 16.1 | 0.00 | 0.00 | 0.00 | 72 | 1009.5 |
| 20260904000713 | 28 | 252 | 12.9 | 16.1 | 0.00 | 0.00 | 0.00 | 72 | 1009.6 |
| 20260904000640 | 28 | 223 | 9.7 | 16.1 | 0.00 | 0.00 | 0.00 | 72 | 1009.6 |
| 20260904000456 | 28 | 236 | 6.4 | 16.1 | 0.00 | 0.00 | 0.00 | 72 | 1009.6 |
| 20260904000421 | 28 | 217 | 8.0 | 16.1 | 0.00 | 0.00 | 0.00 | 72 | 1009.6 |
| 20260904000305 | 28 | 250 | 8.0 | 16.1 | 0.00 | 0.00 | 0.00 | 71 | 1009.6 |
| 20260904000214 | 28 | 224 | 8.0 | 16.1 | 0.00 | 0.00 | 0.00 | 72 | 1009.6 |
| 20260904000119 | 28 | 211 | 8.0 | 16.1 | 0.00 | 0.00 | 0.00 | 72 | 1009.5 |
| 20260903235955 | 28 | 223 | 8.0 | 16.1 | 0.00 | 0.00 | 0.00 | 71 | 1009.6 |
| 20260903235900 | 28 | 238 | 8.0 | 16.1 | 0.00 | 0.00 | 0.00 | 71 | 1009.5 |
| 20260903235804 | 28 | 232 | 8.0 | 16.1 | 0.00 | 0.00 | 0.00 | 71 | 1009.5 |
| 20260903235729 | 28 | 223 | 9.7 | 16.1 | 0.00 | 0.00 | 0.00 | 71 | 1009.5 |
| 20260903235557 | 28 | 245 | 12.9 | 16.1 | 0.00 | 0.00 | 0.00 | 71 | 1009.5 |
| 20260903235502 | 28 | 219 | 11.3 | 17.7 | 0.00 | 0.00 | 0.00 | 71 | 1009.5 |
| 20260903235408 | 28 | 227 | 8.0 | 17.7 | 0.00 | 0.00 | 0.00 | 71 | 1009.5 |
| 20260903235312 | 28 | 238 | 8.0 | 17.7 | 0.00 | 0.00 | 0.00 | 71 | 1009.5 |
| 20260903235217 | 28 | 225 | 12.9 | 17.7 | 0.00 | 0.00 | 0.00 | 71 | 1009.6 |
| 20260903235101 | 28 | 221 | 12.9 | 17.7 | 0.00 | 0.00 | 0.00 | 71 | 1009.5 |
| 20260903235007 | 28 | 234 | 11.3 | 17.7 | 0.00 | 0.00 | 0.00 | 71 | 1009.6 |
| 20260903234855 | 28 | 256 | 11.3 | 17.7 | 0.00 | 0.00 | 0.00 | 71 | 1009.5 |
| 20260903234800 | 28 | 252 | 14.5 | 17.7 | 0.00 | 0.00 | 0.00 | 71 | 1009.5 |
| 20260903234706 | 28 | 246 | 12.9 | 17.7 | 0.00 | 0.00 | 0.00 | 70 | 1009.5 |
| 20260903234610 | 28 | 260 | 12.9 | 17.7 | 0.00 | 0.00 | 0.00 | 70 | 1009.5 |
| 20260903234535 | 28 | 206 | 11.3 | 16.1 | 0.00 | 0.00 | 0.00 | 70 | 1009.5 |
| 20260903234359 | 28 | 217 | 12.9 | 16.1 | 0.00 | 0.00 | 0.00 | 70 | 1009.4 |
| 20260903234308 | 28 | 218 | 12.9 | 16.1 | 0.00 | 0.00 | 0.00 | 70 | 1009.4 |
| 20260903234213 | 28 | 223 | 11.3 | 17.7 | 0.00 | 0.00 | 0.00 | 70 | 1009.3 |
| 20260903234118 | 28 | 238 | 8.0 | 20.9 | 0.00 | 0.00 | 0.00 | 70 | 1009.4 |
| 20260903234002 | 28 | 248 | 8.0 | 20.9 | 0.00 | 0.00 | 0.00 | 70 | 1009.3 |
| 20260903233926 | 28 | 236 | 8.0 | 20.9 | 0.00 | 0.00 | 0.00 | 70 | 1009.3 |
| 20260903233810 | 28 | 252 | 9.7 | 20.9 | 0.00 | 0.00 | 0.00 | 70 | 1009.3 |
| 20260903233731 | 28 | 239 | 11.3 | 20.9 | 0.00 | 0.00 | 0.00 | 70 | 1009.3 |
| 20260903233559 | 28 | 208 | 11.3 | 20.9 | 0.00 | 0.00 | 0.00 | 69 | 1009.2 |
| 20260903233504 | 28 | 227 | 12.9 | 22.5 | 0.00 | 0.00 | 0.00 | 69 | 1009.2 |
| 20260903233410 | 28 | 217 | 12.9 | 22.5 | 0.00 | 0.00 | 0.00 | 69 | 1009.2 |
| 20260903233314 | 28 | 209 | 12.9 | 22.5 | 0.00 | 0.00 | 0.00 | 69 | 1009.2 |
| 20260903233159 | 28 | 242 | 11.3 | 24.1 | 0.00 | 0.00 | 0.00 | 69 | 1009.3 |
| 20260903233104 | 28 | 205 | 12.9 | 25.7 | 0.00 | 0.00 | 0.00 | 69 | 1009.2 |
| 20260903233013 | 29 | 234 | 14.5 | 25.7 | 0.00 | 0.00 | 0.00 | 69 | 1009.2 |
| 20260903232919 | 29 | 237 | 12.9 | 25.7 | 0.00 | 0.00 | 0.00 | 69 | 1009.2 |
| 20260903232756 | 29 | 229 | 16.1 | 25.7 | 0.00 | 0.00 | 0.00 | 68 | 1009.1 |
| 20260903232721 | 29 | 225 | 16.1 | 25.7 | 0.00 | 0.00 | 0.00 | 68 | 1009.1 |
| 20260903232558 | 29 | 235 | 16.1 | 25.7 | 0.00 | 0.00 | 0.00 | 68 | 1009.1 |
| 20260903232503 | 29 | 264 | 19.3 | 25.7 | 0.00 | 0.00 | 0.00 | 68 | 1009.1 |
| 20260903232413 | 29 | 232 | 17.7 | 25.7 | 0.00 | 0.00 | 0.00 | 68 | 1009.1 |
| 20260903232337 | 29 | 252 | 12.9 | 25.7 | 0.00 | 0.00 | 0.00 | 68 | 1009.1 |
| 20260903232242 | 29 | 246 | 14.5 | 25.7 | 0.00 | 0.00 | 0.00 | 68 | 1009.1 |
| 20260903232058 | 29 | 229 | 14.5 | 25.7 | 0.00 | 0.00 | 0.00 | 68 | 1009.1 |
| 20260903232003 | 29 | 235 | 16.1 | 25.7 | 0.00 | 0.00 | 0.00 | 68 | 1009.0 |
| 20260903231927 | 29 | 212 | 16.1 | 25.7 | 0.00 | 0.00 | 0.00 | 68 | 1009.1 |
| 20260903231811 | 29 | 233 | 12.9 | 25.7 | 0.00 | 0.00 | 0.00 | 68 | 1009.1 |
| 20260903231659 | 29 | 236 | 14.5 | 25.7 | 0.00 | 0.00 | 0.00 | 68 | 1009.0 |
| 20260903231604 | 29 | 257 | 12.9 | 25.7 | 0.00 | 0.00 | 0.00 | 68 | 1009.1 |
| 20260903231510 | 29 | 228 | 12.9 | 24.1 | 0.00 | 0.00 | 0.00 | 68 | 1009.1 |
| 20260903231434 | 29 | 243 | 14.5 | 24.1 | 0.00 | 0.00 | 0.00 | 68 | 1009.1 |
| 20260903231318 | 29 | 192 | 16.1 | 24.1 | 0.00 | 0.00 | 0.00 | 68 | 1009.1 |
| 20260903231156 | 29 | 261 | 14.5 | 24.1 | 0.00 | 0.00 | 0.00 | 67 | 1009.0 |
| 20260903231121 | 29 | 250 | 16.1 | 24.1 | 0.00 | 0.00 | 0.00 | 67 | 1009.1 |
| 20260903231010 | 29 | 236 | 19.3 | 24.1 | 0.00 | 0.00 | 0.00 | 67 | 1009.1 |
| 20260903230914 | 29 | 244 | 17.7 | 24.1 | 0.00 | 0.00 | 0.00 | 67 | 1009.0 |
| 20260903230818 | 29 | 208 | 11.3 | 20.9 | 0.00 | 0.00 | 0.00 | 68 | 1009.0 |
| 20260903230702 | 29 | 215 | 11.3 | 20.9 | 0.00 | 0.00 | 0.00 | 68 | 1009.0 |
| 20260903230627 | 29 | 213 | 14.5 | 20.9 | 0.00 | 0.00 | 0.00 | 68 | 1009.0 |
| 20260903230510 | 29 | 209 | 16.1 | 20.9 | 0.00 | 0.00 | 0.00 | 67 | 1009.0 |
| 20260903230359 | 29 | 207 | 16.1 | 22.5 | 0.00 | 0.00 | 0.00 | 68 | 1008.9 |
| 20260903230304 | 29 | 236 | 16.1 | 22.5 | 0.00 | 0.00 | 0.00 | 67 | 1008.9 |
| 20260903230208 | 29 | 234 | 16.1 | 22.5 | 0.00 | 0.00 | 0.00 | 67 | 1008.9 |
| 20260903230131 | 29 | 216 | 14.5 | 22.5 | 0.00 | 0.00 | 0.00 | 67 | 1008.9 |
| 20260903225956 | 29 | 199 | 12.9 | 19.3 | 0.00 | 0.00 | 0.00 | 68 | 1009.0 |
| 20260903225900 | 29 | 208 | 12.9 | 19.3 | 0.00 | 0.00 | 0.00 | 67 | 1009.0 |
| 20260903225804 | 29 | 255 | 11.3 | 19.3 | 0.00 | 0.00 | 0.00 | 68 | 1009.1 |
| 20260903225734 | 29 | 211 | 12.9 | 19.3 | 0.00 | 0.00 | 0.00 | 68 | 1009.1 |
| 20260903225558 | 29 | 233 | 11.3 | 19.3 | 0.00 | 0.00 | 0.00 | 68 | 1009.0 |
| 20260903225502 | 29 | 254 | 8.0 | 19.3 | 0.00 | 0.00 | 0.00 | 68 | 1009.1 |
| 20260903225426 | 29 | 250 | 8.0 | 19.3 | 0.00 | 0.00 | 0.00 | 69 | 1009.0 |
| 20260903225310 | 29 | 235 | 8.0 | 19.3 | 0.00 | 0.00 | 0.00 | 68 | 1009.0 |
| 20260903225155 | 29 | 248 | 12.9 | 19.3 | 0.00 | 0.00 | 0.00 | 68 | 1009.0 |
| 20260903225104 | 29 | 272 | 12.9 | 19.3 | 0.00 | 0.00 | 0.00 | 68 | 1009.1 |
| 20260903225009 | 29 | 219 | 11.3 | 19.3 | 0.00 | 0.00 | 0.00 | 68 | 1009.1 |
| 20260903224914 | 29 | 205 | 12.9 | 19.3 | 0.00 | 0.00 | 0.00 | 68 | 1009.1 |
| 20260903224819 | 29 | 196 | 12.9 | 19.3 | 0.00 | 0.00 | 0.00 | 68 | 1009.1 |
| 20260903224703 | 29 | 216 | 11.3 | 19.3 | 0.00 | 0.00 | 0.00 | 68 | 1009.1 |
| 20260903224608 | 29 | 240 | 9.7 | 19.3 | 0.00 | 0.00 | 0.00 | 68 | 1009.1 |
| 20260903224457 | 29 | 211 | 8.0 | 19.3 | 0.00 | 0.00 | 0.00 | 68 | 1009.2 |
| 20260903224402 | 29 | 237 | 11.3 | 19.3 | 0.00 | 0.00 | 0.00 | 68 | 1009.2 |
| 20260903224307 | 29 | 247 | 12.9 | 19.3 | 0.00 | 0.00 | 0.00 | 68 | 1009.2 |
| 20260903224212 | 29 | 239 | 12.9 | 19.3 | 0.00 | 0.00 | 0.00 | 68 | 1009.2 |
| 20260903224117 | 29 | 228 | 14.5 | 20.9 | 0.00 | 0.00 | 0.00 | 68 | 1009.2 |
| 20260903224001 | 29 | 246 | 14.5 | 19.3 | 0.00 | 0.00 | 0.00 | 67 | 1009.2 |
| 20260903223907 | 29 | 223 | 11.3 | 19.3 | 0.00 | 0.00 | 0.00 | 68 | 1009.2 |
| 20260903223755 | 29 | 248 | 11.3 | 19.3 | 0.00 | 0.00 | 0.00 | 68 | 1009.1 |
| 20260903223721 | 29 | 233 | 12.9 | 19.3 | 0.00 | 0.00 | 0.00 | 68 | 1009.1 |
| 20260903223558 | 29 | 245 | 12.9 | 19.3 | 0.00 | 0.00 | 0.00 | 68 | 1009.2 |
| 20260903223523 | 29 | 250 | 9.7 | 27.4 | 0.00 | 0.00 | 0.00 | 68 | 1009.2 |
| 20260903223407 | 29 | 234 | 6.4 | 27.4 | 0.00 | 0.00 | 0.00 | 69 | 1009.2 |
| 20260903223312 | 29 | 298 | 9.7 | 27.4 | 0.00 | 0.00 | 0.00 | 69 | 1009.2 |
| 20260903223201 | 29 | 247 | 9.7 | 27.4 | 0.00 | 0.00 | 0.00 | 69 | 1009.2 |
| 20260903223105 | 29 | 200 | 9.7 | 27.4 | 0.00 | 0.00 | 0.00 | 69 | 1009.2 |
| 20260903223009 | 29 | 249 | 11.3 | 27.4 | 0.00 | 0.00 | 0.00 | 70 | 1009.2 |
| 20260903222914 | 29 | 209 | 14.5 | 27.4 | 0.00 | 0.00 | 0.00 | 69 | 1009.1 |
| 20260903222759 | 29 | 206 | 17.7 | 27.4 | 0.00 | 0.00 | 0.00 | 71 | 1009.2 |
| 20260903222705 | 29 | 208 | 16.1 | 27.4 | 0.00 | 0.00 | 0.00 | 70 | 1009.2 |
| 20260903222613 | 29 | 279 | 12.9 | 27.4 | 0.00 | 0.00 | 0.00 | 72 | 1009.2 |
| 20260903222539 | 29 | 208 | 9.7 | 25.7 | 0.00 | 0.00 | 0.00 | 72 | 1009.2 |
| 20260903222356 | 29 | 202 | 11.3 | 25.7 | 0.00 | 0.00 | 0.00 | 71 | 1009.2 |
| 20260903222305 | 29 | 231 | 11.3 | 25.7 | 0.00 | 0.00 | 0.00 | 70 | 1009.1 |
| 20260903222228 | 29 | 236 | 8.0 | 16.1 | 0.00 | 0.00 | 0.00 | 70 | 1009.1 |
| 20260903222131 | 29 | 203 | 8.0 | 16.1 | 0.00 | 0.00 | 0.00 | 72 | 1009.1 |
| 20260903222035 | 29 | 236 | 11.3 | 19.3 | 0.00 | 0.00 | 0.00 | 72 | 1009.2 |
| 20260903221903 | 29 | 210 | 12.9 | 19.3 | 0.00 | 0.00 | 0.00 | 72 | 1009.2 |
| 20260903221807 | 29 | 227 | 12.9 | 19.3 | 0.00 | 0.00 | 0.00 | 72 | 1009.2 |
| 20260903221711 | 29 | 202 | 14.5 | 19.3 | 0.00 | 0.00 | 0.00 | 72 | 1009.2 |
| 20260903221617 | 29 | 210 | 12.9 | 19.3 | 0.00 | 0.00 | 0.00 | 72 | 1009.2 |
| 20260903221540 | 29 | 211 | 14.5 | 19.3 | 0.00 | 0.00 | 0.00 | 72 | 1009.2 |
| 20260903221357 | 29 | 225 | 14.5 | 19.3 | 0.00 | 0.00 | 0.00 | 72 | 1009.2 |
| 20260903221302 | 29 | 221 | 14.5 | 19.3 | 0.00 | 0.00 | 0.00 | 72 | 1009.3 |
| 20260903221230 | 28 | 201 | 14.5 | 20.9 | 0.00 | 0.00 | 0.00 | 73 | 1009.3 |
| 20260903221114 | 28 | 207 | 14.5 | 19.3 | 0.00 | 0.00 | 0.00 | 72 | 1009.3 |
| 20260903220959 | 28 | 217 | 16.1 | 19.3 | 0.00 | 0.00 | 0.00 | 72 | 1009.3 |
| 20260903220924 | 28 | 202 | 17.7 | 22.5 | 0.00 | 0.00 | 0.00 | 73 | 1009.2 |
| 20260903220808 | 28 | 240 | 14.5 | 22.5 | 0.00 | 0.00 | 0.00 | 73 | 1009.2 |
| 20260903220713 | 28 | 224 | 14.5 | 22.5 | 0.00 | 0.00 | 0.00 | 73 | 1009.2 |
| 20260903220602 | 29 | 244 | 12.9 | 22.5 | 0.00 | 0.00 | 0.00 | 72 | 1009.2 |
| 20260903220507 | 29 | 254 | 9.7 | 22.5 | 0.00 | 0.00 | 0.00 | 73 | 1009.2 |
| 20260903220412 | 29 | 231 | 11.3 | 22.5 | 0.00 | 0.00 | 0.00 | 74 | 1009.2 |
| 20260903220317 | 29 | 234 | 12.9 | 22.5 | 0.00 | 0.00 | 0.00 | 73 | 1009.2 |
| 20260903220221 | 29 | 219 | 11.3 | 19.3 | 0.00 | 0.00 | 0.00 | 74 | 1009.1 |
| 20260903220057 | 29 | 241 | 12.9 | 20.9 | 0.00 | 0.00 | 0.00 | 74 | 1009.1 |
| 20260903220023 | 28 | 242 | 12.9 | 20.9 | 0.00 | 0.00 | 0.00 | 73 | 1009.0 |
| 20260903215910 | 28 | 213 | 9.7 | 20.9 | 0.00 | 0.00 | 0.00 | 74 | 1009.0 |
| 20260903215755 | 28 | 220 | 9.7 | 27.4 | 0.00 | 0.00 | 0.00 | 74 | 1009.0 |
| 20260903215700 | 28 | 218 | 12.9 | 27.4 | 0.00 | 0.00 | 0.00 | 73 | 1009.1 |
| 20260903215604 | 28 | 265 | 14.5 | 27.4 | 0.00 | 0.00 | 0.00 | 73 | 1009.0 |
| 20260903215510 | 28 | 257 | 14.5 | 29.0 | 0.00 | 0.00 | 0.00 | 73 | 1009.0 |
| 20260903215414 | 28 | 223 | 14.5 | 29.0 | 0.00 | 0.00 | 0.00 | 74 | 1009.1 |
| 20260903215306 | 28 | 221 | 16.1 | 29.0 | 0.00 | 0.00 | 0.00 | 74 | 1009.0 |
| 20260903215207 | 28 | 212 | 16.1 | 29.0 | 0.00 | 0.00 | 0.00 | 74 | 1009.1 |
| 20260903215111 | 28 | 230 | 16.1 | 29.0 | 0.00 | 0.00 | 0.00 | 74 | 1009.1 |
| 20260903215036 | 28 | 228 | 17.7 | 29.0 | 0.00 | 0.00 | 0.00 | 74 | 1009.1 |
| 20260903214859 | 28 | 223 | 19.3 | 29.0 | 0.00 | 0.00 | 0.00 | 74 | 1009.1 |
| 20260903214804 | 28 | 219 | 20.9 | 29.0 | 0.00 | 0.00 | 0.00 | 74 | 1009.1 |
| 20260903214729 | 28 | 217 | 20.9 | 29.0 | 0.00 | 0.00 | 0.00 | 74 | 1009.1 |
| 20260903214556 | 28 | 244 | 14.5 | 24.1 | 0.00 | 0.00 | 0.00 | 75 | 1009.2 |
| 20260903214501 | 28 | 210 | 14.5 | 24.1 | 0.00 | 0.00 | 0.00 | 76 | 1009.1 |
| 20260903214405 | 28 | 224 | 16.1 | 24.1 | 0.00 | 0.00 | 0.00 | 75 | 1009.1 |
| 20260903214309 | 28 | 212 | 16.1 | 24.1 | 0.00 | 0.00 | 0.00 | 75 | 1009.1 |
| 20260903214214 | 28 | 203 | 16.1 | 24.1 | 0.00 | 0.00 | 0.00 | 75 | 1009.1 |
| 20260903214057 | 28 | 205 | 16.1 | 24.1 | 0.00 | 0.00 | 0.00 | 75 | 1009.1 |
| 20260903214007 | 28 | 227 | 16.1 | 24.1 | 0.00 | 0.00 | 0.00 | 75 | 1009.2 |
| 20260903213911 | 28 | 227 | 17.7 | 24.1 | 0.00 | 0.00 | 0.00 | 75 | 1009.2 |
| 20260903213836 | 28 | 240 | 14.5 | 25.7 | 0.00 | 0.00 | 0.00 | 76 | 1009.1 |
| 20260903213737 | 28 | 224 | 12.9 | 25.7 | 0.00 | 0.00 | 0.00 | 76 | 1009.2 |
| 20260903213641 | 28 | 224 | 12.9 | 25.7 | 0.00 | 0.00 | 0.00 | 76 | 1009.2 |
| 20260903213458 | 27 | 209 | 12.9 | 25.7 | 0.00 | 0.00 | 0.00 | 76 | 1009.3 |
| 20260903213422 | 27 | 251 | 12.9 | 25.7 | 0.00 | 0.00 | 0.00 | 76 | 1009.4 |
| 20260903213326 | 27 | 225 | 14.5 | 25.7 | 0.00 | 0.00 | 0.00 | 77 | 1009.3 |
| 20260903213229 | 27 | 223 | 16.1 | 25.7 | 0.00 | 0.00 | 0.00 | 76 | 1009.3 |
| 20260903213057 | 27 | 234 | 14.5 | 25.7 | 0.00 | 0.00 | 0.00 | 77 | 1009.3 |
| 20260903213002 | 27 | 216 | 14.5 | 25.7 | 0.00 | 0.00 | 0.00 | 76 | 1009.3 |
| 20260903212906 | 27 | 215 | 12.9 | 24.1 | 0.00 | 0.00 | 0.00 | 77 | 1009.3 |
| 20260903212810 | 27 | 198 | 14.5 | 24.1 | 0.00 | 0.00 | 0.00 | 76 | 1009.3 |
| 20260903212655 | 27 | 234 | 16.1 | 24.1 | 0.00 | 0.00 | 0.00 | 77 | 1009.3 |
| 20260903212604 | 27 | 221 | 14.5 | 24.1 | 0.00 | 0.00 | 0.00 | 77 | 1009.3 |
| 20260903212509 | 27 | 220 | 12.9 | 24.1 | 0.00 | 0.00 | 0.00 | 77 | 1009.3 |
| 20260903212414 | 27 | 221 | 12.9 | 24.1 | 0.00 | 0.00 | 0.00 | 77 | 1009.4 |
| 20260903212259 | 27 | 234 | 16.1 | 24.1 | 0.00 | 0.00 | 0.00 | 77 | 1009.4 |
| 20260903212204 | 27 | 212 | 16.1 | 24.1 | 0.00 | 0.00 | 0.00 | 76 | 1009.4 |
| 20260903212109 | 27 | 221 | 16.1 | 24.1 | 0.00 | 0.00 | 0.00 | 77 | 1009.4 |
| 20260903212018 | 27 | 239 | 14.5 | 24.1 | 0.00 | 0.00 | 0.00 | 76 | 1009.4 |
| 20260903211856 | 27 | 242 | 14.5 | 24.1 | 0.00 | 0.00 | 0.00 | 76 | 1009.4 |
| 20260903211801 | 27 | 241 | 14.5 | 24.1 | 0.00 | 0.00 | 0.00 | 76 | 1009.4 |
| 20260903211727 | 27 | 225 | 14.5 | 24.1 | 0.00 | 0.00 | 0.00 | 76 | 1009.5 |
| 20260903211610 | 27 | 210 | 14.5 | 24.1 | 0.00 | 0.00 | 0.00 | 76 | 1009.5 |
| 20260903211455 | 27 | 228 | 16.1 | 24.1 | 0.00 | 0.00 | 0.00 | 76 | 1009.5 |
| 20260903211404 | 27 | 234 | 16.1 | 24.1 | 0.00 | 0.00 | 0.00 | 76 | 1009.5 |
| 20260903211309 | 27 | 222 | 14.5 | 24.1 | 0.00 | 0.00 | 0.00 | 76 | 1009.5 |
| 20260903211214 | 27 | 223 | 16.1 | 29.0 | 0.00 | 0.00 | 0.00 | 76 | 1009.5 |
| 20260903211139 | 27 | 238 | 17.7 | 29.0 | 0.00 | 0.00 | 0.00 | 76 | 1009.5 |
| 20260903210956 | 27 | 225 | 14.5 | 29.0 | 0.00 | 0.00 | 0.00 | 77 | 1009.5 |
| 20260903210900 | 27 | 208 | 12.9 | 29.0 | 0.00 | 0.00 | 0.00 | 77 | 1009.4 |
| 20260903210805 | 27 | 214 | 14.5 | 29.0 | 0.00 | 0.00 | 0.00 | 77 | 1009.4 |
| 20260903210714 | 27 | 229 | 14.5 | 29.0 | 0.00 | 0.00 | 0.00 | 77 | 1009.4 |
| 20260903210619 | 27 | 219 | 14.5 | 29.0 | 0.00 | 0.00 | 0.00 | 76 | 1009.4 |
| 20260903210456 | 27 | 194 | 16.1 | 29.0 | 0.00 | 0.00 | 0.00 | 76 | 1009.5 |
| 20260903210401 | 27 | 207 | 14.5 | 27.4 | 0.00 | 0.00 | 0.00 | 77 | 1009.6 |
| 20260903210306 | 27 | 188 | 14.5 | 25.7 | 0.00 | 0.00 | 0.00 | 76 | 1009.5 |
| 20260903210231 | 27 | 227 | 14.5 | 25.7 | 0.00 | 0.00 | 0.00 | 76 | 1009.5 |
| 20260903210120 | 27 | 208 | 16.1 | 25.7 | 0.00 | 0.00 | 0.00 | 76 | 1009.6 |
| 20260903210023 | 27 | 209 | 16.1 | 25.7 | 0.00 | 0.00 | 0.00 | 76 | 1009.6 |
| 20260903205908 | 27 | 231 | 16.1 | 25.7 | 0.00 | 0.00 | 0.00 | 76 | 1009.6 |
| 20260903205813 | 27 | 213 | 16.1 | 25.7 | 0.00 | 0.00 | 0.00 | 76 | 1009.7 |
| 20260903205656 | 27 | 214 | 14.5 | 25.7 | 0.00 | 0.00 | 0.00 | 76 | 1009.6 |
| 20260903205601 | 27 | 221 | 14.5 | 25.7 | 0.00 | 0.00 | 0.00 | 76 | 1009.6 |
| 20260903205506 | 27 | 213 | 16.1 | 25.7 | 0.00 | 0.00 | 0.00 | 76 | 1009.7 |
| 20260903205355 | 27 | 244 | 16.1 | 25.7 | 0.00 | 0.00 | 0.00 | 76 | 1009.7 |
| 20260903205301 | 27 | 225 | 14.5 | 25.7 | 0.00 | 0.00 | 0.00 | 77 | 1009.7 |
| 20260903205205 | 27 | 194 | 16.1 | 25.7 | 0.00 | 0.00 | 0.00 | 76 | 1009.7 |
| 20260903205110 | 27 | 219 | 19.3 | 25.7 | 0.00 | 0.00 | 0.00 | 76 | 1009.7 |
| 20260903205034 | 27 | 201 | 17.7 | 27.4 | 0.00 | 0.00 | 0.00 | 75 | 1009.7 |
| 20260903204917 | 27 | 205 | 14.5 | 27.4 | 0.00 | 0.00 | 0.00 | 75 | 1009.7 |
| 20260903204821 | 27 | 211 | 14.5 | 27.4 | 0.00 | 0.00 | 0.00 | 75 | 1009.7 |
| 20260903204709 | 27 | 240 | 14.5 | 27.4 | 0.00 | 0.00 | 0.00 | 75 | 1009.7 |
| 20260903204614 | 27 | 205 | 16.1 | 27.4 | 0.00 | 0.00 | 0.00 | 75 | 1009.7 |
| 20260903204459 | 27 | 220 | 19.3 | 27.4 | 0.00 | 0.00 | 0.00 | 74 | 1009.7 |
| 20260903204424 | 27 | 209 | 19.3 | 27.4 | 0.00 | 0.00 | 0.00 | 74 | 1009.7 |
| 20260903204308 | 27 | 227 | 16.1 | 27.4 | 0.00 | 0.00 | 0.00 | 74 | 1009.7 |
| 20260903204233 | 27 | 223 | 16.1 | 25.7 | 0.00 | 0.00 | 0.00 | 74 | 1009.7 |
| 20260903204117 | 27 | 200 | 14.5 | 24.1 | 0.00 | 0.00 | 0.00 | 74 | 1009.8 |
| 20260903204005 | 27 | 238 | 12.9 | 24.1 | 0.00 | 0.00 | 0.00 | 75 | 1009.8 |
| 20260903203910 | 27 | 234 | 14.5 | 24.1 | 0.00 | 0.00 | 0.00 | 74 | 1009.8 |
| 20260903203756 | 27 | 223 | 16.1 | 24.1 | 0.00 | 0.00 | 0.00 | 73 | 1009.8 |
| 20260903203720 | 27 | 221 | 12.9 | 22.5 | 0.00 | 0.00 | 0.00 | 74 | 1009.8 |
| 20260903203603 | 27 | 232 | 9.7 | 16.1 | 0.00 | 0.00 | 0.00 | 74 | 1009.8 |
| 20260903203508 | 27 | 228 | 9.7 | 16.1 | 0.00 | 0.00 | 0.00 | 75 | 1009.8 |
| 20260903203357 | 27 | 232 | 8.0 | 20.9 | 0.00 | 0.00 | 0.00 | 74 | 1009.9 |
| 20260903203302 | 27 | 227 | 9.7 | 20.9 | 0.00 | 0.00 | 0.00 | 74 | 1009.9 |
| 20260903203207 | 27 | 236 | 12.9 | 20.9 | 0.00 | 0.00 | 0.00 | 73 | 1009.9 |
| 20260903203112 | 27 | 206 | 14.5 | 20.9 | 0.00 | 0.00 | 0.00 | 74 | 1009.9 |
| 20260903202958 | 27 | 240 | 11.3 | 20.9 | 0.00 | 0.00 | 0.00 | 74 | 1010.0 |
| 20260903202902 | 27 | 244 | 11.3 | 20.9 | 0.00 | 0.00 | 0.00 | 73 | 1010.0 |
| 20260903202810 | 27 | 273 | 14.5 | 20.9 | 0.00 | 0.00 | 0.00 | 73 | 1010.0 |
| 20260903202655 | 27 | 222 | 16.1 | 20.9 | 0.00 | 0.00 | 0.00 | 73 | 1010.1 |
| 20260903202600 | 27 | 192 | 12.9 | 17.7 | 0.00 | 0.00 | 0.00 | 73 | 1010.2 |
| 20260903202505 | 28 | 203 | 11.3 | 17.7 | 0.00 | 0.00 | 0.00 | 73 | 1010.1 |
| 20260903202410 | 27 | 207 | 11.3 | 17.7 | 0.00 | 0.00 | 0.00 | 73 | 1010.1 |
| 20260903202259 | 27 | 193 | 11.3 | 19.3 | 0.00 | 0.00 | 0.00 | 73 | 1010.2 |
| 20260903202224 | 27 | 202 | 9.7 | 17.7 | 0.00 | 0.00 | 0.00 | 73 | 1010.3 |
| 20260903202107 | 27 | 229 | 8.0 | 22.5 | 0.00 | 0.00 | 0.00 | 73 | 1010.3 |
| 20260903202032 | 27 | 221 | 9.7 | 22.5 | 0.00 | 0.00 | 0.00 | 73 | 1010.3 |
| 20260903201857 | 27 | 240 | 12.9 | 22.5 | 0.00 | 0.00 | 0.00 | 72 | 1010.2 |
| 20260903201801 | 27 | 243 | 12.9 | 22.5 | 0.00 | 0.00 | 0.00 | 73 | 1010.2 |
| 20260903201726 | 27 | 184 | 12.9 | 22.5 | 0.00 | 0.00 | 0.00 | 72 | 1010.2 |
| 20260903201609 | 27 | 208 | 11.3 | 22.5 | 0.00 | 0.00 | 0.00 | 73 | 1010.2 |
| 20260903201518 | 27 | 219 | 9.7 | 22.5 | 0.00 | 0.00 | 0.00 | 73 | 1010.1 |
| 20260903201356 | 27 | 206 | 14.5 | 22.5 | 0.00 | 0.00 | 0.00 | 73 | 1010.2 |
| 20260903201300 | 27 | 227 | 16.1 | 22.5 | 0.00 | 0.00 | 0.00 | 72 | 1010.2 |
| 20260903201206 | 27 | 189 | 16.1 | 20.9 | 0.00 | 0.00 | 0.00 | 71 | 1010.3 |
| 20260903201109 | 27 | 190 | 14.5 | 22.5 | 0.00 | 0.00 | 0.00 | 71 | 1010.3 |
| 20260903200959 | 27 | 186 | 12.9 | 19.3 | 0.00 | 0.00 | 0.00 | 72 | 1010.2 |
| 20260903200904 | 27 | 221 | 12.9 | 19.3 | 0.00 | 0.00 | 0.00 | 72 | 1010.2 |
| 20260903200808 | 27 | 234 | 14.5 | 19.3 | 0.00 | 0.00 | 0.00 | 72 | 1010.2 |
| 20260903200713 | 28 | 227 | 16.1 | 22.5 | 0.00 | 0.00 | 0.00 | 71 | 1010.3 |
| 20260903200618 | 28 | 225 | 16.1 | 20.9 | 0.00 | 0.00 | 0.00 | 71 | 1010.3 |
| 20260903200456 | 28 | 221 | 14.5 | 20.9 | 0.00 | 0.00 | 0.00 | 71 | 1010.2 |
| 20260903200405 | 28 | 223 | 11.3 | 20.9 | 0.00 | 0.00 | 0.00 | 73 | 1010.2 |
| 20260903200309 | 28 | 202 | 12.9 | 20.9 | 0.00 | 0.00 | 0.00 | 72 | 1010.2 |
| 20260903200215 | 28 | 232 | 14.5 | 20.9 | 0.00 | 0.00 | 0.00 | 71 | 1010.1 |
| 20260903200059 | 28 | 234 | 12.9 | 20.9 | 0.00 | 0.00 | 0.00 | 71 | 1010.1 |
| 20260903200004 | 28 | 209 | 14.5 | 20.9 | 0.00 | 0.00 | 0.00 | 71 | 1010.1 |
| 20260903195909 | 28 | 213 | 16.1 | 20.9 | 0.00 | 0.00 | 0.00 | 71 | 1010.1 |
| 20260903195818 | 28 | 217 | 14.5 | 24.1 | 0.00 | 0.00 | 0.00 | 72 | 1010.1 |
| 20260903195656 | 28 | 252 | 12.9 | 24.1 | 0.00 | 0.00 | 0.00 | 71 | 1010.3 |
| 20260903195620 | 28 | 195 | 12.9 | 24.1 | 0.00 | 0.00 | 0.00 | 71 | 1010.3 |
| 20260903195504 | 28 | 233 | 14.5 | 24.1 | 0.00 | 0.00 | 0.00 | 71 | 1010.2 |
| 20260903195409 | 28 | 266 | 14.5 | 24.1 | 0.00 | 0.00 | 0.00 | 72 | 1010.2 |
| 20260903195314 | 28 | 214 | 14.5 | 24.1 | 0.00 | 0.00 | 0.00 | 71 | 1010.2 |
| 20260903195202 | 28 | 219 | 16.1 | 24.1 | 0.00 | 0.00 | 0.00 | 71 | 1010.2 |
| 20260903195107 | 28 | 212 | 14.5 | 24.1 | 0.00 | 0.00 | 0.00 | 71 | 1010.2 |
| 20260903195013 | 28 | 213 | 11.3 | 17.7 | 0.00 | 0.00 | 0.00 | 73 | 1010.2 |
| 20260903194917 | 28 | 236 | 9.7 | 19.3 | 0.00 | 0.00 | 0.00 | 73 | 1010.3 |
| 20260903194821 | 28 | 230 | 9.7 | 19.3 | 0.00 | 0.00 | 0.00 | 72 | 1010.4 |
| 20260903194725 | 28 | 238 | 11.3 | 19.3 | 0.00 | 0.00 | 0.00 | 71 | 1010.4 |
| 20260903194607 | 28 | 263 | 14.5 | 19.3 | 0.00 | 0.00 | 0.00 | 71 | 1010.5 |
| 20260903194455 | 28 | 273 | 11.3 | 19.3 | 0.00 | 0.00 | 0.00 | 71 | 1010.5 |
| 20260903194400 | 28 | 224 | 11.3 | 19.3 | 0.00 | 0.00 | 0.00 | 72 | 1010.6 |
| 20260903194304 | 28 | 215 | 11.3 | 24.1 | 0.00 | 0.00 | 0.00 | 74 | 1010.6 |
| 20260903194209 | 28 | 246 | 12.9 | 24.1 | 0.00 | 0.00 | 0.00 | 72 | 1010.6 |
| 20260903194115 | 28 | 244 | 12.9 | 24.1 | 0.00 | 0.00 | 0.00 | 72 | 1010.6 |
| 20260903193959 | 28 | 254 | 12.9 | 24.1 | 0.00 | 0.00 | 0.00 | 74 | 1010.7 |
| 20260903193908 | 28 | 264 | 12.9 | 24.1 | 0.00 | 0.00 | 0.00 | 73 | 1010.7 |
| 20260903193813 | 27 | 215 | 12.9 | 24.1 | 0.00 | 0.00 | 0.00 | 73 | 1010.6 |
| 20260903193718 | 27 | 240 | 12.9 | 24.1 | 0.00 | 0.00 | 0.00 | 73 | 1010.7 |
| 20260903193556 | 27 | 227 | 14.5 | 24.1 | 0.00 | 0.00 | 0.00 | 74 | 1010.6 |
| 20260903193501 | 27 | 223 | 12.9 | 24.1 | 0.00 | 0.00 | 0.00 | 74 | 1010.7 |
| 20260903193406 | 27 | 223 | 9.7 | 16.1 | 0.00 | 0.00 | 0.00 | 75 | 1010.7 |
| 20260903193315 | 27 | 213 | 8.0 | 16.1 | 0.00 | 0.00 | 0.00 | 75 | 1010.7 |
| 20260903193159 | 27 | 221 | 8.0 | 16.1 | 0.00 | 0.00 | 0.00 | 76 | 1010.6 |
| 20260903193103 | 27 | 231 | 11.3 | 16.1 | 0.00 | 0.00 | 0.00 | 75 | 1010.6 |
| 20260903193007 | 27 | 207 | 11.3 | 16.1 | 0.00 | 0.00 | 0.00 | 75 | 1010.6 |
| 20260903192912 | 27 | 253 | 9.7 | 16.1 | 0.00 | 0.00 | 0.00 | 76 | 1010.6 |
| 20260903192757 | 27 | 223 | 9.7 | 12.9 | 0.00 | 0.00 | 0.00 | 76 | 1010.5 |
| 20260903192726 | 27 | 208 | 9.7 | 12.9 | 0.00 | 0.00 | 0.00 | 78 | 1010.5 |
| 20260903192610 | 27 | 204 | 9.7 | 12.9 | 0.00 | 0.00 | 0.00 | 78 | 1010.5 |
| 20260903192534 | 27 | 209 | 8.0 | 12.9 | 0.00 | 0.00 | 0.00 | 78 | 1010.6 |
| 20260903192418 | 26 | 212 | 6.4 | 9.7 | 0.00 | 0.00 | 0.00 | 79 | 1010.7 |
| 20260903192306 | 26 | 221 | 6.4 | 9.7 | 0.00 | 0.00 | 0.00 | 79 | 1010.6 |
| 20260903192207 | 26 | 238 | 6.4 | 9.7 | 0.00 | 0.00 | 0.00 | 79 | 1010.6 |
| 20260903192112 | 26 | 239 | 4.8 | 9.7 | 0.00 | 0.00 | 0.00 | 80 | 1010.6 |
| 20260903192001 | 26 | 181 | 4.8 | 8.0 | 0.00 | 0.00 | 0.00 | 79 | 1010.6 |
| 20260903191906 | 26 | 179 | 6.4 | 8.0 | 0.00 | 0.00 | 0.00 | 79 | 1010.5 |
| 20260903191831 | 26 | 211 | 4.8 | 8.0 | 0.00 | 0.00 | 0.00 | 78 | 1010.5 |
| 20260903191655 | 26 | 211 | 4.8 | 8.0 | 0.00 | 0.00 | 0.00 | 79 | 1010.5 |
| 20260903191600 | 26 | 211 | 4.8 | 8.0 | 0.00 | 0.00 | 0.00 | 79 | 1010.5 |
| 20260903191505 | 26 | 205 | 4.8 | 8.0 | 0.00 | 0.00 | 0.00 | 79 | 1010.5 |
| 20260903191410 | 26 | 222 | 4.8 | 8.0 | 0.00 | 0.00 | 0.00 | 79 | 1010.5 |
| 20260903191318 | 26 | 225 | 4.8 | 8.0 | 0.00 | 0.00 | 0.00 | 79 | 1010.5 |
| 20260903191156 | 26 | 225 | 3.2 | 11.3 | 0.00 | 0.00 | 0.00 | 79 | 1010.6 |
| 20260903191120 | 26 | 225 | 3.2 | 11.3 | 0.00 | 0.00 | 0.00 | 79 | 1010.6 |
| 20260903190958 | 26 | 225 | 3.2 | 11.3 | 0.00 | 0.00 | 0.00 | 79 | 1010.6 |
| 20260903190902 | 26 | 224 | 4.8 | 11.3 | 0.00 | 0.00 | 0.00 | 79 | 1010.5 |
| 20260903190826 | 26 | 224 | 4.8 | 11.3 | 0.00 | 0.00 | 0.00 | 79 | 1010.5 |
| 20260903190715 | 26 | 250 | 4.8 | 11.3 | 0.00 | 0.00 | 0.00 | 78 | 1010.5 |
| 20260903190559 | 26 | 258 | 3.2 | 12.9 | 0.00 | 0.00 | 0.00 | 79 | 1010.6 |
| 20260903190503 | 26 | 259 | 4.8 | 12.9 | 0.00 | 0.00 | 0.00 | 78 | 1010.6 |
| 20260903190408 | 26 | 257 | 6.4 | 12.9 | 0.00 | 0.00 | 0.00 | 78 | 1010.6 |
| 20260903190313 | 26 | 252 | 4.8 | 12.9 | 0.00 | 0.00 | 0.00 | 79 | 1010.6 |
| 20260903190159 | 26 | 239 | 4.8 | 12.9 | 0.00 | 0.00 | 0.00 | 78 | 1010.6 |
| 20260903190107 | 26 | 240 | 4.8 | 12.9 | 0.00 | 0.00 | 0.00 | 79 | 1010.6 |
| 20260903190012 | 26 | 234 | 6.4 | 12.9 | 0.00 | 0.00 | 0.00 | 79 | 1010.5 |
| 20260903185917 | 26 | 225 | 6.4 | 12.9 | 0.00 | 0.00 | 0.00 | 78 | 1010.5 |
| 20260903185801 | 26 | 240 | 6.4 | 12.9 | 0.00 | 0.00 | 0.00 | 78 | 1010.5 |
| 20260903185702 | 26 | 236 | 6.4 | 12.9 | 0.00 | 0.00 | 0.00 | 78 | 1010.5 |
| 20260903185627 | 26 | 244 | 6.4 | 12.9 | 0.00 | 0.00 | 0.00 | 78 | 1010.4 |
| 20260903185511 | 26 | 225 | 6.4 | 12.9 | 0.00 | 0.00 | 0.00 | 78 | 1010.4 |
| 20260903185359 | 26 | 236 | 8.0 | 12.9 | 0.00 | 0.00 | 0.00 | 78 | 1010.5 |
| 20260903185306 | 26 | 247 | 8.0 | 12.9 | 0.00 | 0.00 | 0.00 | 77 | 1010.6 |
| 20260903185207 | 26 | 236 | 6.4 | 11.3 | 0.00 | 0.00 | 0.00 | 77 | 1010.6 |
| 20260903185131 | 26 | 216 | 6.4 | 14.5 | 0.00 | 0.00 | 0.00 | 77 | 1010.6 |
| 20260903184955 | 26 | 259 | 6.4 | 14.5 | 0.00 | 0.00 | 0.00 | 77 | 1010.6 |
| 20260903184900 | 26 | 251 | 8.0 | 16.1 | 0.00 | 0.00 | 0.00 | 77 | 1010.6 |
| 20260903184809 | 26 | 252 | 6.4 | 16.1 | 0.00 | 0.00 | 0.00 | 77 | 1010.6 |
| 20260903184714 | 26 | 225 | 6.4 | 16.1 | 0.00 | 0.00 | 0.00 | 78 | 1010.5 |
| 20260903184559 | 26 | 246 | 6.4 | 16.1 | 0.00 | 0.00 | 0.00 | 77 | 1010.6 |
| 20260903184504 | 26 | 230 | 8.0 | 16.1 | 0.00 | 0.00 | 0.00 | 76 | 1010.5 |
| 20260903184410 | 26 | 232 | 8.0 | 22.5 | 0.00 | 0.00 | 0.00 | 75 | 1010.5 |
| 20260903184259 | 27 | 252 | 8.0 | 22.5 | 0.00 | 0.00 | 0.00 | 75 | 1010.6 |
| 20260903184223 | 27 | 232 | 9.7 | 22.5 | 0.00 | 0.00 | 0.00 | 74 | 1010.6 |
| 20260903184127 | 27 | 252 | 9.7 | 22.5 | 0.00 | 0.00 | 0.00 | 74 | 1010.6 |
| 20260903184030 | 27 | 254 | 8.0 | 22.5 | 0.00 | 0.00 | 0.00 | 74 | 1010.6 |
| 20260903183915 | 27 | 229 | 8.0 | 24.1 | 0.00 | 0.00 | 0.00 | 73 | 1010.5 |
| 20260903183759 | 27 | 236 | 12.9 | 25.7 | 0.00 | 0.00 | 0.00 | 72 | 1010.6 |
| 20260903183705 | 27 | 253 | 14.5 | 25.7 | 0.00 | 0.00 | 0.00 | 70 | 1010.6 |
| 20260903183608 | 27 | 225 | 12.9 | 25.7 | 0.00 | 0.00 | 0.00 | 70 | 1010.5 |
| 20260903183535 | 28 | 256 | 11.3 | 25.7 | 0.00 | 0.00 | 0.00 | 71 | 1010.5 |
| 20260903183359 | 28 | 229 | 11.3 | 25.7 | 0.00 | 0.00 | 0.00 | 69 | 1010.7 |
| 20260903183323 | 28 | 227 | 12.9 | 25.7 | 0.00 | 0.00 | 0.00 | 68 | 1010.6 |
| 20260903183227 | 28 | 250 | 14.5 | 25.7 | 0.00 | 0.00 | 0.00 | 67 | 1010.6 |
| 20260903183110 | 28 | 241 | 16.1 | 25.7 | 0.00 | 0.00 | 0.00 | 66 | 1010.6 |
| 20260903182956 | 29 | 238 | 14.5 | 25.7 | 0.00 | 0.00 | 0.00 | 65 | 1010.5 |
| 20260903182900 | 29 | 254 | 14.5 | 25.7 | 0.00 | 0.00 | 0.00 | 65 | 1010.4 |
| 20260903182808 | 29 | 220 | 14.5 | 22.5 | 0.00 | 0.00 | 0.00 | 64 | 1010.4 |
| 20260903182713 | 29 | 242 | 16.1 | 22.5 | 0.00 | 0.00 | 0.00 | 64 | 1010.5 |
| 20260903182558 | 29 | 265 | 16.1 | 22.5 | 0.00 | 0.00 | 0.00 | 63 | 1010.4 |
| 20260903182503 | 29 | 240 | 16.1 | 22.5 | 0.00 | 0.00 | 0.00 | 63 | 1010.5 |
| 20260903182427 | 29 | 266 | 14.5 | 22.5 | 0.00 | 0.00 | 0.00 | 63 | 1010.6 |
| 20260903182330 | 30 | 271 | 14.5 | 27.4 | 0.00 | 0.00 | 0.00 | 62 | 1010.6 |
| 20260903182159 | 30 | 260 | 11.3 | 27.4 | 0.00 | 0.00 | 0.00 | 63 | 1010.6 |
| 20260903182103 | 30 | 268 | 9.7 | 29.0 | 0.00 | 0.00 | 0.00 | 62 | 1010.7 |
| 20260903182008 | 30 | 248 | 12.9 | 29.0 | 0.00 | 0.00 | 0.00 | 62 | 1010.7 |
| 20260903181932 | 30 | 264 | 14.5 | 29.0 | 0.00 | 0.00 | 0.00 | 62 | 1010.8 |
| 20260903181756 | 30 | 245 | 12.9 | 29.0 | 0.00 | 0.00 | 0.00 | 62 | 1010.7 |
| 20260903181700 | 30 | 245 | 12.9 | 29.0 | 0.00 | 0.00 | 0.00 | 62 | 1010.8 |
| 20260903181605 | 30 | 275 | 17.7 | 29.0 | 0.00 | 0.00 | 0.00 | 61 | 1010.7 |
| 20260903181514 | 30 | 279 | 19.3 | 29.0 | 0.00 | 0.00 | 0.00 | 61 | 1010.7 |
| 20260903181359 | 30 | 232 | 20.9 | 29.0 | 0.00 | 0.00 | 0.00 | 60 | 1010.7 |
| 20260903181303 | 30 | 221 | 16.1 | 25.7 | 0.00 | 0.00 | 0.00 | 59 | 1010.7 |
| 20260903181207 | 31 | 229 | 12.9 | 25.7 | 0.00 | 0.00 | 0.00 | 60 | 1010.7 |
| 20260903181132 | 31 | 249 | 14.5 | 25.7 | 0.00 | 0.00 | 0.00 | 60 | 1010.7 |
| 20260903180955 | 31 | 242 | 17.7 | 25.7 | 0.00 | 0.00 | 0.00 | 60 | 1010.6 |
| 20260903180904 | 31 | 242 | 19.3 | 25.7 | 0.00 | 0.00 | 0.00 | 60 | 1010.7 |
| 20260903180809 | 31 | 250 | 16.1 | 25.7 | 0.00 | 0.00 | 0.00 | 60 | 1010.7 |
| 20260903180734 | 31 | 234 | 12.9 | 25.7 | 0.00 | 0.00 | 0.00 | 62 | 1010.6 |
| 20260903180557 | 31 | 227 | 14.5 | 25.7 | 0.00 | 0.00 | 0.00 | 61 | 1010.6 |
| 20260903180502 | 30 | 227 | 14.5 | 25.7 | 0.00 | 0.00 | 0.00 | 60 | 1010.6 |
| 20260903180405 | 30 | 229 | 12.9 | 25.7 | 0.00 | 0.00 | 0.00 | 61 | 1010.6 |
| 20260903180310 | 30 | 244 | 16.1 | 25.7 | 0.00 | 0.00 | 0.00 | 60 | 1010.6 |
| 20260903180159 | 30 | 234 | 17.7 | 25.7 | 0.00 | 0.00 | 0.00 | 60 | 1010.7 |
| 20260903180105 | 30 | 220 | 17.7 | 24.1 | 0.00 | 0.00 | 0.00 | 60 | 1010.7 |
| 20260903180029 | 30 | 231 | 16.1 | 24.1 | 0.00 | 0.00 | 0.00 | 60 | 1010.7 |
| 20260903175912 | 30 | 223 | 16.1 | 24.1 | 0.00 | 0.00 | 0.00 | 62 | 1010.7 |
| 20260903175757 | 30 | 235 | 14.5 | 24.1 | 0.00 | 0.00 | 0.00 | 61 | 1010.8 |
| 20260903175702 | 30 | 237 | 11.3 | 22.5 | 0.00 | 0.00 | 0.00 | 61 | 1010.8 |
| 20260903175611 | 30 | 229 | 14.5 | 22.5 | 0.00 | 0.00 | 0.00 | 60 | 1010.8 |
| 20260903175456 | 30 | 244 | 16.1 | 22.5 | 0.00 | 0.00 | 0.00 | 61 | 1010.8 |
| 20260903175401 | 30 | 238 | 14.5 | 19.3 | 0.00 | 0.00 | 0.00 | 61 | 1010.7 |
| 20260903175306 | 30 | 260 | 14.5 | 19.3 | 0.00 | 0.00 | 0.00 | 60 | 1010.8 |
| 20260903175211 | 30 | 214 | 12.9 | 19.3 | 0.00 | 0.00 | 0.00 | 61 | 1010.8 |
| 20260903175100 | 30 | 243 | 11.3 | 17.7 | 0.00 | 0.00 | 0.00 | 61 | 1010.7 |
| 20260903175005 | 30 | 223 | 9.7 | 17.7 | 0.00 | 0.00 | 0.00 | 62 | 1010.8 |
| 20260903174910 | 30 | 219 | 9.7 | 19.3 | 0.00 | 0.00 | 0.00 | 61 | 1010.8 |
| 20260903174815 | 30 | 239 | 9.7 | 19.3 | 0.00 | 0.00 | 0.00 | 61 | 1010.7 |
| 20260903174740 | 30 | 258 | 9.7 | 19.3 | 0.00 | 0.00 | 0.00 | 61 | 1010.7 |
| 20260903174557 | 30 | 225 | 14.5 | 19.3 | 0.00 | 0.00 | 0.00 | 62 | 1010.7 |
| 20260903174502 | 30 | 237 | 12.9 | 19.3 | 0.00 | 0.00 | 0.00 | 62 | 1010.7 |
| 20260903174411 | 30 | 242 | 12.9 | 19.3 | 0.00 | 0.00 | 0.00 | 62 | 1010.7 |
| 20260903174256 | 30 | 225 | 14.5 | 19.3 | 0.00 | 0.00 | 0.00 | 62 | 1010.7 |
| 20260903174222 | 30 | 238 | 12.9 | 19.3 | 0.00 | 0.00 | 0.00 | 62 | 1010.7 |
| 20260903174059 | 29 | 229 | 12.9 | 19.3 | 0.00 | 0.00 | 0.00 | 62 | 1010.8 |
| 20260903174004 | 29 | 247 | 12.9 | 22.5 | 0.00 | 0.00 | 0.00 | 61 | 1010.8 |
| 20260903173909 | 29 | 261 | 14.5 | 22.5 | 0.00 | 0.00 | 0.00 | 62 | 1010.8 |
| 20260903173839 | 29 | 261 | 11.3 | 22.5 | 0.00 | 0.00 | 0.00 | 63 | 1010.8 |
| 20260903173655 | 29 | 252 | 11.3 | 22.5 | 0.00 | 0.00 | 0.00 | 62 | 1010.8 |
| 20260903173600 | 29 | 257 | 12.9 | 22.5 | 0.00 | 0.00 | 0.00 | 62 | 1011.0 |
| 20260903173525 | 29 | 244 | 9.7 | 22.5 | 0.00 | 0.00 | 0.00 | 63 | 1010.9 |
| 20260903173410 | 29 | 257 | 12.9 | 22.5 | 0.00 | 0.00 | 0.00 | 63 | 1010.9 |
| 20260903173314 | 29 | 247 | 12.9 | 22.5 | 0.00 | 0.00 | 0.00 | 63 | 1010.9 |
| 20260903173203 | 29 | 254 | 12.9 | 19.3 | 0.00 | 0.00 | 0.00 | 64 | 1011.0 |
| 20260903173128 | 29 | 248 | 11.3 | 19.3 | 0.00 | 0.00 | 0.00 | 63 | 1011.1 |
| 20260903173011 | 29 | 259 | 11.3 | 19.3 | 0.00 | 0.00 | 0.00 | 62 | 1011.1 |
| 20260903172856 | 29 | 252 | 9.7 | 19.3 | 0.00 | 0.00 | 0.00 | 63 | 1011.1 |
| 20260903172801 | 29 | 272 | 9.7 | 19.3 | 0.00 | 0.00 | 0.00 | 65 | 1011.1 |
| 20260903172726 | 29 | 257 | 11.3 | 19.3 | 0.00 | 0.00 | 0.00 | 65 | 1011.1 |
| 20260903172610 | 29 | 212 | 9.7 | 19.3 | 0.00 | 0.00 | 0.00 | 65 | 1011.1 |
| 20260903172459 | 29 | 258 | 9.7 | 19.3 | 0.00 | 0.00 | 0.00 | 64 | 1011.1 |
| 20260903172404 | 29 | 234 | 11.3 | 19.3 | 0.00 | 0.00 | 0.00 | 65 | 1011.1 |
| 20260903172309 | 28 | 219 | 12.9 | 19.3 | 0.00 | 0.00 | 0.00 | 65 | 1011.1 |
| 20260903172214 | 28 | 227 | 12.9 | 19.3 | 0.00 | 0.00 | 0.00 | 64 | 1011.1 |
| 20260903172120 | 28 | 257 | 11.3 | 16.1 | 0.00 | 0.00 | 0.00 | 65 | 1011.1 |
| 20260903172024 | 28 | 213 | 11.3 | 16.1 | 0.00 | 0.00 | 0.00 | 64 | 1011.0 |
| 20260903171907 | 28 | 215 | 9.7 | 17.7 | 0.00 | 0.00 | 0.00 | 66 | 1011.0 |
| 20260903171835 | 28 | 259 | 9.7 | 16.1 | 0.00 | 0.00 | 0.00 | 66 | 1011.1 |
| 20260903171739 | 28 | 222 | 9.7 | 16.1 | 0.00 | 0.00 | 0.00 | 66 | 1011.2 |
| 20260903171556 | 28 | 223 | 9.7 | 16.1 | 0.00 | 0.00 | 0.00 | 65 | 1011.1 |
| 20260903171500 | 28 | 224 | 11.3 | 16.1 | 0.00 | 0.00 | 0.00 | 66 | 1011.2 |
| 20260903171406 | 28 | 286 | 11.3 | 17.7 | 0.00 | 0.00 | 0.00 | 66 | 1011.2 |
| 20260903171310 | 28 | 227 | 12.9 | 17.7 | 0.00 | 0.00 | 0.00 | 65 | 1011.2 |
| 20260903171159 | 28 | 223 | 12.9 | 17.7 | 0.00 | 0.00 | 0.00 | 65 | 1011.2 |
| 20260903171123 | 28 | 279 | 12.9 | 17.7 | 0.00 | 0.00 | 0.00 | 65 | 1011.2 |
| 20260903171027 | 28 | 245 | 11.3 | 16.1 | 0.00 | 0.00 | 0.00 | 65 | 1011.2 |
| 20260903170911 | 28 | 236 | 11.3 | 17.7 | 0.00 | 0.00 | 0.00 | 66 | 1011.2 |
| 20260903170816 | 28 | 229 | 12.9 | 17.7 | 0.00 | 0.00 | 0.00 | 65 | 1011.2 |
| 20260903170720 | 28 | 245 | 12.9 | 17.7 | 0.00 | 0.00 | 0.00 | 65 | 1011.3 |
| 20260903170604 | 28 | 247 | 12.9 | 17.7 | 0.00 | 0.00 | 0.00 | 64 | 1011.2 |
| 20260903170508 | 28 | 229 | 12.9 | 17.7 | 0.00 | 0.00 | 0.00 | 63 | 1011.2 |
| 20260903170418 | 28 | 211 | 12.9 | 16.1 | 0.00 | 0.00 | 0.00 | 64 | 1011.2 |
| 20260903170255 | 29 | 200 | 11.3 | 17.7 | 0.00 | 0.00 | 0.00 | 64 | 1011.2 |
| 20260903170221 | 29 | 229 | 12.9 | 17.7 | 0.00 | 0.00 | 0.00 | 64 | 1011.3 |
| 20260903170104 | 29 | 236 | 12.9 | 17.7 | 0.00 | 0.00 | 0.00 | 63 | 1011.3 |
| 20260903170010 | 29 | 243 | 12.9 | 17.7 | 0.00 | 0.00 | 0.00 | 63 | 1011.3 |
| 20260903165914 | 29 | 227 | 11.3 | 17.7 | 0.00 | 0.00 | 0.00 | 63 | 1011.3 |
| 20260903165802 | 29 | 259 | 11.3 | 17.7 | 0.00 | 0.00 | 0.00 | 64 | 1011.3 |
| 20260903165728 | 29 | 232 | 9.7 | 17.7 | 0.00 | 0.00 | 0.00 | 64 | 1011.3 |
| 20260903165631 | 29 | 216 | 8.0 | 17.7 | 0.00 | 0.00 | 0.00 | 65 | 1011.4 |
| 20260903165514 | 29 | 269 | 9.7 | 22.5 | 0.00 | 0.00 | 0.00 | 65 | 1011.4 |
| 20260903165358 | 29 | 239 | 11.3 | 22.5 | 0.00 | 0.00 | 0.00 | 64 | 1011.4 |
| 20260903165323 | 29 | 266 | 12.9 | 22.5 | 0.00 | 0.00 | 0.00 | 64 | 1011.4 |
| 20260903165228 | 29 | 254 | 11.3 | 22.5 | 0.00 | 0.00 | 0.00 | 65 | 1011.4 |
| 20260903165133 | 29 | 234 | 8.0 | 22.5 | 0.00 | 0.00 | 0.00 | 64 | 1011.4 |
| 20260903165000 | 28 | 238 | 8.0 | 22.5 | 0.00 | 0.00 | 0.00 | 65 | 1011.4 |
| 20260903164905 | 28 | 245 | 12.9 | 22.5 | 0.00 | 0.00 | 0.00 | 64 | 1011.4 |
| 20260903164830 | 28 | 215 | 12.9 | 22.5 | 0.00 | 0.00 | 0.00 | 63 | 1011.4 |
| 20260903164714 | 29 | 259 | 12.9 | 22.5 | 0.00 | 0.00 | 0.00 | 64 | 1011.5 |
| 20260903164559 | 29 | 235 | 14.5 | 22.5 | 0.00 | 0.00 | 0.00 | 64 | 1011.5 |
| 20260903164503 | 29 | 253 | 11.3 | 19.3 | 0.00 | 0.00 | 0.00 | 64 | 1011.4 |
| 20260903164406 | 29 | 281 | 11.3 | 16.1 | 0.00 | 0.00 | 0.00 | 64 | 1011.4 |
| 20260903164255 | 28 | 221 | 9.7 | 16.1 | 0.00 | 0.00 | 0.00 | 64 | 1011.4 |
| 20260903164200 | 28 | 218 | 9.7 | 16.1 | 0.00 | 0.00 | 0.00 | 65 | 1011.4 |
| 20260903164105 | 28 | 288 | 8.0 | 17.7 | 0.00 | 0.00 | 0.00 | 64 | 1011.4 |
| 20260903164010 | 28 | 274 | 6.4 | 17.7 | 0.00 | 0.00 | 0.00 | 64 | 1011.4 |
| 20260903163915 | 28 | 261 | 6.4 | 17.7 | 0.00 | 0.00 | 0.00 | 64 | 1011.4 |
| 20260903163803 | 28 | 277 | 9.7 | 17.7 | 0.00 | 0.00 | 0.00 | 65 | 1011.4 |
| 20260903163708 | 28 | 319 | 9.7 | 17.7 | 0.00 | 0.00 | 0.00 | 64 | 1011.4 |
| 20260903163613 | 28 | 252 | 11.3 | 17.7 | 0.00 | 0.00 | 0.00 | 64 | 1011.4 |
| 20260903163538 | 28 | 238 | 11.3 | 17.7 | 0.00 | 0.00 | 0.00 | 64 | 1011.4 |
| 20260903163355 | 28 | 254 | 12.9 | 22.5 | 0.00 | 0.00 | 0.00 | 64 | 1011.3 |
| 20260903163321 | 28 | 267 | 12.9 | 22.5 | 0.00 | 0.00 | 0.00 | 64 | 1011.3 |
| 20260903163159 | 28 | 250 | 12.9 | 22.5 | 0.00 | 0.00 | 0.00 | 63 | 1011.4 |
| 20260903163107 | 28 | 249 | 11.3 | 22.5 | 0.00 | 0.00 | 0.00 | 64 | 1011.4 |
| 20260903163011 | 28 | 252 | 11.3 | 22.5 | 0.00 | 0.00 | 0.00 | 64 | 1011.3 |
| 20260903162856 | 28 | 249 | 11.3 | 22.5 | 0.00 | 0.00 | 0.00 | 64 | 1011.4 |
| 20260903162801 | 28 | 236 | 12.9 | 22.5 | 0.00 | 0.00 | 0.00 | 64 | 1011.4 |
| 20260903162706 | 28 | 260 | 14.5 | 22.5 | 0.00 | 0.00 | 0.00 | 63 | 1011.4 |
| 20260903162631 | 28 | 225 | 14.5 | 22.5 | 0.00 | 0.00 | 0.00 | 63 | 1011.4 |
| 20260903162520 | 28 | 246 | 14.5 | 20.9 | 0.00 | 0.00 | 0.00 | 63 | 1011.4 |
| 20260903162357 | 28 | 222 | 12.9 | 20.9 | 0.00 | 0.00 | 0.00 | 64 | 1011.4 |
| 20260903162321 | 28 | 238 | 11.3 | 24.1 | 0.00 | 0.00 | 0.00 | 64 | 1011.4 |
| 20260903162204 | 28 | 227 | 9.7 | 24.1 | 0.00 | 0.00 | 0.00 | 64 | 1011.4 |
| 20260903162108 | 28 | 236 | 11.3 | 24.1 | 0.00 | 0.00 | 0.00 | 64 | 1011.4 |
| 20260903162033 | 28 | 222 | 14.5 | 24.1 | 0.00 | 0.00 | 0.00 | 64 | 1011.4 |
| 20260903161810 | 28 | 254 | 14.5 | 24.1 | 0.00 | 0.00 | 0.00 | 64 | 1011.4 |
| 20260903161720 | 28 | 252 | 14.5 | 24.1 | 0.00 | 0.00 | 0.00 | 64 | 1011.3 |
| 20260903161558 | 28 | 217 | 12.9 | 24.1 | 0.00 | 0.00 | 0.00 | 64 | 1011.3 |
| 20260903161502 | 28 | 234 | 14.5 | 24.1 | 0.00 | 0.00 | 0.00 | 64 | 1011.3 |
| 20260903161407 | 28 | 243 | 16.1 | 24.1 | 0.00 | 0.00 | 0.00 | 63 | 1011.3 |
| 20260903161312 | 28 | 244 | 14.5 | 24.1 | 0.00 | 0.00 | 0.00 | 64 | 1011.4 |
| 20260903161200 | 28 | 255 | 16.1 | 24.1 | 0.00 | 0.00 | 0.00 | 64 | 1011.4 |
| 20260903161105 | 28 | 254 | 16.1 | 22.5 | 0.00 | 0.00 | 0.00 | 65 | 1011.5 |
| 20260903161030 | 28 | 209 | 14.5 | 22.5 | 0.00 | 0.00 | 0.00 | 66 | 1011.5 |
| 20260903160934 | 28 | 259 | 16.1 | 22.5 | 0.00 | 0.00 | 0.00 | 65 | 1011.5 |
| 20260903160758 | 28 | 229 | 14.5 | 22.5 | 0.00 | 0.00 | 0.00 | 65 | 1011.4 |
| 20260903160703 | 28 | 232 | 14.5 | 22.5 | 0.00 | 0.00 | 0.00 | 67 | 1011.5 |
| 20260903160607 | 28 | 250 | 12.9 | 22.5 | 0.00 | 0.00 | 0.00 | 67 | 1011.5 |
| 20260903160531 | 28 | 238 | 11.3 | 22.5 | 0.00 | 0.00 | 0.00 | 68 | 1011.5 |
| 20260903160439 | 28 | 229 | 11.3 | 22.5 | 0.00 | 0.00 | 0.00 | 67 | 1011.6 |
| 20260903160255 | 28 | 262 | 12.9 | 22.5 | 0.00 | 0.00 | 0.00 | 67 | 1011.5 |
| 20260903160220 | 28 | 233 | 12.9 | 22.5 | 0.00 | 0.00 | 0.00 | 68 | 1011.5 |
| 20260903160058 | 28 | 222 | 14.5 | 22.5 | 0.00 | 0.00 | 0.00 | 68 | 1011.5 |
| 20260903160001 | 28 | 261 | 12.9 | 20.9 | 0.00 | 0.00 | 0.00 | 68 | 1011.6 |
| 20260903155906 | 28 | 261 | 11.3 | 20.9 | 0.00 | 0.00 | 0.00 | 68 | 1011.6 |
| 20260903155814 | 27 | 221 | 11.3 | 20.9 | 0.00 | 0.00 | 0.00 | 69 | 1011.6 |
| 20260903155719 | 27 | 265 | 12.9 | 20.9 | 0.00 | 0.00 | 0.00 | 69 | 1011.6 |
| 20260903155556 | 27 | 246 | 11.3 | 20.9 | 0.00 | 0.00 | 0.00 | 70 | 1011.5 |
| 20260903155520 | 27 | 285 | 8.0 | 14.5 | 0.00 | 0.00 | 0.00 | 71 | 1011.6 |
| 20260903155404 | 27 | 241 | 9.7 | 14.5 | 0.00 | 0.00 | 0.00 | 70 | 1011.5 |
| 20260903155329 | 27 | 246 | 11.3 | 14.5 | 0.00 | 0.00 | 0.00 | 69 | 1011.5 |
| 20260903155213 | 27 | 279 | 11.3 | 14.5 | 0.00 | 0.00 | 0.00 | 69 | 1011.4 |
| 20260903155103 | 27 | 263 | 9.7 | 14.5 | 0.00 | 0.00 | 0.00 | 70 | 1011.4 |
| 20260903155027 | 27 | 253 | 8.0 | 14.5 | 0.00 | 0.00 | 0.00 | 69 | 1011.5 |
| 20260903154910 | 27 | 250 | 6.4 | 16.1 | 0.00 | 0.00 | 0.00 | 70 | 1011.5 |
| 20260903154814 | 27 | 264 | 6.4 | 16.1 | 0.00 | 0.00 | 0.00 | 70 | 1011.4 |
| 20260903154740 | 27 | 262 | 8.0 | 16.1 | 0.00 | 0.00 | 0.00 | 70 | 1011.4 |
| 20260903154558 | 27 | 221 | 8.0 | 17.7 | 0.00 | 0.00 | 0.00 | 69 | 1011.4 |
| 20260903154502 | 27 | 250 | 9.7 | 17.7 | 0.00 | 0.00 | 0.00 | 69 | 1011.4 |
| 20260903154411 | 27 | 261 | 11.3 | 17.7 | 0.00 | 0.00 | 0.00 | 69 | 1011.4 |
| 20260903154336 | 27 | 275 | 11.3 | 17.7 | 0.00 | 0.00 | 0.00 | 69 | 1011.4 |
| 20260903154241 | 27 | 274 | 12.9 | 17.7 | 0.00 | 0.00 | 0.00 | 69 | 1011.4 |
| 20260903154057 | 27 | 242 | 12.9 | 17.7 | 0.00 | 0.00 | 0.00 | 68 | 1011.3 |
| 20260903154002 | 27 | 225 | 11.3 | 17.7 | 0.00 | 0.00 | 0.00 | 69 | 1011.2 |
| 20260903153907 | 27 | 205 | 12.9 | 17.7 | 0.00 | 0.00 | 0.00 | 67 | 1011.2 |
| 20260903153755 | 27 | 207 | 14.5 | 17.7 | 0.00 | 0.00 | 0.00 | 67 | 1011.4 |
| 20260903153700 | 28 | 234 | 14.5 | 19.3 | 0.00 | 0.00 | 0.00 | 68 | 1011.3 |
| 20260903153604 | 28 | 235 | 12.9 | 19.3 | 0.00 | 0.00 | 0.00 | 68 | 1011.3 |
| 20260903153509 | 28 | 254 | 11.3 | 19.3 | 0.00 | 0.00 | 0.00 | 69 | 1011.3 |
| 20260903153414 | 28 | 223 | 8.0 | 19.3 | 0.00 | 0.00 | 0.00 | 70 | 1011.4 |
| 20260903153258 | 27 | 209 | 8.0 | 19.3 | 0.00 | 0.00 | 0.00 | 69 | 1011.4 |
| 20260903153207 | 27 | 230 | 9.7 | 19.3 | 0.00 | 0.00 | 0.00 | 69 | 1011.4 |
| 20260903153111 | 27 | 245 | 9.7 | 19.3 | 0.00 | 0.00 | 0.00 | 70 | 1011.4 |
| 20260903152956 | 27 | 248 | 12.9 | 19.3 | 0.00 | 0.00 | 0.00 | 70 | 1011.3 |
| 20260903152901 | 27 | 231 | 11.3 | 19.3 | 0.00 | 0.00 | 0.00 | 69 | 1011.4 |
| 20260903152804 | 27 | 292 | 11.3 | 19.3 | 0.00 | 0.00 | 0.00 | 70 | 1011.4 |
| 20260903152709 | 27 | 306 | 9.7 | 19.3 | 0.00 | 0.00 | 0.00 | 71 | 1011.4 |
| 20260903152557 | 27 | 230 | 12.9 | 19.3 | 0.00 | 0.00 | 0.00 | 70 | 1011.4 |
| 20260903152522 | 27 | 236 | 12.9 | 19.3 | 0.00 | 0.00 | 0.00 | 70 | 1011.4 |
| 20260903152359 | 27 | 232 | 9.7 | 17.7 | 0.00 | 0.00 | 0.00 | 71 | 1011.5 |
| 20260903152306 | 27 | 231 | 8.0 | 16.1 | 0.00 | 0.00 | 0.00 | 72 | 1011.4 |
| 20260903152207 | 27 | 265 | 9.7 | 16.1 | 0.00 | 0.00 | 0.00 | 71 | 1011.4 |
| 20260903152112 | 27 | 224 | 11.3 | 16.1 | 0.00 | 0.00 | 0.00 | 71 | 1011.3 |
| 20260903152001 | 27 | 259 | 11.3 | 16.1 | 0.00 | 0.00 | 0.00 | 71 | 1011.3 |
| 20260903151906 | 27 | 236 | 11.3 | 16.1 | 0.00 | 0.00 | 0.00 | 71 | 1011.3 |
| 20260903151811 | 27 | 236 | 11.3 | 16.1 | 0.00 | 0.00 | 0.00 | 70 | 1011.4 |
| 20260903151656 | 27 | 218 | 9.7 | 16.1 | 0.00 | 0.00 | 0.00 | 71 | 1011.3 |
| 20260903151601 | 27 | 242 | 9.7 | 16.1 | 0.00 | 0.00 | 0.00 | 71 | 1011.3 |
| 20260903151505 | 27 | 284 | 11.3 | 16.1 | 0.00 | 0.00 | 0.00 | 72 | 1011.3 |
| 20260903151413 | 27 | 298 | 11.3 | 16.1 | 0.00 | 0.00 | 0.00 | 72 | 1011.3 |
| 20260903151318 | 27 | 274 | 11.3 | 16.1 | 0.00 | 0.00 | 0.00 | 72 | 1011.3 |
| 20260903151155 | 27 | 221 | 11.3 | 17.7 | 0.00 | 0.00 | 0.00 | 72 | 1011.3 |
| 20260903151059 | 27 | 221 | 11.3 | 17.7 | 0.00 | 0.00 | 0.00 | 73 | 1011.3 |
| 20260903151004 | 27 | 208 | 11.3 | 17.7 | 0.00 | 0.00 | 0.00 | 73 | 1011.3 |
| 20260903150908 | 26 | 235 | 12.9 | 17.7 | 0.00 | 0.00 | 0.00 | 72 | 1011.3 |
| 20260903150756 | 26 | 244 | 12.9 | 17.7 | 0.00 | 0.00 | 0.00 | 72 | 1011.3 |
| 20260903150701 | 26 | 230 | 9.7 | 17.7 | 0.00 | 0.00 | 0.00 | 73 | 1011.3 |
| 20260903150606 | 26 | 237 | 9.7 | 14.5 | 0.00 | 0.00 | 0.00 | 73 | 1011.3 |
| 20260903150512 | 26 | 246 | 9.7 | 14.5 | 0.00 | 0.00 | 0.00 | 73 | 1011.3 |
| 20260903150356 | 26 | 256 | 11.3 | 14.5 | 0.00 | 0.00 | 0.00 | 73 | 1011.3 |
| 20260903150321 | 26 | 234 | 9.7 | 14.5 | 0.00 | 0.00 | 0.00 | 75 | 1011.3 |
| 20260903150228 | 26 | 260 | 6.4 | 17.7 | 0.00 | 0.00 | 0.00 | 74 | 1011.2 |
| 20260903150111 | 26 | 255 | 6.4 | 17.7 | 0.00 | 0.00 | 0.00 | 75 | 1011.2 |
| 20260903150016 | 26 | 245 | 8.0 | 17.7 | 0.00 | 0.00 | 0.00 | 75 | 1011.3 |
| 20260903145921 | 26 | 240 | 9.7 | 17.7 | 0.00 | 0.00 | 0.00 | 75 | 1011.4 |
| 20260903145804 | 26 | 246 | 8.0 | 17.7 | 0.00 | 0.00 | 0.00 | 75 | 1011.4 |
| 20260903145709 | 26 | 232 | 8.0 | 17.7 | 0.00 | 0.00 | 0.00 | 75 | 1011.4 |
| 20260903145614 | 26 | 217 | 11.3 | 17.7 | 0.00 | 0.00 | 0.00 | 75 | 1011.4 |
| 20260903145523 | 26 | 217 | 12.9 | 17.7 | 0.00 | 0.00 | 0.00 | 75 | 1011.3 |
| 20260903145407 | 26 | 246 | 9.7 | 17.7 | 0.00 | 0.00 | 0.00 | 75 | 1011.3 |
| 20260903145312 | 26 | 242 | 6.4 | 16.1 | 0.00 | 0.00 | 0.00 | 76 | 1011.3 |
| 20260903145156 | 26 | 207 | 8.0 | 16.1 | 0.00 | 0.00 | 0.00 | 75 | 1011.3 |
| 20260903145101 | 26 | 242 | 9.7 | 16.1 | 0.00 | 0.00 | 0.00 | 75 | 1011.4 |
| 20260903145006 | 26 | 232 | 12.9 | 16.1 | 0.00 | 0.00 | 0.00 | 75 | 1011.4 |
| 20260903144855 | 26 | 246 | 12.9 | 16.1 | 0.00 | 0.00 | 0.00 | 75 | 1011.3 |
| 20260903144800 | 26 | 224 | 12.9 | 16.1 | 0.00 | 0.00 | 0.00 | 75 | 1011.3 |
| 20260903144705 | 26 | 219 | 9.7 | 16.1 | 0.00 | 0.00 | 0.00 | 75 | 1011.3 |
| 20260903144609 | 26 | 239 | 8.0 | 16.1 | 0.00 | 0.00 | 0.00 | 76 | 1011.3 |
| 20260903144513 | 26 | 239 | 8.0 | 16.1 | 0.00 | 0.00 | 0.00 | 76 | 1011.4 |
| 20260903144359 | 26 | 242 | 11.3 | 16.1 | 0.00 | 0.00 | 0.00 | 76 | 1011.4 |
| 20260903144307 | 26 | 249 | 11.3 | 16.1 | 0.00 | 0.00 | 0.00 | 76 | 1011.4 |
| 20260903144210 | 26 | 244 | 9.7 | 16.1 | 0.00 | 0.00 | 0.00 | 76 | 1011.3 |
| 20260903144115 | 26 | 225 | 9.7 | 16.1 | 0.00 | 0.00 | 0.00 | 77 | 1011.3 |
| 20260903144041 | 26 | 232 | 9.7 | 16.1 | 0.00 | 0.00 | 0.00 | 78 | 1011.4 |
| 20260903143857 | 25 | 205 | 8.0 | 16.1 | 0.00 | 0.00 | 0.00 | 78 | 1011.4 |
| 20260903143802 | 25 | 182 | 8.0 | 16.1 | 0.00 | 0.00 | 0.00 | 78 | 1011.4 |
| 20260903143707 | 25 | 217 | 9.7 | 16.1 | 0.00 | 0.00 | 0.00 | 78 | 1011.4 |
| 20260903143556 | 25 | 223 | 8.0 | 16.1 | 0.00 | 0.00 | 0.00 | 79 | 1011.4 |
| 20260903143520 | 25 | 227 | 6.4 | 16.1 | 0.00 | 0.00 | 0.00 | 80 | 1011.4 |
| 20260903143357 | 25 | 229 | 6.4 | 16.1 | 0.00 | 0.00 | 0.00 | 80 | 1011.4 |
| 20260903143302 | 25 | 259 | 8.0 | 16.1 | 0.00 | 0.00 | 0.00 | 81 | 1011.5 |
| 20260903143208 | 25 | 233 | 6.4 | 11.3 | 0.00 | 0.00 | 0.00 | 81 | 1011.5 |
| 20260903143056 | 25 | 246 | 6.4 | 11.3 | 0.00 | 0.00 | 0.00 | 82 | 1011.5 |
| 20260903143020 | 25 | 244 | 6.4 | 11.3 | 0.00 | 0.00 | 0.00 | 82 | 1011.5 |
| 20260903142857 | 25 | 230 | 9.7 | 11.3 | 0.00 | 0.00 | 0.00 | 82 | 1011.4 |
| 20260903142803 | 25 | 261 | 8.0 | 12.9 | 0.00 | 0.00 | 0.00 | 82 | 1011.5 |
| 20260903142707 | 25 | 236 | 6.4 | 12.9 | 0.00 | 0.00 | 0.00 | 83 | 1011.5 |
| 20260903142632 | 25 | 225 | 6.4 | 11.3 | 0.00 | 0.00 | 0.00 | 83 | 1011.4 |
| 20260903142456 | 25 | 224 | 6.4 | 11.3 | 0.00 | 0.00 | 0.00 | 83 | 1011.5 |
| 20260903142406 | 25 | 217 | 6.4 | 11.3 | 0.00 | 0.00 | 0.00 | 83 | 1011.6 |
| 20260903142330 | 25 | 217 | 8.0 | 11.3 | 0.00 | 0.00 | 0.00 | 83 | 1011.6 |
| 20260903142214 | 25 | 225 | 6.4 | 14.5 | 0.00 | 0.00 | 0.00 | 83 | 1011.5 |
| 20260903142141 | 25 | 232 | 4.8 | 14.5 | 0.00 | 0.00 | 0.00 | 84 | 1011.6 |
| 20260903141957 | 25 | 244 | 4.8 | 14.5 | 0.00 | 0.00 | 0.00 | 83 | 1011.6 |
| 20260903141922 | 25 | 244 | 6.4 | 14.5 | 0.00 | 0.00 | 0.00 | 84 | 1011.6 |
| 20260903141759 | 25 | 222 | 6.4 | 14.5 | 0.00 | 0.00 | 0.00 | 83 | 1011.5 |
| 20260903141708 | 25 | 211 | 6.4 | 14.5 | 0.00 | 0.00 | 0.00 | 83 | 1011.5 |
| 20260903141613 | 25 | 231 | 6.4 | 14.5 | 0.00 | 0.00 | 0.00 | 83 | 1011.6 |
| 20260903141518 | 25 | 232 | 8.0 | 14.5 | 0.00 | 0.00 | 0.00 | 83 | 1011.5 |
| 20260903141402 | 25 | 246 | 8.0 | 12.9 | 0.00 | 0.00 | 0.00 | 83 | 1011.5 |
| 20260903141327 | 25 | 219 | 8.0 | 12.9 | 0.00 | 0.00 | 0.00 | 83 | 1011.4 |
| 20260903141210 | 25 | 237 | 9.7 | 12.9 | 0.00 | 0.00 | 0.00 | 83 | 1011.4 |
| 20260903141134 | 25 | 209 | 9.7 | 12.9 | 0.00 | 0.00 | 0.00 | 83 | 1011.4 |
| 20260903141002 | 25 | 204 | 9.7 | 12.9 | 0.00 | 0.00 | 0.00 | 84 | 1011.5 |
| 20260903140927 | 25 | 221 | 9.7 | 12.9 | 0.00 | 0.00 | 0.00 | 84 | 1011.5 |
| 20260903140811 | 24 | 214 | 8.0 | 12.9 | 0.00 | 0.00 | 0.00 | 84 | 1011.5 |
| 20260903140716 | 24 | 215 | 8.0 | 12.9 | 0.00 | 0.00 | 0.00 | 85 | 1011.4 |
| 20260903140620 | 24 | 211 | 8.0 | 12.9 | 0.00 | 0.00 | 0.00 | 85 | 1011.4 |
| 20260903140456 | 24 | 215 | 6.4 | 11.3 | 0.00 | 0.00 | 0.00 | 85 | 1011.4 |
| 20260903140421 | 24 | 198 | 6.4 | 11.3 | 0.00 | 0.00 | 0.00 | 86 | 1011.4 |
| 20260903140324 | 24 | 192 | 8.0 | 11.3 | 0.00 | 0.00 | 0.00 | 85 | 1011.5 |
| 20260903140212 | 24 | 200 | 8.0 | 11.3 | 0.00 | 0.00 | 0.00 | 86 | 1011.5 |
| 20260903140138 | 24 | 194 | 8.0 | 11.3 | 0.00 | 0.00 | 0.00 | 86 | 1011.5 |
| 20260903135955 | 24 | 215 | 8.0 | 11.3 | 0.00 | 0.00 | 0.00 | 86 | 1011.5 |
| 20260903135920 | 23 | 210 | 8.0 | 11.3 | 0.00 | 0.00 | 0.00 | 86 | 1011.5 |
| 20260903135757 | 23 | 207 | 8.0 | 11.3 | 0.00 | 0.00 | 0.00 | 86 | 1011.6 |
| 20260903135702 | 23 | 194 | 8.0 | 11.3 | 0.00 | 0.00 | 0.00 | 86 | 1011.7 |
| 20260903135611 | 23 | 214 | 6.4 | 11.3 | 0.00 | 0.00 | 0.00 | 86 | 1011.7 |
| 20260903135536 | 23 | 229 | 8.0 | 11.3 | 0.00 | 0.00 | 0.00 | 87 | 1011.6 |
| 20260903135440 | 23 | 234 | 8.0 | 11.3 | 0.00 | 0.00 | 0.00 | 87 | 1011.7 |
| 20260903135257 | 23 | 205 | 8.0 | 11.3 | 0.00 | 0.00 | 0.00 | 87 | 1011.7 |
| 20260903135201 | 23 | 197 | 6.4 | 9.7 | 0.00 | 0.00 | 0.00 | 87 | 1011.6 |
| 20260903135106 | 23 | 184 | 8.0 | 11.3 | 0.00 | 0.00 | 0.00 | 88 | 1011.6 |
| 20260903135011 | 23 | 184 | 8.0 | 11.3 | 0.00 | 0.00 | 0.00 | 87 | 1011.7 |
| 20260903134920 | 23 | 176 | 8.0 | 11.3 | 0.00 | 0.00 | 0.00 | 88 | 1011.7 |
| 20260903134803 | 23 | 184 | 6.4 | 11.3 | 0.00 | 0.00 | 0.00 | 88 | 1011.7 |
| 20260903134709 | 23 | 213 | 6.4 | 11.3 | 0.00 | 0.00 | 0.00 | 88 | 1011.7 |
| 20260903134613 | 23 | 188 | 6.4 | 11.3 | 0.00 | 0.00 | 0.00 | 89 | 1011.8 |
| 20260903134518 | 23 | 190 | 8.0 | 11.3 | 0.00 | 0.00 | 0.00 | 89 | 1011.7 |
| 20260903134421 | 23 | 184 | 8.0 | 11.3 | 0.00 | 0.00 | 0.00 | 89 | 1011.7 |
| 20260903134259 | 23 | 190 | 6.4 | 12.9 | 0.00 | 0.00 | 0.00 | 89 | 1011.7 |
| 20260903134209 | 23 | 188 | 6.4 | 12.9 | 0.00 | 0.00 | 0.00 | 89 | 1011.7 |
| 20260903134113 | 23 | 178 | 6.4 | 12.9 | 0.00 | 0.00 | 0.00 | 89 | 1011.7 |
| 20260903133958 | 22 | 194 | 6.4 | 12.9 | 0.00 | 0.00 | 0.00 | 90 | 1011.7 |
| 20260903133923 | 22 | 198 | 6.4 | 12.9 | 0.00 | 0.00 | 0.00 | 90 | 1011.6 |
| 20260903133826 | 22 | 197 | 6.4 | 12.9 | 0.00 | 0.00 | 0.00 | 90 | 1011.7 |
| 20260903133710 | 22 | 197 | 8.0 | 12.9 | 0.00 | 0.00 | 0.00 | 90 | 1011.7 |
| 20260903133559 | 22 | 213 | 8.0 | 12.9 | 0.00 | 0.00 | 0.00 | 90 | 1011.6 |
| 20260903133505 | 22 | 175 | 6.4 | 12.9 | 0.00 | 0.00 | 0.00 | 91 | 1011.7 |
| 20260903133409 | 22 | 201 | 4.8 | 12.9 | 0.00 | 0.00 | 0.00 | 90 | 1011.7 |
| 20260903133312 | 22 | 201 | 6.4 | 12.9 | 0.00 | 0.00 | 0.00 | 90 | 1011.7 |
| 20260903133217 | 22 | 196 | 8.0 | 12.9 | 0.00 | 0.00 | 0.00 | 90 | 1011.7 |
| 20260903133121 | 22 | 199 | 8.0 | 12.9 | 0.00 | 0.00 | 0.00 | 90 | 1011.7 |
| 20260903133004 | 22 | 192 | 8.0 | 12.9 | 0.00 | 0.00 | 0.00 | 90 | 1011.7 |
| 20260903132908 | 22 | 192 | 8.0 | 12.9 | 0.00 | 0.00 | 0.00 | 90 | 1011.7 |
| 20260903132817 | 22 | 186 | 8.0 | 11.3 | 0.00 | 0.00 | 0.00 | 90 | 1011.7 |
| 20260903132655 | 22 | 184 | 8.0 | 11.3 | 0.00 | 0.00 | 0.00 | 90 | 1011.8 |
| 20260903132600 | 22 | 190 | 8.0 | 11.3 | 0.00 | 0.00 | 0.00 | 90 | 1011.8 |
| 20260903132505 | 22 | 183 | 8.0 | 9.7 | 0.00 | 0.00 | 0.00 | 90 | 1011.8 |
| 20260903132410 | 22 | 173 | 4.8 | 8.0 | 0.00 | 0.00 | 0.00 | 90 | 1011.8 |
| 20260903132335 | 22 | 172 | 3.2 | 9.7 | 0.00 | 0.00 | 0.00 | 90 | 1011.9 |
| 20260903132204 | 22 | 172 | 3.2 | 9.7 | 0.00 | 0.00 | 0.00 | 90 | 1011.9 |
| 20260903132108 | 22 | 172 | 4.8 | 9.7 | 0.00 | 0.00 | 0.00 | 90 | 1011.9 |
| 20260903132013 | 22 | 172 | 3.2 | 9.7 | 0.00 | 0.00 | 0.00 | 90 | 1011.9 |
| 20260903131918 | 22 | 165 | 6.4 | 9.7 | 0.00 | 0.00 | 0.00 | 90 | 1011.9 |
| 20260903131802 | 22 | 165 | 6.4 | 9.7 | 0.00 | 0.00 | 0.00 | 90 | 1011.9 |
| 20260903131726 | 22 | 161 | 4.8 | 9.7 | 0.00 | 0.00 | 0.00 | 90 | 1011.9 |
| 20260903131610 | 22 | 161 | 4.8 | 9.7 | 0.00 | 0.00 | 0.00 | 90 | 1011.9 |
| 20260903131517 | 22 | 162 | 4.8 | 9.7 | 0.00 | 0.00 | 0.00 | 90 | 1011.9 |
| 20260903131420 | 22 | 162 | 6.4 | 9.7 | 0.00 | 0.00 | 0.00 | 90 | 1011.9 |
| 20260903131257 | 22 | 160 | 6.4 | 9.7 | 0.00 | 0.00 | 0.00 | 90 | 1011.8 |
| 20260903131202 | 22 | 178 | 4.8 | 8.0 | 0.00 | 0.00 | 0.00 | 90 | 1011.8 |
| 20260903131107 | 22 | 182 | 4.8 | 8.0 | 0.00 | 0.00 | 0.00 | 90 | 1011.8 |
| 20260903131012 | 22 | 181 | 4.8 | 8.0 | 0.00 | 0.00 | 0.00 | 90 | 1011.9 |
| 20260903130902 | 22 | 181 | 4.8 | 8.0 | 0.00 | 0.00 | 0.00 | 90 | 1011.8 |
| 20260903130806 | 22 | 181 | 4.8 | 8.0 | 0.00 | 0.00 | 0.00 | 90 | 1011.8 |
| 20260903130711 | 22 | 181 | 4.8 | 8.0 | 0.00 | 0.00 | 0.00 | 90 | 1011.7 |
| 20260903130556 | 22 | 181 | 6.4 | 8.0 | 0.00 | 0.00 | 0.00 | 90 | 1011.7 |
| 20260903130500 | 22 | 188 | 6.4 | 8.0 | 0.00 | 0.00 | 0.00 | 90 | 1011.7 |
| 20260903130406 | 22 | 183 | 4.8 | 9.7 | 0.00 | 0.00 | 0.00 | 90 | 1011.7 |
| 20260903130313 | 22 | 159 | 3.2 | 9.7 | 0.00 | 0.00 | 0.00 | 90 | 1011.7 |
| 20260903130159 | 22 | 158 | 4.8 | 9.7 | 0.00 | 0.00 | 0.00 | 90 | 1011.7 |
| 20260903130007 | 22 | 173 | 4.8 | 9.7 | 0.00 | 0.00 | 0.00 | 90 | 1011.6 |
| 20260903125912 | 22 | 174 | 4.8 | 9.7 | 0.00 | 0.00 | 0.00 | 90 | 1011.7 |
| 20260903125800 | 21 | 173 | 3.2 | 9.7 | 0.00 | 0.00 | 0.00 | 90 | 1011.7 |
| 20260903125705 | 21 | 182 | 3.2 | 9.7 | 0.00 | 0.00 | 0.00 | 90 | 1011.7 |
| 20260903125611 | 21 | 182 | 4.8 | 9.7 | 0.00 | 0.00 | 0.00 | 90 | 1011.7 |
| 20260903125515 | 21 | 182 | 6.4 | 9.7 | 0.00 | 0.00 | 0.00 | 90 | 1011.7 |
| 20260903125417 | 21 | 183 | 4.8 | 9.7 | 0.00 | 0.00 | 0.00 | 90 | 1011.8 |
| 20260903125305 | 21 | 162 | 4.8 | 9.7 | 0.00 | 0.00 | 0.00 | 90 | 1011.8 |
| 20260903125226 | 21 | 161 | 6.4 | 9.7 | 0.00 | 0.00 | 0.00 | 90 | 1011.8 |
| 20260903125130 | 21 | 161 | 4.8 | 9.7 | 0.00 | 0.00 | 0.00 | 90 | 1011.8 |
| 20260903124958 | 21 | 163 | 3.2 | 9.7 | 0.00 | 0.00 | 0.00 | 90 | 1011.8 |
| 20260903124903 | 21 | 169 | 3.2 | 9.7 | 0.00 | 0.00 | 0.00 | 90 | 1011.8 |
| 20260903124803 | 21 | 169 | 4.8 | 9.7 | 0.00 | 0.00 | 0.00 | 90 | 1011.8 |
| 20260903124728 | 21 | 165 | 4.8 | 11.3 | 0.00 | 0.00 | 0.00 | 91 | 1011.8 |
| 20260903124611 | 21 | 165 | 6.4 | 12.9 | 0.00 | 0.00 | 0.00 | 91 | 1011.7 |
| 20260903124516 | 21 | 165 | 4.8 | 12.9 | 0.00 | 0.00 | 0.00 | 91 | 1011.8 |
| 20260903124405 | 21 | 178 | 4.8 | 12.9 | 0.00 | 0.00 | 0.00 | 91 | 1011.7 |
| 20260903124309 | 21 | 187 | 6.4 | 12.9 | 0.00 | 0.00 | 0.00 | 91 | 1011.7 |
| 20260903124214 | 21 | 185 | 6.4 | 12.9 | 0.00 | 0.00 | 0.00 | 90 | 1011.7 |
| 20260903124119 | 21 | 190 | 6.4 | 12.9 | 0.00 | 0.00 | 0.00 | 90 | 1011.7 |
| 20260903123956 | 21 | 175 | 8.0 | 12.9 | 0.00 | 0.00 | 0.00 | 90 | 1011.7 |
| 20260903123901 | 21 | 167 | 8.0 | 12.9 | 0.00 | 0.00 | 0.00 | 90 | 1011.7 |
| 20260903123826 | 21 | 180 | 8.0 | 12.9 | 0.00 | 0.00 | 0.00 | 90 | 1011.6 |
| 20260903123714 | 21 | 186 | 6.4 | 9.7 | 0.00 | 0.00 | 0.00 | 90 | 1011.6 |
| 20260903123618 | 21 | 185 | 6.4 | 9.7 | 0.00 | 0.00 | 0.00 | 90 | 1011.6 |
| 20260903123455 | 21 | 168 | 4.8 | 9.7 | 0.00 | 0.00 | 0.00 | 90 | 1011.5 |
| 20260903123400 | 21 | 162 | 4.8 | 9.7 | 0.00 | 0.00 | 0.00 | 90 | 1011.4 |
| 20260903123305 | 21 | 161 | 4.8 | 9.7 | 0.00 | 0.00 | 0.00 | 90 | 1011.4 |
| 20260903123210 | 21 | 161 | 4.8 | 9.7 | 0.00 | 0.00 | 0.00 | 91 | 1011.4 |
| 20260903123119 | 21 | 160 | 4.8 | 9.7 | 0.00 | 0.00 | 0.00 | 91 | 1011.4 |
| 20260903123003 | 21 | 160 | 4.8 | 9.7 | 0.00 | 0.00 | 0.00 | 91 | 1011.4 |
| 20260903122909 | 21 | 161 | 4.8 | 9.7 | 0.00 | 0.00 | 0.00 | 91 | 1011.4 |
| 20260903122813 | 21 | 163 | 4.8 | 9.7 | 0.00 | 0.00 | 0.00 | 91 | 1011.4 |
| 20260903122658 | 21 | 184 | 4.8 | 8.0 | 0.00 | 0.00 | 0.00 | 91 | 1011.5 |
| 20260903122603 | 21 | 184 | 4.8 | 8.0 | 0.00 | 0.00 | 0.00 | 91 | 1011.6 |
| 20260903122531 | 21 | 184 | 4.8 | 8.0 | 0.00 | 0.00 | 0.00 | 91 | 1011.6 |
| 20260903122414 | 21 | 172 | 3.2 | 8.0 | 0.00 | 0.00 | 0.00 | 91 | 1011.6 |
| 20260903122319 | 21 | 172 | 4.8 | 8.0 | 0.00 | 0.00 | 0.00 | 91 | 1011.7 |
| 20260903122156 | 21 | 174 | 4.8 | 8.0 | 0.00 | 0.00 | 0.00 | 91 | 1011.7 |
| 20260903122101 | 21 | 175 | 6.4 | 8.0 | 0.00 | 0.00 | 0.00 | 91 | 1011.7 |
| 20260903122006 | 21 | 175 | 4.8 | 8.0 | 0.00 | 0.00 | 0.00 | 91 | 1011.7 |
| 20260903121915 | 21 | 175 | 3.2 | 9.7 | 0.00 | 0.00 | 0.00 | 91 | 1011.7 |
| 20260903121839 | 21 | 169 | 1.6 | 8.0 | 0.00 | 0.00 | 0.00 | 91 | 1011.7 |
| 20260903121742 | 21 | 169 | 1.6 | 8.0 | 0.00 | 0.00 | 0.00 | 91 | 1011.7 |
| 20260903121559 | 21 | 169 | 3.2 | 8.0 | 0.00 | 0.00 | 0.00 | 91 | 1011.7 |
| 20260903121504 | 21 | 169 | 6.4 | 8.0 | 0.00 | 0.00 | 0.00 | 91 | 1011.6 |
| 20260903121409 | 21 | 169 | 6.4 | 8.0 | 0.00 | 0.00 | 0.00 | 91 | 1011.6 |
| 20260903121334 | 21 | 166 | 6.4 | 9.7 | 0.00 | 0.00 | 0.00 | 91 | 1011.7 |
| 20260903121202 | 21 | 168 | 4.8 | 8.0 | 0.00 | 0.00 | 0.00 | 91 | 1011.7 |
| 20260903121107 | 21 | 168 | 6.4 | 8.0 | 0.00 | 0.00 | 0.00 | 91 | 1011.7 |
| 20260903121012 | 21 | 165 | 4.8 | 8.0 | 0.00 | 0.00 | 0.00 | 91 | 1011.8 |
| 20260903120918 | 21 | 165 | 3.2 | 8.0 | 0.00 | 0.00 | 0.00 | 91 | 1011.8 |
| 20260903120820 | 21 | 165 | 3.2 | 9.7 | 0.00 | 0.00 | 0.00 | 91 | 1011.8 |
| 20260903120657 | 21 | 165 | 3.2 | 9.7 | 0.00 | 0.00 | 0.00 | 90 | 1011.7 |
| 20260903120602 | 21 | 165 | 4.8 | 9.7 | 0.00 | 0.00 | 0.00 | 90 | 1011.5 |
| 20260903120511 | 21 | 165 | 6.4 | 9.7 | 0.00 | 0.00 | 0.00 | 91 | 1011.5 |
| 20260903120435 | 21 | 165 | 6.4 | 9.7 | 0.00 | 0.00 | 0.00 | 91 | 1011.6 |
| 20260903120319 | 21 | 164 | 4.8 | 9.7 | 0.00 | 0.00 | 0.00 | 91 | 1011.7 |
| 20260903120156 | 21 | 163 | 3.2 | 9.7 | 0.00 | 0.00 | 0.00 | 90 | 1011.6 |
| 20260903120121 | 21 | 163 | 3.2 | 9.7 | 0.00 | 0.00 | 0.00 | 90 | 1011.6 |
| 20260903115959 | 21 | 163 | 3.2 | 9.7 | 0.00 | 0.00 | 0.00 | 91 | 1011.5 |
| 20260903115909 | 21 | 162 | 3.2 | 9.7 | 0.00 | 0.00 | 0.00 | 91 | 1011.5 |
| 20260903115813 | 21 | 179 | 3.2 | 8.0 | 0.00 | 0.00 | 0.00 | 91 | 1011.6 |
| 20260903115658 | 21 | 179 | 4.8 | 8.0 | 0.00 | 0.00 | 0.00 | 90 | 1011.7 |
| 20260903115602 | 21 | 178 | 4.8 | 8.0 | 0.00 | 0.00 | 0.00 | 90 | 1011.5 |
| 20260903115507 | 21 | 177 | 4.8 | 6.4 | 0.00 | 0.00 | 0.00 | 90 | 1011.5 |
| 20260903115412 | 21 | 173 | 4.8 | 6.4 | 0.00 | 0.00 | 0.00 | 90 | 1011.5 |
| 20260903115305 | 21 | 173 | 4.8 | 6.4 | 0.00 | 0.00 | 0.00 | 90 | 1011.5 |
| 20260903115207 | 21 | 173 | 4.8 | 8.0 | 0.00 | 0.00 | 0.00 | 90 | 1011.5 |
| 20260903115111 | 21 | 173 | 4.8 | 6.4 | 0.00 | 0.00 | 0.00 | 90 | 1011.5 |
| 20260903114956 | 21 | 173 | 3.2 | 8.0 | 0.00 | 0.00 | 0.00 | 90 | 1011.4 |
| 20260903114901 | 21 | 173 | 3.2 | 6.4 | 0.00 | 0.00 | 0.00 | 90 | 1011.4 |
| 20260903114806 | 21 | 173 | 3.2 | 6.4 | 0.00 | 0.00 | 0.00 | 90 | 1011.5 |
| 20260903114734 | 21 | 173 | 3.2 | 6.4 | 0.00 | 0.00 | 0.00 | 90 | 1011.5 |
| 20260903114618 | 21 | 173 | 3.2 | 6.4 | 0.00 | 0.00 | 0.00 | 90 | 1011.6 |
| 20260903114543 | 21 | 173 | 3.2 | 6.4 | 0.00 | 0.00 | 0.00 | 90 | 1011.6 |
| 20260903114359 | 21 | 173 | 3.2 | 6.4 | 0.00 | 0.00 | 0.00 | 90 | 1011.5 |
| 20260903114304 | 21 | 173 | 3.2 | 6.4 | 0.00 | 0.00 | 0.00 | 90 | 1011.4 |
| 20260903114209 | 21 | 173 | 4.8 | 6.4 | 0.00 | 0.00 | 0.00 | 90 | 1011.4 |
| 20260903114058 | 21 | 165 | 4.8 | 11.3 | 0.00 | 0.00 | 0.00 | 90 | 1011.4 |
| 20260903114002 | 21 | 164 | 3.2 | 11.3 | 0.00 | 0.00 | 0.00 | 90 | 1011.4 |
| 20260903113907 | 21 | 163 | 3.2 | 11.3 | 0.00 | 0.00 | 0.00 | 90 | 1011.4 |
| 20260903113833 | 21 | 163 | 3.2 | 11.3 | 0.00 | 0.00 | 0.00 | 90 | 1011.4 |
| 20260903113656 | 21 | 163 | 4.8 | 11.3 | 0.00 | 0.00 | 0.00 | 90 | 1011.4 |
| 20260903113621 | 21 | 163 | 4.8 | 11.3 | 0.00 | 0.00 | 0.00 | 90 | 1011.4 |
| 20260903113459 | 21 | 162 | 6.4 | 11.3 | 0.00 | 0.00 | 0.00 | 90 | 1011.3 |
| 20260903113407 | 21 | 161 | 8.0 | 11.3 | 0.00 | 0.00 | 0.00 | 90 | 1011.3 |
| 20260903113312 | 21 | 155 | 8.0 | 11.3 | 0.00 | 0.00 | 0.00 | 90 | 1011.4 |
| 20260903113217 | 21 | 165 | 6.4 | 9.7 | 0.00 | 0.00 | 0.00 | 90 | 1011.4 |
| 20260903113121 | 21 | 167 | 4.8 | 9.7 | 0.00 | 0.00 | 0.00 | 90 | 1011.4 |
| 20260903112959 | 21 | 167 | 4.8 | 9.7 | 0.00 | 0.00 | 0.00 | 90 | 1011.6 |
| 20260903112904 | 21 | 167 | 4.8 | 9.7 | 0.00 | 0.00 | 0.00 | 90 | 1011.4 |
| 20260903112812 | 21 | 167 | 3.2 | 9.7 | 0.00 | 0.00 | 0.00 | 90 | 1011.4 |
| 20260903112717 | 21 | 174 | 3.2 | 9.7 | 0.00 | 0.00 | 0.00 | 90 | 1011.5 |
| 20260903112642 | 21 | 174 | 4.8 | 9.7 | 0.00 | 0.00 | 0.00 | 90 | 1011.4 |
| 20260903112459 | 21 | 174 | 4.8 | 9.7 | 0.00 | 0.00 | 0.00 | 90 | 1011.4 |
| 20260903112404 | 21 | 167 | 4.8 | 9.7 | 0.00 | 0.00 | 0.00 | 90 | 1011.4 |
| 20260903112310 | 21 | 178 | 4.8 | 9.7 | 0.00 | 0.00 | 0.00 | 90 | 1011.4 |
| 20260903112158 | 21 | 178 | 4.8 | 9.7 | 0.00 | 0.00 | 0.00 | 90 | 1011.3 |
| 20260903112100 | 21 | 181 | 6.4 | 9.7 | 0.00 | 0.00 | 0.00 | 90 | 1011.3 |
| 20260903112005 | 21 | 188 | 6.4 | 9.7 | 0.00 | 0.00 | 0.00 | 90 | 1011.4 |
| 20260903111910 | 21 | 192 | 6.4 | 9.7 | 0.00 | 0.00 | 0.00 | 90 | 1011.4 |
| 20260903111814 | 21 | 176 | 6.4 | 12.9 | 0.00 | 0.00 | 0.00 | 90 | 1011.3 |
| 20260903111659 | 21 | 168 | 6.4 | 12.9 | 0.00 | 0.00 | 0.00 | 90 | 1011.3 |
| 20260903111608 | 21 | 169 | 6.4 | 12.9 | 0.00 | 0.00 | 0.00 | 90 | 1011.3 |
| 20260903111512 | 21 | 173 | 4.8 | 12.9 | 0.00 | 0.00 | 0.00 | 90 | 1011.4 |
| 20260903111436 | 21 | 173 | 6.4 | 12.9 | 0.00 | 0.00 | 0.00 | 90 | 1011.3 |
| 20260903111320 | 21 | 180 | 8.0 | 12.9 | 0.00 | 0.00 | 0.00 | 90 | 1011.4 |
| 20260903111203 | 21 | 178 | 8.0 | 12.9 | 0.00 | 0.00 | 0.00 | 90 | 1011.4 |
| 20260903111128 | 21 | 195 | 9.7 | 12.9 | 0.00 | 0.00 | 0.00 | 90 | 1011.4 |
| 20260903111012 | 21 | 196 | 8.0 | 12.9 | 0.00 | 0.00 | 0.00 | 90 | 1011.5 |
| 20260903110856 | 21 | 195 | 6.4 | 9.7 | 0.00 | 0.00 | 0.00 | 90 | 1011.6 |
| 20260903110804 | 21 | 198 | 6.4 | 9.7 | 0.00 | 0.00 | 0.00 | 90 | 1011.5 |
| 20260903110709 | 21 | 199 | 6.4 | 9.7 | 0.00 | 0.00 | 0.00 | 90 | 1011.5 |
| 20260903110615 | 21 | 199 | 6.4 | 9.7 | 0.00 | 0.00 | 0.00 | 91 | 1011.6 |
| 20260903110539 | 21 | 200 | 8.0 | 9.7 | 0.00 | 0.00 | 0.00 | 91 | 1011.6 |
| 20260903110355 | 21 | 176 | 8.0 | 9.7 | 0.00 | 0.00 | 0.00 | 91 | 1011.7 |
| 20260903110300 | 21 | 192 | 8.0 | 9.7 | 0.00 | 0.00 | 0.00 | 91 | 1011.7 |
| 20260903110209 | 21 | 192 | 6.4 | 9.7 | 0.00 | 0.00 | 0.00 | 91 | 1011.7 |
| 20260903110115 | 21 | 188 | 6.4 | 9.7 | 0.00 | 0.00 | 0.00 | 91 | 1011.7 |
| 20260903105959 | 21 | 188 | 8.0 | 9.7 | 0.00 | 0.00 | 0.00 | 91 | 1011.7 |
| 20260903105904 | 21 | 175 | 8.0 | 12.9 | 0.00 | 0.00 | 0.00 | 91 | 1011.7 |
| 20260903105808 | 21 | 171 | 8.0 | 12.9 | 0.00 | 0.00 | 0.00 | 91 | 1011.7 |
| 20260903105713 | 21 | 191 | 8.0 | 12.9 | 0.00 | 0.00 | 0.00 | 91 | 1011.7 |
| 20260903105602 | 21 | 194 | 6.4 | 12.9 | 0.00 | 0.00 | 0.00 | 91 | 1011.8 |
| 20260903105528 | 21 | 208 | 6.4 | 12.9 | 0.00 | 0.00 | 0.00 | 91 | 1011.8 |
| 20260903105411 | 21 | 209 | 8.0 | 12.9 | 0.00 | 0.00 | 0.00 | 91 | 1011.8 |
| 20260903105255 | 21 | 212 | 8.0 | 12.9 | 0.00 | 0.00 | 0.00 | 91 | 1011.7 |
| 20260903105200 | 21 | 203 | 8.0 | 12.9 | 0.00 | 0.00 | 0.00 | 91 | 1011.8 |
| 20260903105125 | 21 | 201 | 8.0 | 12.9 | 0.00 | 0.00 | 0.00 | 91 | 1011.7 |
| 20260903105009 | 21 | 189 | 8.0 | 11.3 | 0.00 | 0.00 | 0.00 | 91 | 1011.7 |
| 20260903104858 | 21 | 227 | 8.0 | 11.3 | 0.00 | 0.00 | 0.00 | 91 | 1011.7 |
| 20260903104803 | 21 | 209 | 8.0 | 11.3 | 0.00 | 0.00 | 0.00 | 91 | 1011.6 |
| 20260903104707 | 21 | 207 | 8.0 | 11.3 | 0.00 | 0.00 | 0.00 | 91 | 1011.6 |
| 20260903104632 | 21 | 188 | 9.7 | 11.3 | 0.00 | 0.00 | 0.00 | 91 | 1011.7 |
| 20260903104456 | 21 | 199 | 8.0 | 11.3 | 0.00 | 0.00 | 0.00 | 91 | 1011.6 |
| 20260903104401 | 21 | 194 | 6.4 | 9.7 | 0.00 | 0.00 | 0.00 | 91 | 1011.6 |
| 20260903104330 | 21 | 189 | 4.8 | 9.7 | 0.00 | 0.00 | 0.00 | 91 | 1011.6 |
| 20260903104213 | 21 | 190 | 4.8 | 9.7 | 0.00 | 0.00 | 0.00 | 91 | 1011.7 |
| 20260903104058 | 21 | 203 | 4.8 | 8.0 | 0.00 | 0.00 | 0.00 | 91 | 1011.7 |
| 20260903104003 | 21 | 204 | 6.4 | 8.0 | 0.00 | 0.00 | 0.00 | 91 | 1011.7 |
| 20260903103907 | 20 | 198 | 6.4 | 8.0 | 0.00 | 0.00 | 0.00 | 90 | 1011.7 |
| 20260903103812 | 21 | 198 | 4.8 | 8.0 | 0.00 | 0.00 | 0.00 | 90 | 1011.7 |
| 20260903103721 | 21 | 198 | 4.8 | 8.0 | 0.00 | 0.00 | 0.00 | 90 | 1011.5 |
| 20260903103559 | 21 | 196 | 4.8 | 8.0 | 0.00 | 0.00 | 0.00 | 90 | 1011.5 |
| 20260903103524 | 21 | 196 | 4.8 | 8.0 | 0.00 | 0.00 | 0.00 | 90 | 1011.5 |
| 20260903103408 | 21 | 196 | 6.4 | 8.0 | 0.00 | 0.00 | 0.00 | 90 | 1011.5 |
| 20260903103313 | 21 | 196 | 6.4 | 8.0 | 0.00 | 0.00 | 0.00 | 90 | 1011.6 |
| 20260903103158 | 21 | 196 | 6.4 | 8.0 | 0.00 | 0.00 | 0.00 | 90 | 1011.4 |
| 20260903103107 | 21 | 196 | 6.4 | 8.0 | 0.00 | 0.00 | 0.00 | 90 | 1011.4 |
| 20260903103012 | 21 | 196 | 4.8 | 8.0 | 0.00 | 0.00 | 0.00 | 90 | 1011.4 |
| 20260903102858 | 21 | 196 | 4.8 | 6.4 | 0.00 | 0.00 | 0.00 | 90 | 1011.6 |
| 20260903102822 | 21 | 196 | 4.8 | 6.4 | 0.00 | 0.00 | 0.00 | 90 | 1011.5 |
| 20260903102705 | 21 | 198 | 4.8 | 6.4 | 0.00 | 0.00 | 0.00 | 90 | 1011.4 |
| 20260903102610 | 21 | 198 | 4.8 | 6.4 | 0.00 | 0.00 | 0.00 | 90 | 1011.4 |
| 20260903102458 | 21 | 200 | 3.2 | 6.4 | 0.00 | 0.00 | 0.00 | 90 | 1011.6 |
| 20260903102423 | 21 | 200 | 3.2 | 9.7 | 0.00 | 0.00 | 0.00 | 90 | 1011.6 |
| 20260903102326 | 21 | 200 | 3.2 | 9.7 | 0.00 | 0.00 | 0.00 | 90 | 1011.6 |
| 20260903102209 | 21 | 200 | 4.8 | 9.7 | 0.00 | 0.00 | 0.00 | 90 | 1011.6 |
| 20260903102113 | 21 | 200 | 4.8 | 9.7 | 0.00 | 0.00 | 0.00 | 90 | 1011.5 |
| 20260903102018 | 21 | 200 | 4.8 | 9.7 | 0.00 | 0.00 | 0.00 | 90 | 1011.6 |
| 20260903101902 | 21 | 200 | 4.8 | 9.7 | 0.00 | 0.00 | 0.00 | 90 | 1011.6 |
| 20260903101807 | 21 | 194 | 3.2 | 9.7 | 0.00 | 0.00 | 0.00 | 90 | 1011.6 |
| 20260903101656 | 21 | 193 | 4.8 | 9.7 | 0.00 | 0.00 | 0.00 | 90 | 1011.5 |
| 20260903101601 | 21 | 193 | 6.4 | 9.7 | 0.00 | 0.00 | 0.00 | 90 | 1011.5 |
| 20260903101506 | 21 | 194 | 6.4 | 9.7 | 0.00 | 0.00 | 0.00 | 90 | 1011.4 |
| 20260903101411 | 21 | 194 | 6.4 | 9.7 | 0.00 | 0.00 | 0.00 | 90 | 1011.4 |
| 20260903101335 | 21 | 189 | 8.0 | 9.7 | 0.00 | 0.00 | 0.00 | 90 | 1011.3 |
| 20260903101219 | 21 | 201 | 6.4 | 9.7 | 0.00 | 0.00 | 0.00 | 90 | 1011.3 |
| 20260903101106 | 21 | 167 | 6.4 | 12.9 | 0.00 | 0.00 | 0.00 | 90 | 1011.2 |
| 20260903101010 | 21 | 184 | 6.4 | 9.7 | 0.00 | 0.00 | 0.00 | 90 | 1011.2 |
| 20260903100855 | 21 | 190 | 4.8 | 8.0 | 0.00 | 0.00 | 0.00 | 90 | 1011.3 |
| 20260903100800 | 21 | 177 | 4.8 | 8.0 | 0.00 | 0.00 | 0.00 | 90 | 1011.3 |
| 20260903100705 | 21 | 177 | 6.4 | 8.0 | 0.00 | 0.00 | 0.00 | 90 | 1011.3 |
| 20260903100609 | 21 | 176 | 6.4 | 9.7 | 0.00 | 0.00 | 0.00 | 90 | 1011.3 |
| 20260903100458 | 21 | 184 | 6.4 | 9.7 | 0.00 | 0.00 | 0.00 | 90 | 1011.2 |
| 20260903100402 | 21 | 184 | 4.8 | 9.7 | 0.00 | 0.00 | 0.00 | 90 | 1011.2 |
| 20260903100307 | 21 | 182 | 4.8 | 9.7 | 0.00 | 0.00 | 0.00 | 91 | 1011.2 |
| 20260903100212 | 21 | 182 | 4.8 | 9.7 | 0.00 | 0.00 | 0.00 | 91 | 1011.2 |
| 20260903100116 | 21 | 181 | 4.8 | 9.7 | 0.00 | 0.00 | 0.00 | 91 | 1011.2 |
| 20260903100000 | 21 | 182 | 4.8 | 9.7 | 0.00 | 0.00 | 0.00 | 91 | 1011.2 |
| 20260903095909 | 21 | 180 | 4.8 | 9.7 | 0.00 | 0.00 | 0.00 | 91 | 1011.2 |
| 20260903095814 | 21 | 180 | 4.8 | 9.7 | 0.00 | 0.00 | 0.00 | 91 | 1011.2 |
| 20260903095718 | 21 | 174 | 4.8 | 9.7 | 0.00 | 0.00 | 0.00 | 91 | 1011.1 |
| 20260903095602 | 21 | 173 | 4.8 | 9.7 | 0.00 | 0.00 | 0.00 | 91 | 1011.1 |
| 20260903095507 | 21 | 175 | 4.8 | 9.7 | 0.00 | 0.00 | 0.00 | 91 | 1011.1 |
| 20260903095412 | 21 | 174 | 6.4 | 9.7 | 0.00 | 0.00 | 0.00 | 91 | 1011.1 |
| 20260903095305 | 21 | 175 | 6.4 | 9.7 | 0.00 | 0.00 | 0.00 | 91 | 1011.1 |
| 20260903095206 | 21 | 179 | 6.4 | 9.7 | 0.00 | 0.00 | 0.00 | 91 | 1011.1 |
| 20260903095035 | 20 | 182 | 4.8 | 9.7 | 0.00 | 0.00 | 0.00 | 91 | 1011.2 |
| 20260903094919 | 20 | 181 | 4.8 | 11.3 | 0.00 | 0.00 | 0.00 | 91 | 1011.1 |
| 20260903094802 | 20 | 186 | 4.8 | 11.3 | 0.00 | 0.00 | 0.00 | 91 | 1011.2 |
| 20260903094727 | 20 | 191 | 4.8 | 11.3 | 0.00 | 0.00 | 0.00 | 91 | 1011.2 |
| 20260903094610 | 20 | 192 | 6.4 | 11.3 | 0.00 | 0.00 | 0.00 | 91 | 1011.2 |
| 20260903094519 | 20 | 190 | 6.4 | 11.3 | 0.00 | 0.00 | 0.00 | 91 | 1011.4 |
| 20260903094403 | 20 | 189 | 6.4 | 11.3 | 0.00 | 0.00 | 0.00 | 91 | 1011.3 |
| 20260903094308 | 20 | 189 | 6.4 | 11.3 | 0.00 | 0.00 | 0.00 | 91 | 1011.3 |